<?xml version='1.0' encoding='UTF-8'?><gpx version="1.1" creator="JPX - https://github.com/jenetics/jpx" xmlns="http://www.topografix.com/GPX/1/1"><trk><trkseg><trkpt lat="42.0845133" lon="12.1796417"><ele>269.0</ele><time>2026-04-19T15:25:25.22Z</time></trkpt><trkpt lat="42.0845917" lon="12.1796467"><ele>269.0</ele><time>2026-04-19T15:25:27.222Z</time></trkpt><trkpt lat="42.084685" lon="12.1796233"><ele>269.0</ele><time>2026-04-19T15:25:29.22Z</time></trkpt><trkpt lat="42.08481" lon="12.1796083"><ele>269.0</ele><time>2026-04-19T15:25:31.221Z</time></trkpt><trkpt lat="42.0848733" lon="12.1795933"><ele>269.0</ele><time>2026-04-19T15:25:32.221Z</time></trkpt><trkpt lat="42.08494" lon="12.17956"><ele>269.0</ele><time>2026-04-19T15:25:33.223Z</time></trkpt><trkpt lat="42.085035" lon="12.1794583"><ele>269.4</ele><time>2026-04-19T15:25:35.219Z</time></trkpt><trkpt lat="42.0851183" lon="12.179355"><ele>269.79999999999995</ele><time>2026-04-19T15:25:37.221Z</time></trkpt><trkpt lat="42.08519" lon="12.179255"><ele>270.20000000000005</ele><time>2026-04-19T15:25:39.221Z</time></trkpt><trkpt lat="42.08526" lon="12.1791633"><ele>270.6</ele><time>2026-04-19T15:25:41.222Z</time></trkpt><trkpt lat="42.0853183" lon="12.1790633"><ele>271.0</ele><time>2026-04-19T15:25:43.231Z</time></trkpt><trkpt lat="42.0853467" lon="12.1789367"><ele>271.0</ele><time>2026-04-19T15:25:45.222Z</time></trkpt><trkpt lat="42.0853367" lon="12.178805"><ele>271.0</ele><time>2026-04-19T15:25:47.223Z</time></trkpt><trkpt lat="42.0852733" lon="12.1787"><ele>271.0</ele><time>2026-04-19T15:25:49.222Z</time></trkpt><trkpt lat="42.0851767" lon="12.1786517"><ele>271.0</ele><time>2026-04-19T15:25:51.222Z</time></trkpt><trkpt lat="42.08508" lon="12.1786333"><ele>271.0</ele><time>2026-04-19T15:25:53.221Z</time></trkpt><trkpt lat="42.0850017" lon="12.1786017"><ele>271.0</ele><time>2026-04-19T15:25:55.223Z</time></trkpt><trkpt lat="42.0849467" lon="12.178545"><ele>271.0</ele><time>2026-04-19T15:25:57.226Z</time></trkpt><trkpt lat="42.0848983" lon="12.1784833"><ele>271.0</ele><time>2026-04-19T15:25:59.224Z</time></trkpt><trkpt lat="42.0848517" lon="12.1784217"><ele>271.0</ele><time>2026-04-19T15:26:01.221Z</time></trkpt><trkpt lat="42.0848" lon="12.1783633"><ele>271.0</ele><time>2026-04-19T15:26:03.223Z</time></trkpt><trkpt lat="42.0847333" lon="12.1782767"><ele>271.0</ele><time>2026-04-19T15:26:06.219Z</time></trkpt><trkpt lat="42.08467" lon="12.178195"><ele>271.0</ele><time>2026-04-19T15:26:09.227Z</time></trkpt><trkpt lat="42.0846117" lon="12.1781167"><ele>272.16666666666663</ele><time>2026-04-19T15:26:12.226Z</time></trkpt><trkpt lat="42.08455" lon="12.1780417"><ele>273.3333333333333</ele><time>2026-04-19T15:26:15.22Z</time></trkpt><trkpt lat="42.084485" lon="12.17796"><ele>274.5</ele><time>2026-04-19T15:26:18.228Z</time></trkpt><trkpt lat="42.0844267" lon="12.1778783"><ele>275.6666666666667</ele><time>2026-04-19T15:26:21.225Z</time></trkpt><trkpt lat="42.0843617" lon="12.1777933"><ele>276.83333333333337</ele><time>2026-04-19T15:26:24.222Z</time></trkpt><trkpt lat="42.0842967" lon="12.1777"><ele>278.0</ele><time>2026-04-19T15:26:27.222Z</time></trkpt><trkpt lat="42.0842683" lon="12.17761"><ele>278.0</ele><time>2026-04-19T15:26:29.223Z</time></trkpt><trkpt lat="42.0842583" lon="12.1775083"><ele>278.0</ele><time>2026-04-19T15:26:31.222Z</time></trkpt><trkpt lat="42.0842583" lon="12.1774117"><ele>278.0</ele><time>2026-04-19T15:26:33.231Z</time></trkpt><trkpt lat="42.084255" lon="12.1773133"><ele>278.0</ele><time>2026-04-19T15:26:35.22Z</time></trkpt><trkpt lat="42.0842633" lon="12.1772083"><ele>278.0</ele><time>2026-04-19T15:26:37.226Z</time></trkpt><trkpt lat="42.08426" lon="12.1771067"><ele>278.0</ele><time>2026-04-19T15:26:39.222Z</time></trkpt><trkpt lat="42.0842583" lon="12.1769967"><ele>278.5</ele><time>2026-04-19T15:26:41.225Z</time></trkpt><trkpt lat="42.0842517" lon="12.1768817"><ele>279.0</ele><time>2026-04-19T15:26:43.22Z</time></trkpt><trkpt lat="42.08425" lon="12.1767683"><ele>279.5</ele><time>2026-04-19T15:26:45.225Z</time></trkpt><trkpt lat="42.08424" lon="12.1766583"><ele>280.0</ele><time>2026-04-19T15:26:47.229Z</time></trkpt><trkpt lat="42.084225" lon="12.176545"><ele>280.5</ele><time>2026-04-19T15:26:49.225Z</time></trkpt><trkpt lat="42.0842217" lon="12.1764317"><ele>281.0</ele><time>2026-04-19T15:26:51.223Z</time></trkpt><trkpt lat="42.08422" lon="12.1763183"><ele>281.1666666666667</ele><time>2026-04-19T15:26:53.234Z</time></trkpt><trkpt lat="42.0842167" lon="12.1761967"><ele>281.33333333333337</ele><time>2026-04-19T15:26:55.228Z</time></trkpt><trkpt lat="42.08421" lon="12.176075"><ele>281.5</ele><time>2026-04-19T15:26:57.223Z</time></trkpt><trkpt lat="42.0842033" lon="12.17595"><ele>281.6666666666667</ele><time>2026-04-19T15:26:59.225Z</time></trkpt><trkpt lat="42.084195" lon="12.1758317"><ele>281.8333333333333</ele><time>2026-04-19T15:27:01.224Z</time></trkpt><trkpt lat="42.0841933" lon="12.17572"><ele>282.0</ele><time>2026-04-19T15:27:03.223Z</time></trkpt><trkpt lat="42.08419" lon="12.1756233"><ele>282.3333333333333</ele><time>2026-04-19T15:27:05.223Z</time></trkpt><trkpt lat="42.084185" lon="12.1754967"><ele>282.6666666666667</ele><time>2026-04-19T15:27:08.22Z</time></trkpt><trkpt lat="42.08418" lon="12.1753833"><ele>283.0</ele><time>2026-04-19T15:27:11.22Z</time></trkpt><trkpt lat="42.0841683" lon="12.17527"><ele>283.33333333333337</ele><time>2026-04-19T15:27:14.23Z</time></trkpt><trkpt lat="42.084165" lon="12.1751833"><ele>283.6666666666667</ele><time>2026-04-19T15:27:16.225Z</time></trkpt><trkpt lat="42.0841533" lon="12.1750883"><ele>284.0</ele><time>2026-04-19T15:27:18.222Z</time></trkpt><trkpt lat="42.08414" lon="12.1749867"><ele>284.0</ele><time>2026-04-19T15:27:20.223Z</time></trkpt><trkpt lat="42.0841367" lon="12.174885"><ele>284.0</ele><time>2026-04-19T15:27:22.233Z</time></trkpt><trkpt lat="42.0841367" lon="12.174785"><ele>284.0</ele><time>2026-04-19T15:27:24.224Z</time></trkpt><trkpt lat="42.08414" lon="12.1746883"><ele>284.0</ele><time>2026-04-19T15:27:26.222Z</time></trkpt><trkpt lat="42.0841483" lon="12.1745933"><ele>284.0</ele><time>2026-04-19T15:27:28.224Z</time></trkpt><trkpt lat="42.084155" lon="12.1744967"><ele>284.0</ele><time>2026-04-19T15:27:30.222Z</time></trkpt><trkpt lat="42.0841533" lon="12.1744083"><ele>284.0</ele><time>2026-04-19T15:27:32.227Z</time></trkpt><trkpt lat="42.08415" lon="12.1742867"><ele>284.5</ele><time>2026-04-19T15:27:35.219Z</time></trkpt><trkpt lat="42.08415" lon="12.1741633"><ele>285.0</ele><time>2026-04-19T15:27:38.221Z</time></trkpt><trkpt lat="42.0841583" lon="12.174045"><ele>285.5</ele><time>2026-04-19T15:27:41.221Z</time></trkpt><trkpt lat="42.0841533" lon="12.173925"><ele>286.0</ele><time>2026-04-19T15:27:44.223Z</time></trkpt><trkpt lat="42.0841533" lon="12.1738133"><ele>286.5</ele><time>2026-04-19T15:27:47.222Z</time></trkpt><trkpt lat="42.0841533" lon="12.1737183"><ele>287.0</ele><time>2026-04-19T15:27:50.224Z</time></trkpt><trkpt lat="42.0841383" lon="12.1736167"><ele>287.5</ele><time>2026-04-19T15:27:53.231Z</time></trkpt><trkpt lat="42.0841263" lon="12.1735288"><ele>288.0</ele><time>2026-04-19T15:27:55.253Z</time></trkpt><trkpt lat="42.084132" lon="12.1734201"><ele>288.5</ele><time>2026-04-19T15:27:58.265Z</time></trkpt><trkpt lat="42.0841373" lon="12.1732951"><ele>289.0</ele><time>2026-04-19T15:28:01.175Z</time></trkpt><trkpt lat="42.0841409" lon="12.1731826"><ele>289.5</ele><time>2026-04-19T15:28:04.225Z</time></trkpt><trkpt lat="42.0841386" lon="12.1730779"><ele>290.0</ele><time>2026-04-19T15:28:07.222Z</time></trkpt><trkpt lat="42.0841398" lon="12.1729799"><ele>290.57142857142856</ele><time>2026-04-19T15:28:10.228Z</time></trkpt><trkpt lat="42.0841232" lon="12.1728823"><ele>291.14285714285717</ele><time>2026-04-19T15:28:13.224Z</time></trkpt><trkpt lat="42.0841083" lon="12.1727867"><ele>291.7142857142857</ele><time>2026-04-19T15:28:17.227Z</time></trkpt><trkpt lat="42.0841067" lon="12.1726783"><ele>292.2857142857143</ele><time>2026-04-19T15:28:21.228Z</time></trkpt><trkpt lat="42.0841133" lon="12.172575"><ele>292.8571428571429</ele><time>2026-04-19T15:28:25.223Z</time></trkpt><trkpt lat="42.0841117" lon="12.1724717"><ele>293.42857142857144</ele><time>2026-04-19T15:28:29.225Z</time></trkpt><trkpt lat="42.0841117" lon="12.17238"><ele>294.0</ele><time>2026-04-19T15:28:33.228Z</time></trkpt><trkpt lat="42.0841167" lon="12.1722717"><ele>294.3333333333333</ele><time>2026-04-19T15:28:37.223Z</time></trkpt><trkpt lat="42.0841183" lon="12.1721867"><ele>294.6666666666667</ele><time>2026-04-19T15:28:40.224Z</time></trkpt><trkpt lat="42.084115" lon="12.1720867"><ele>295.0</ele><time>2026-04-19T15:28:44.223Z</time></trkpt><trkpt lat="42.0841183" lon="12.171995"><ele>295.33333333333337</ele><time>2026-04-19T15:28:47.227Z</time></trkpt><trkpt lat="42.0841083" lon="12.1718883"><ele>295.6666666666667</ele><time>2026-04-19T15:28:50.227Z</time></trkpt><trkpt lat="42.0841017" lon="12.1717767"><ele>296.0</ele><time>2026-04-19T15:28:53.223Z</time></trkpt><trkpt lat="42.084095" lon="12.171645"><ele>296.14285714285717</ele><time>2026-04-19T15:28:56.221Z</time></trkpt><trkpt lat="42.0840867" lon="12.17155"><ele>296.2857142857143</ele><time>2026-04-19T15:28:58.232Z</time></trkpt><trkpt lat="42.0840883" lon="12.1714533"><ele>296.42857142857144</ele><time>2026-04-19T15:29:00.223Z</time></trkpt><trkpt lat="42.08413" lon="12.1713817"><ele>296.57142857142856</ele><time>2026-04-19T15:29:02.221Z</time></trkpt><trkpt lat="42.0842" lon="12.1713583"><ele>296.7142857142857</ele><time>2026-04-19T15:29:04.218Z</time></trkpt><trkpt lat="42.084265" lon="12.1713533"><ele>296.8571428571429</ele><time>2026-04-19T15:29:06.221Z</time></trkpt><trkpt lat="42.0843433" lon="12.1713133"><ele>297.0</ele><time>2026-04-19T15:29:09.225Z</time></trkpt><trkpt lat="42.0844217" lon="12.1712533"><ele>297.0</ele><time>2026-04-19T15:29:12.228Z</time></trkpt><trkpt lat="42.0844817" lon="12.1712233"><ele>297.0</ele><time>2026-04-19T15:29:14.225Z</time></trkpt><trkpt lat="42.0845483" lon="12.1711917"><ele>297.0</ele><time>2026-04-19T15:29:16.226Z</time></trkpt><trkpt lat="42.0846217" lon="12.1711767"><ele>297.0</ele><time>2026-04-19T15:29:18.227Z</time></trkpt><trkpt lat="42.0847" lon="12.171175"><ele>297.0</ele><time>2026-04-19T15:29:20.224Z</time></trkpt><trkpt lat="42.0847867" lon="12.1711717"><ele>297.0</ele><time>2026-04-19T15:29:22.223Z</time></trkpt><trkpt lat="42.08487" lon="12.1711717"><ele>297.5</ele><time>2026-04-19T15:29:24.225Z</time></trkpt><trkpt lat="42.0849483" lon="12.1711667"><ele>298.0</ele><time>2026-04-19T15:29:26.222Z</time></trkpt><trkpt lat="42.0850267" lon="12.17117"><ele>298.5</ele><time>2026-04-19T15:29:28.226Z</time></trkpt><trkpt lat="42.0851017" lon="12.17117"><ele>299.0</ele><time>2026-04-19T15:29:30.221Z</time></trkpt><trkpt lat="42.0851733" lon="12.17117"><ele>299.5</ele><time>2026-04-19T15:29:32.229Z</time></trkpt><trkpt lat="42.0852483" lon="12.1711667"><ele>300.0</ele><time>2026-04-19T15:29:34.225Z</time></trkpt><trkpt lat="42.0853283" lon="12.1711667"><ele>300.0</ele><time>2026-04-19T15:29:36.224Z</time></trkpt><trkpt lat="42.0854067" lon="12.1711583"><ele>300.0</ele><time>2026-04-19T15:29:38.22Z</time></trkpt><trkpt lat="42.0854917" lon="12.1711567"><ele>300.0</ele><time>2026-04-19T15:29:40.221Z</time></trkpt><trkpt lat="42.0855717" lon="12.17116"><ele>300.0</ele><time>2026-04-19T15:29:42.231Z</time></trkpt><trkpt lat="42.085645" lon="12.17118"><ele>300.0</ele><time>2026-04-19T15:29:44.221Z</time></trkpt><trkpt lat="42.085725" lon="12.1711783"><ele>300.0</ele><time>2026-04-19T15:29:46.22Z</time></trkpt><trkpt lat="42.0858083" lon="12.1711717"><ele>299.8333333333333</ele><time>2026-04-19T15:29:48.225Z</time></trkpt><trkpt lat="42.0858817" lon="12.1711733"><ele>299.6666666666667</ele><time>2026-04-19T15:29:50.222Z</time></trkpt><trkpt lat="42.08596" lon="12.171175"><ele>299.5</ele><time>2026-04-19T15:29:52.223Z</time></trkpt><trkpt lat="42.08605" lon="12.1711817"><ele>299.33333333333337</ele><time>2026-04-19T15:29:54.222Z</time></trkpt><trkpt lat="42.08614" lon="12.17119"><ele>299.1666666666667</ele><time>2026-04-19T15:29:56.219Z</time></trkpt><trkpt lat="42.086225" lon="12.1712017"><ele>299.0</ele><time>2026-04-19T15:29:58.221Z</time></trkpt><trkpt lat="42.0862983" lon="12.171215"><ele>299.0</ele><time>2026-04-19T15:30:00.221Z</time></trkpt><trkpt lat="42.086355" lon="12.1711317"><ele>299.0</ele><time>2026-04-19T15:30:03.222Z</time></trkpt><trkpt lat="42.0863717" lon="12.17102"><ele>299.0</ele><time>2026-04-19T15:30:05.223Z</time></trkpt><trkpt lat="42.0863767" lon="12.1709033"><ele>299.0</ele><time>2026-04-19T15:30:07.225Z</time></trkpt><trkpt lat="42.0863883" lon="12.170765"><ele>299.0</ele><time>2026-04-19T15:30:09.223Z</time></trkpt><trkpt lat="42.0864283" lon="12.170615"><ele>298.83333333333337</ele><time>2026-04-19T15:30:11.226Z</time></trkpt><trkpt lat="42.0864867" lon="12.1704767"><ele>298.6666666666667</ele><time>2026-04-19T15:30:13.227Z</time></trkpt><trkpt lat="42.0865167" lon="12.1704"><ele>298.5</ele><time>2026-04-19T15:30:14.223Z</time></trkpt><trkpt lat="42.08655" lon="12.17032"><ele>298.3333333333333</ele><time>2026-04-19T15:30:15.232Z</time></trkpt><trkpt lat="42.0865883" lon="12.170235"><ele>298.16666666666663</ele><time>2026-04-19T15:30:16.222Z</time></trkpt><trkpt lat="42.08663" lon="12.1701417"><ele>298.0</ele><time>2026-04-19T15:30:17.222Z</time></trkpt><trkpt lat="42.08667" lon="12.1700433"><ele>298.0</ele><time>2026-04-19T15:30:18.221Z</time></trkpt><trkpt lat="42.0867083" lon="12.16995"><ele>298.0</ele><time>2026-04-19T15:30:19.22Z</time></trkpt><trkpt lat="42.086745" lon="12.16986"><ele>298.0</ele><time>2026-04-19T15:30:20.226Z</time></trkpt><trkpt lat="42.08678" lon="12.16977"><ele>298.0</ele><time>2026-04-19T15:30:21.222Z</time></trkpt><trkpt lat="42.0868133" lon="12.169685"><ele>298.0</ele><time>2026-04-19T15:30:22.223Z</time></trkpt><trkpt lat="42.0868467" lon="12.169605"><ele>298.0</ele><time>2026-04-19T15:30:23.22Z</time></trkpt><trkpt lat="42.08688" lon="12.1695283"><ele>298.0</ele><time>2026-04-19T15:30:24.221Z</time></trkpt><trkpt lat="42.086915" lon="12.1694567"><ele>297.8</ele><time>2026-04-19T15:30:25.223Z</time></trkpt><trkpt lat="42.0869717" lon="12.1693117"><ele>297.6</ele><time>2026-04-19T15:30:27.223Z</time></trkpt><trkpt lat="42.0870167" lon="12.1691667"><ele>297.4</ele><time>2026-04-19T15:30:29.225Z</time></trkpt><trkpt lat="42.0870717" lon="12.16904"><ele>297.2</ele><time>2026-04-19T15:30:31.225Z</time></trkpt><trkpt lat="42.0871183" lon="12.1689317"><ele>297.0</ele><time>2026-04-19T15:30:33.227Z</time></trkpt><trkpt lat="42.087155" lon="12.168835"><ele>297.2857142857143</ele><time>2026-04-19T15:30:35.224Z</time></trkpt><trkpt lat="42.087185" lon="12.1687483"><ele>297.5714285714286</ele><time>2026-04-19T15:30:37.223Z</time></trkpt><trkpt lat="42.08723" lon="12.1686417"><ele>297.8571428571429</ele><time>2026-04-19T15:30:40.22Z</time></trkpt><trkpt lat="42.0872833" lon="12.1685917"><ele>298.14285714285717</ele><time>2026-04-19T15:30:42.225Z</time></trkpt><trkpt lat="42.0873383" lon="12.1685333"><ele>298.42857142857144</ele><time>2026-04-19T15:30:44.225Z</time></trkpt><trkpt lat="42.0873933" lon="12.1684633"><ele>298.7142857142857</ele><time>2026-04-19T15:30:46.22Z</time></trkpt><trkpt lat="42.087445" lon="12.1683983"><ele>299.0</ele><time>2026-04-19T15:30:48.22Z</time></trkpt><trkpt lat="42.0875" lon="12.1683417"><ele>299.33333333333337</ele><time>2026-04-19T15:30:50.23Z</time></trkpt><trkpt lat="42.0875517" lon="12.1682817"><ele>299.6666666666667</ele><time>2026-04-19T15:30:52.225Z</time></trkpt><trkpt lat="42.087605" lon="12.168225"><ele>300.0</ele><time>2026-04-19T15:30:54.223Z</time></trkpt><trkpt lat="42.0876583" lon="12.16817"><ele>300.3333333333333</ele><time>2026-04-19T15:30:56.222Z</time></trkpt><trkpt lat="42.087715" lon="12.1680933"><ele>300.66666666666663</ele><time>2026-04-19T15:30:58.224Z</time></trkpt><trkpt lat="42.0877783" lon="12.168005"><ele>301.0</ele><time>2026-04-19T15:31:00.228Z</time></trkpt><trkpt lat="42.0878433" lon="12.167925"><ele>301.0</ele><time>2026-04-19T15:31:02.22Z</time></trkpt><trkpt lat="42.0879133" lon="12.167835"><ele>301.0</ele><time>2026-04-19T15:31:04.224Z</time></trkpt><trkpt lat="42.08799" lon="12.1677383"><ele>301.0</ele><time>2026-04-19T15:31:06.234Z</time></trkpt><trkpt lat="42.088075" lon="12.167645"><ele>301.0</ele><time>2026-04-19T15:31:08.224Z</time></trkpt><trkpt lat="42.08816" lon="12.167545"><ele>301.0</ele><time>2026-04-19T15:31:10.221Z</time></trkpt><trkpt lat="42.0882417" lon="12.1674383"><ele>301.0</ele><time>2026-04-19T15:31:12.223Z</time></trkpt><trkpt lat="42.0883217" lon="12.16734"><ele>301.0</ele><time>2026-04-19T15:31:14.227Z</time></trkpt><trkpt lat="42.0883867" lon="12.1672383"><ele>301.0</ele><time>2026-04-19T15:31:16.223Z</time></trkpt><trkpt lat="42.0883817" lon="12.1671183"><ele>301.0</ele><time>2026-04-19T15:31:18.22Z</time></trkpt><trkpt lat="42.0882783" lon="12.1670233"><ele>301.0</ele><time>2026-04-19T15:31:20.221Z</time></trkpt><trkpt lat="42.0882183" lon="12.16697"><ele>301.0</ele><time>2026-04-19T15:31:21.232Z</time></trkpt><trkpt lat="42.088165" lon="12.166905"><ele>301.0</ele><time>2026-04-19T15:31:22.221Z</time></trkpt><trkpt lat="42.0881067" lon="12.1668383"><ele>301.0</ele><time>2026-04-19T15:31:23.222Z</time></trkpt><trkpt lat="42.0880467" lon="12.1667833"><ele>301.0</ele><time>2026-04-19T15:31:24.223Z</time></trkpt><trkpt lat="42.0879917" lon="12.1667283"><ele>301.0</ele><time>2026-04-19T15:31:25.223Z</time></trkpt><trkpt lat="42.0879383" lon="12.1666683"><ele>301.0</ele><time>2026-04-19T15:31:26.227Z</time></trkpt><trkpt lat="42.08789" lon="12.1666033"><ele>301.0</ele><time>2026-04-19T15:31:27.222Z</time></trkpt><trkpt lat="42.08784" lon="12.1665383"><ele>300.8333333333333</ele><time>2026-04-19T15:31:28.221Z</time></trkpt><trkpt lat="42.0877917" lon="12.1664733"><ele>300.66666666666663</ele><time>2026-04-19T15:31:29.222Z</time></trkpt><trkpt lat="42.087745" lon="12.16641"><ele>300.5</ele><time>2026-04-19T15:31:30.223Z</time></trkpt><trkpt lat="42.0876567" lon="12.1662983"><ele>300.3333333333333</ele><time>2026-04-19T15:31:32.221Z</time></trkpt><trkpt lat="42.087605" lon="12.1662467"><ele>300.1666666666667</ele><time>2026-04-19T15:31:33.236Z</time></trkpt><trkpt lat="42.0875567" lon="12.1661917"><ele>300.0</ele><time>2026-04-19T15:31:34.224Z</time></trkpt><trkpt lat="42.0874633" lon="12.1660917"><ele>299.8333333333333</ele><time>2026-04-19T15:31:36.219Z</time></trkpt><trkpt lat="42.0873717" lon="12.166"><ele>299.6666666666667</ele><time>2026-04-19T15:31:38.222Z</time></trkpt><trkpt lat="42.0873233" lon="12.165945"><ele>299.5</ele><time>2026-04-19T15:31:39.221Z</time></trkpt><trkpt lat="42.087275" lon="12.1658883"><ele>299.33333333333337</ele><time>2026-04-19T15:31:40.23Z</time></trkpt><trkpt lat="42.087225" lon="12.1658317"><ele>299.1666666666667</ele><time>2026-04-19T15:31:41.223Z</time></trkpt><trkpt lat="42.0871317" lon="12.1657217"><ele>299.0</ele><time>2026-04-19T15:31:43.224Z</time></trkpt><trkpt lat="42.0870467" lon="12.1656183"><ele>298.59999999999997</ele><time>2026-04-19T15:31:45.229Z</time></trkpt><trkpt lat="42.0869633" lon="12.1655083"><ele>298.2</ele><time>2026-04-19T15:31:47.22Z</time></trkpt><trkpt lat="42.08688" lon="12.1653983"><ele>297.79999999999995</ele><time>2026-04-19T15:31:49.221Z</time></trkpt><trkpt lat="42.0867883" lon="12.1652783"><ele>297.4</ele><time>2026-04-19T15:31:51.222Z</time></trkpt><trkpt lat="42.08674" lon="12.16522"><ele>297.0</ele><time>2026-04-19T15:31:52.23Z</time></trkpt><trkpt lat="42.0866917" lon="12.165165"><ele>297.0</ele><time>2026-04-19T15:31:53.22Z</time></trkpt><trkpt lat="42.0866383" lon="12.1651183"><ele>297.0</ele><time>2026-04-19T15:31:54.221Z</time></trkpt><trkpt lat="42.0865417" lon="12.16501"><ele>297.0</ele><time>2026-04-19T15:31:56.221Z</time></trkpt><trkpt lat="42.0864917" lon="12.1649583"><ele>297.0</ele><time>2026-04-19T15:31:57.224Z</time></trkpt><trkpt lat="42.0864" lon="12.164865"><ele>297.0</ele><time>2026-04-19T15:31:59.226Z</time></trkpt><trkpt lat="42.0863033" lon="12.1647767"><ele>297.2</ele><time>2026-04-19T15:32:01.221Z</time></trkpt><trkpt lat="42.0862217" lon="12.1646767"><ele>297.4</ele><time>2026-04-19T15:32:03.226Z</time></trkpt><trkpt lat="42.086135" lon="12.1645783"><ele>297.6</ele><time>2026-04-19T15:32:05.22Z</time></trkpt><trkpt lat="42.0860533" lon="12.1644767"><ele>297.8</ele><time>2026-04-19T15:32:07.223Z</time></trkpt><trkpt lat="42.08597" lon="12.164385"><ele>298.0</ele><time>2026-04-19T15:32:09.223Z</time></trkpt><trkpt lat="42.0858867" lon="12.1642983"><ele>298.0</ele><time>2026-04-19T15:32:11.219Z</time></trkpt><trkpt lat="42.0857967" lon="12.1642117"><ele>298.0</ele><time>2026-04-19T15:32:13.223Z</time></trkpt><trkpt lat="42.0857033" lon="12.1641217"><ele>298.0</ele><time>2026-04-19T15:32:15.233Z</time></trkpt><trkpt lat="42.0856067" lon="12.1640467"><ele>298.0</ele><time>2026-04-19T15:32:17.224Z</time></trkpt><trkpt lat="42.0854967" lon="12.16398"><ele>296.75</ele><time>2026-04-19T15:32:19.224Z</time></trkpt><trkpt lat="42.0853933" lon="12.1639033"><ele>295.5</ele><time>2026-04-19T15:32:21.224Z</time></trkpt><trkpt lat="42.0852817" lon="12.1638433"><ele>294.25</ele><time>2026-04-19T15:32:23.225Z</time></trkpt><trkpt lat="42.0851767" lon="12.16378"><ele>293.0</ele><time>2026-04-19T15:32:25.221Z</time></trkpt><trkpt lat="42.0850667" lon="12.1637183"><ele>292.99999999999994</ele><time>2026-04-19T15:32:27.222Z</time></trkpt><trkpt lat="42.0850033" lon="12.1636867"><ele>293.0</ele><time>2026-04-19T15:32:28.221Z</time></trkpt><trkpt lat="42.0849367" lon="12.163655"><ele>293.0</ele><time>2026-04-19T15:32:29.223Z</time></trkpt><trkpt lat="42.0848717" lon="12.16362"><ele>293.0</ele><time>2026-04-19T15:32:30.219Z</time></trkpt><trkpt lat="42.084805" lon="12.16358"><ele>293.0</ele><time>2026-04-19T15:32:31.224Z</time></trkpt><trkpt lat="42.08473" lon="12.16354"><ele>292.99999999999994</ele><time>2026-04-19T15:32:32.223Z</time></trkpt><trkpt lat="42.084655" lon="12.163505"><ele>293.0</ele><time>2026-04-19T15:32:33.222Z</time></trkpt><trkpt lat="42.0845767" lon="12.1634617"><ele>292.1666666666667</ele><time>2026-04-19T15:32:34.223Z</time></trkpt><trkpt lat="42.0845067" lon="12.163425"><ele>291.33333333333337</ele><time>2026-04-19T15:32:35.224Z</time></trkpt><trkpt lat="42.08442" lon="12.1633717"><ele>290.5</ele><time>2026-04-19T15:32:36.225Z</time></trkpt><trkpt lat="42.084335" lon="12.16332"><ele>289.6666666666667</ele><time>2026-04-19T15:32:37.224Z</time></trkpt><trkpt lat="42.0842517" lon="12.1632683"><ele>288.8333333333333</ele><time>2026-04-19T15:32:38.223Z</time></trkpt><trkpt lat="42.0841683" lon="12.16322"><ele>288.0</ele><time>2026-04-19T15:32:39.22Z</time></trkpt><trkpt lat="42.084085" lon="12.163175"><ele>286.5</ele><time>2026-04-19T15:32:40.218Z</time></trkpt><trkpt lat="42.0840033" lon="12.1631283"><ele>285.0</ele><time>2026-04-19T15:32:41.222Z</time></trkpt><trkpt lat="42.0839183" lon="12.1630817"><ele>283.5</ele><time>2026-04-19T15:32:42.229Z</time></trkpt><trkpt lat="42.0838333" lon="12.1630367"><ele>282.0</ele><time>2026-04-19T15:32:43.223Z</time></trkpt><trkpt lat="42.083755" lon="12.163"><ele>280.5</ele><time>2026-04-19T15:32:44.219Z</time></trkpt><trkpt lat="42.08368" lon="12.162965"><ele>279.0</ele><time>2026-04-19T15:32:45.223Z</time></trkpt><trkpt lat="42.0836067" lon="12.1629317"><ele>278.99999999999994</ele><time>2026-04-19T15:32:46.222Z</time></trkpt><trkpt lat="42.0835333" lon="12.1628983"><ele>279.0</ele><time>2026-04-19T15:32:47.225Z</time></trkpt><trkpt lat="42.08346" lon="12.16287"><ele>279.0</ele><time>2026-04-19T15:32:48.221Z</time></trkpt><trkpt lat="42.0833967" lon="12.16284"><ele>279.0</ele><time>2026-04-19T15:32:49.222Z</time></trkpt><trkpt lat="42.0833333" lon="12.1628033"><ele>279.0</ele><time>2026-04-19T15:32:50.22Z</time></trkpt><trkpt lat="42.083265" lon="12.162765"><ele>278.99999999999994</ele><time>2026-04-19T15:32:51.222Z</time></trkpt><trkpt lat="42.083195" lon="12.1627267"><ele>279.0</ele><time>2026-04-19T15:32:52.228Z</time></trkpt><trkpt lat="42.08313" lon="12.1626917"><ele>279.0</ele><time>2026-04-19T15:32:53.223Z</time></trkpt><trkpt lat="42.083065" lon="12.1626583"><ele>279.0</ele><time>2026-04-19T15:32:54.224Z</time></trkpt><trkpt lat="42.0830033" lon="12.162625"><ele>279.0</ele><time>2026-04-19T15:32:55.226Z</time></trkpt><trkpt lat="42.082945" lon="12.16259"><ele>279.0</ele><time>2026-04-19T15:32:56.224Z</time></trkpt><trkpt lat="42.0828817" lon="12.1625567"><ele>279.0</ele><time>2026-04-19T15:32:57.232Z</time></trkpt><trkpt lat="42.08282" lon="12.1625267"><ele>279.0</ele><time>2026-04-19T15:32:58.224Z</time></trkpt><trkpt lat="42.0827017" lon="12.1624683"><ele>279.0</ele><time>2026-04-19T15:33:00.222Z</time></trkpt><trkpt lat="42.0825783" lon="12.1624167"><ele>279.0</ele><time>2026-04-19T15:33:02.225Z</time></trkpt><trkpt lat="42.082465" lon="12.1623567"><ele>279.0</ele><time>2026-04-19T15:33:04.221Z</time></trkpt><trkpt lat="42.0823583" lon="12.1622983"><ele>279.0</ele><time>2026-04-19T15:33:06.222Z</time></trkpt><trkpt lat="42.0822583" lon="12.1622467"><ele>278.2857142857143</ele><time>2026-04-19T15:33:08.223Z</time></trkpt><trkpt lat="42.0821567" lon="12.16218"><ele>277.57142857142856</ele><time>2026-04-19T15:33:10.221Z</time></trkpt><trkpt lat="42.0820933" lon="12.1621433"><ele>276.8571428571429</ele><time>2026-04-19T15:33:11.221Z</time></trkpt><trkpt lat="42.0820367" lon="12.1621"><ele>276.1428571428571</ele><time>2026-04-19T15:33:12.23Z</time></trkpt><trkpt lat="42.0819767" lon="12.162065"><ele>275.42857142857144</ele><time>2026-04-19T15:33:13.221Z</time></trkpt><trkpt lat="42.0819183" lon="12.1620283"><ele>274.7142857142857</ele><time>2026-04-19T15:33:14.223Z</time></trkpt><trkpt lat="42.0818517" lon="12.1619917"><ele>274.0</ele><time>2026-04-19T15:33:15.223Z</time></trkpt><trkpt lat="42.081785" lon="12.161955"><ele>274.0</ele><time>2026-04-19T15:33:16.223Z</time></trkpt><trkpt lat="42.0817167" lon="12.161915"><ele>274.0</ele><time>2026-04-19T15:33:17.221Z</time></trkpt><trkpt lat="42.0816567" lon="12.1618817"><ele>274.0</ele><time>2026-04-19T15:33:18.224Z</time></trkpt><trkpt lat="42.0815917" lon="12.1618317"><ele>274.0</ele><time>2026-04-19T15:33:20.223Z</time></trkpt><trkpt lat="42.0815633" lon="12.1617267"><ele>274.0</ele><time>2026-04-19T15:33:23.224Z</time></trkpt><trkpt lat="42.081585" lon="12.1616033"><ele>274.0</ele><time>2026-04-19T15:33:25.223Z</time></trkpt><trkpt lat="42.08162" lon="12.1614417"><ele>273.66666666666663</ele><time>2026-04-19T15:33:27.23Z</time></trkpt><trkpt lat="42.0816433" lon="12.161355"><ele>273.3333333333333</ele><time>2026-04-19T15:33:28.221Z</time></trkpt><trkpt lat="42.081665" lon="12.16126"><ele>273.0</ele><time>2026-04-19T15:33:29.223Z</time></trkpt><trkpt lat="42.0816867" lon="12.1611567"><ele>272.6666666666667</ele><time>2026-04-19T15:33:30.221Z</time></trkpt><trkpt lat="42.0817133" lon="12.16105"><ele>272.33333333333337</ele><time>2026-04-19T15:33:31.223Z</time></trkpt><trkpt lat="42.0817417" lon="12.1609383"><ele>272.0</ele><time>2026-04-19T15:33:32.221Z</time></trkpt><trkpt lat="42.0817683" lon="12.1608167"><ele>271.8</ele><time>2026-04-19T15:33:33.234Z</time></trkpt><trkpt lat="42.081795" lon="12.1606883"><ele>271.6</ele><time>2026-04-19T15:33:34.224Z</time></trkpt><trkpt lat="42.0818233" lon="12.1605617"><ele>271.40000000000003</ele><time>2026-04-19T15:33:35.221Z</time></trkpt><trkpt lat="42.0818533" lon="12.160435"><ele>271.2</ele><time>2026-04-19T15:33:36.222Z</time></trkpt><trkpt lat="42.0818833" lon="12.1603083"><ele>271.0</ele><time>2026-04-19T15:33:37.222Z</time></trkpt><trkpt lat="42.0819167" lon="12.1601867"><ele>271.0</ele><time>2026-04-19T15:33:38.224Z</time></trkpt><trkpt lat="42.0819517" lon="12.1600667"><ele>271.0</ele><time>2026-04-19T15:33:39.222Z</time></trkpt><trkpt lat="42.0819883" lon="12.1599467"><ele>271.0</ele><time>2026-04-19T15:33:40.221Z</time></trkpt><trkpt lat="42.08202" lon="12.1598317"><ele>271.0</ele><time>2026-04-19T15:33:41.219Z</time></trkpt><trkpt lat="42.0820483" lon="12.15972"><ele>271.0</ele><time>2026-04-19T15:33:42.222Z</time></trkpt><trkpt lat="42.0820767" lon="12.1595983"><ele>269.8</ele><time>2026-04-19T15:33:43.221Z</time></trkpt><trkpt lat="42.0821017" lon="12.1594817"><ele>268.6</ele><time>2026-04-19T15:33:44.22Z</time></trkpt><trkpt lat="42.0821267" lon="12.1593567"><ele>267.4</ele><time>2026-04-19T15:33:45.221Z</time></trkpt><trkpt lat="42.0821517" lon="12.1592433"><ele>266.2</ele><time>2026-04-19T15:33:46.219Z</time></trkpt><trkpt lat="42.08218" lon="12.1591267"><ele>265.0</ele><time>2026-04-19T15:33:47.22Z</time></trkpt><trkpt lat="42.0822117" lon="12.1590133"><ele>264.5</ele><time>2026-04-19T15:33:48.229Z</time></trkpt><trkpt lat="42.0822433" lon="12.1589017"><ele>264.0</ele><time>2026-04-19T15:33:49.221Z</time></trkpt><trkpt lat="42.08227" lon="12.1587833"><ele>263.5</ele><time>2026-04-19T15:33:50.225Z</time></trkpt><trkpt lat="42.0823" lon="12.1586683"><ele>263.0</ele><time>2026-04-19T15:33:51.224Z</time></trkpt><trkpt lat="42.082325" lon="12.1585633"><ele>262.5</ele><time>2026-04-19T15:33:52.223Z</time></trkpt><trkpt lat="42.0823483" lon="12.1584567"><ele>262.0</ele><time>2026-04-19T15:33:53.226Z</time></trkpt><trkpt lat="42.0823717" lon="12.158355"><ele>262.0</ele><time>2026-04-19T15:33:54.224Z</time></trkpt><trkpt lat="42.0823967" lon="12.1582583"><ele>262.0</ele><time>2026-04-19T15:33:55.226Z</time></trkpt><trkpt lat="42.0824233" lon="12.158165"><ele>262.0</ele><time>2026-04-19T15:33:56.223Z</time></trkpt><trkpt lat="42.0824483" lon="12.1580733"><ele>262.0</ele><time>2026-04-19T15:33:57.224Z</time></trkpt><trkpt lat="42.0824717" lon="12.1579817"><ele>262.0</ele><time>2026-04-19T15:33:58.224Z</time></trkpt><trkpt lat="42.0824917" lon="12.1578917"><ele>262.0</ele><time>2026-04-19T15:33:59.22Z</time></trkpt><trkpt lat="42.082515" lon="12.157805"><ele>262.0</ele><time>2026-04-19T15:34:00.229Z</time></trkpt><trkpt lat="42.0825383" lon="12.1577233"><ele>262.14285714285717</ele><time>2026-04-19T15:34:01.225Z</time></trkpt><trkpt lat="42.0825617" lon="12.1576317"><ele>262.28571428571433</ele><time>2026-04-19T15:34:02.225Z</time></trkpt><trkpt lat="42.0825867" lon="12.1575383"><ele>262.42857142857144</ele><time>2026-04-19T15:34:03.224Z</time></trkpt><trkpt lat="42.082615" lon="12.1574483"><ele>262.57142857142856</ele><time>2026-04-19T15:34:04.224Z</time></trkpt><trkpt lat="42.0826383" lon="12.1573583"><ele>262.71428571428567</ele><time>2026-04-19T15:34:05.22Z</time></trkpt><trkpt lat="42.0826633" lon="12.157275"><ele>262.85714285714283</ele><time>2026-04-19T15:34:06.225Z</time></trkpt><trkpt lat="42.0826833" lon="12.1571917"><ele>263.0</ele><time>2026-04-19T15:34:07.22Z</time></trkpt><trkpt lat="42.0827283" lon="12.1570367"><ele>263.0</ele><time>2026-04-19T15:34:09.224Z</time></trkpt><trkpt lat="42.0827467" lon="12.1569533"><ele>263.0</ele><time>2026-04-19T15:34:10.22Z</time></trkpt><trkpt lat="42.0827767" lon="12.1568067"><ele>263.0</ele><time>2026-04-19T15:34:12.221Z</time></trkpt><trkpt lat="42.0828033" lon="12.156665"><ele>263.0</ele><time>2026-04-19T15:34:14.224Z</time></trkpt><trkpt lat="42.0828333" lon="12.1565383"><ele>263.0</ele><time>2026-04-19T15:34:16.222Z</time></trkpt><trkpt lat="42.082865" lon="12.1564083"><ele>263.0</ele><time>2026-04-19T15:34:18.222Z</time></trkpt><trkpt lat="42.082895" lon="12.1562783"><ele>263.0</ele><time>2026-04-19T15:34:20.225Z</time></trkpt><trkpt lat="42.0829233" lon="12.15616"><ele>263.0</ele><time>2026-04-19T15:34:22.228Z</time></trkpt><trkpt lat="42.0829517" lon="12.156045"><ele>263.0</ele><time>2026-04-19T15:34:24.223Z</time></trkpt><trkpt lat="42.08298" lon="12.1559233"><ele>263.0</ele><time>2026-04-19T15:34:26.223Z</time></trkpt><trkpt lat="42.0830117" lon="12.155795"><ele>263.0</ele><time>2026-04-19T15:34:28.219Z</time></trkpt><trkpt lat="42.08305" lon="12.15565"><ele>263.0</ele><time>2026-04-19T15:34:30.223Z</time></trkpt><trkpt lat="42.0830917" lon="12.1554983"><ele>263.0</ele><time>2026-04-19T15:34:32.22Z</time></trkpt><trkpt lat="42.0831267" lon="12.1553467"><ele>263.0</ele><time>2026-04-19T15:34:34.228Z</time></trkpt><trkpt lat="42.0831617" lon="12.1552"><ele>263.0</ele><time>2026-04-19T15:34:36.22Z</time></trkpt><trkpt lat="42.0831967" lon="12.1550583"><ele>263.0</ele><time>2026-04-19T15:34:38.224Z</time></trkpt><trkpt lat="42.0832333" lon="12.154915"><ele>263.0</ele><time>2026-04-19T15:34:40.224Z</time></trkpt><trkpt lat="42.083265" lon="12.1547683"><ele>263.0</ele><time>2026-04-19T15:34:42.228Z</time></trkpt><trkpt lat="42.0832983" lon="12.1546233"><ele>263.0</ele><time>2026-04-19T15:34:44.224Z</time></trkpt><trkpt lat="42.0833267" lon="12.1544833"><ele>263.6</ele><time>2026-04-19T15:34:46.222Z</time></trkpt><trkpt lat="42.0833583" lon="12.1543483"><ele>264.20000000000005</ele><time>2026-04-19T15:34:48.223Z</time></trkpt><trkpt lat="42.083395" lon="12.154215"><ele>264.8</ele><time>2026-04-19T15:34:50.225Z</time></trkpt><trkpt lat="42.0834233" lon="12.1540867"><ele>265.40000000000003</ele><time>2026-04-19T15:34:52.223Z</time></trkpt><trkpt lat="42.08346" lon="12.1539683"><ele>266.0</ele><time>2026-04-19T15:34:54.222Z</time></trkpt><trkpt lat="42.0834933" lon="12.153855"><ele>266.6666666666667</ele><time>2026-04-19T15:34:56.221Z</time></trkpt><trkpt lat="42.0835167" lon="12.1537433"><ele>267.33333333333337</ele><time>2026-04-19T15:34:58.219Z</time></trkpt><trkpt lat="42.0835417" lon="12.1536367"><ele>268.0</ele><time>2026-04-19T15:35:00.221Z</time></trkpt><trkpt lat="42.0835717" lon="12.1535383"><ele>268.6666666666667</ele><time>2026-04-19T15:35:02.227Z</time></trkpt><trkpt lat="42.0836" lon="12.1534383"><ele>269.3333333333333</ele><time>2026-04-19T15:35:04.22Z</time></trkpt><trkpt lat="42.08362" lon="12.153345"><ele>270.0</ele><time>2026-04-19T15:35:06.219Z</time></trkpt><trkpt lat="42.0836367" lon="12.1532583"><ele>271.0</ele><time>2026-04-19T15:35:08.218Z</time></trkpt><trkpt lat="42.083665" lon="12.153175"><ele>272.0</ele><time>2026-04-19T15:35:10.225Z</time></trkpt><trkpt lat="42.0836833" lon="12.1530883"><ele>273.0</ele><time>2026-04-19T15:35:12.226Z</time></trkpt><trkpt lat="42.0837133" lon="12.1529783"><ele>274.0</ele><time>2026-04-19T15:35:15.222Z</time></trkpt><trkpt lat="42.0837333" lon="12.1528617"><ele>275.0</ele><time>2026-04-19T15:35:18.226Z</time></trkpt><trkpt lat="42.0837567" lon="12.1527517"><ele>276.0</ele><time>2026-04-19T15:35:21.223Z</time></trkpt><trkpt lat="42.0837917" lon="12.1526333"><ele>276.0</ele><time>2026-04-19T15:35:24.226Z</time></trkpt><trkpt lat="42.0838167" lon="12.1525217"><ele>276.0</ele><time>2026-04-19T15:35:27.224Z</time></trkpt><trkpt lat="42.083845" lon="12.152415"><ele>276.0</ele><time>2026-04-19T15:35:30.223Z</time></trkpt><trkpt lat="42.0838733" lon="12.1523183"><ele>276.0</ele><time>2026-04-19T15:35:33.226Z</time></trkpt><trkpt lat="42.0839" lon="12.1522133"><ele>276.0</ele><time>2026-04-19T15:35:36.219Z</time></trkpt><trkpt lat="42.08393" lon="12.1521117"><ele>276.0</ele><time>2026-04-19T15:35:39.223Z</time></trkpt><trkpt lat="42.0839583" lon="12.1519983"><ele>276.3333333333333</ele><time>2026-04-19T15:35:42.222Z</time></trkpt><trkpt lat="42.083995" lon="12.1518817"><ele>276.6666666666667</ele><time>2026-04-19T15:35:45.222Z</time></trkpt><trkpt lat="42.0840217" lon="12.151775"><ele>277.0</ele><time>2026-04-19T15:35:48.222Z</time></trkpt><trkpt lat="42.0840367" lon="12.15169"><ele>277.33333333333337</ele><time>2026-04-19T15:35:50.224Z</time></trkpt><trkpt lat="42.08405" lon="12.1516033"><ele>277.6666666666667</ele><time>2026-04-19T15:35:52.224Z</time></trkpt><trkpt lat="42.08408" lon="12.1514917"><ele>278.0</ele><time>2026-04-19T15:35:55.223Z</time></trkpt><trkpt lat="42.0841033" lon="12.15138"><ele>278.0</ele><time>2026-04-19T15:35:58.224Z</time></trkpt><trkpt lat="42.0841367" lon="12.1512783"><ele>278.0</ele><time>2026-04-19T15:36:01.229Z</time></trkpt><trkpt lat="42.084165" lon="12.1511733"><ele>278.0</ele><time>2026-04-19T15:36:04.222Z</time></trkpt><trkpt lat="42.0842017" lon="12.1510817"><ele>278.0</ele><time>2026-04-19T15:36:07.233Z</time></trkpt><trkpt lat="42.08421" lon="12.150985"><ele>278.0</ele><time>2026-04-19T15:36:23.224Z</time></trkpt><trkpt lat="42.0841667" lon="12.1508967"><ele>278.0</ele><time>2026-04-19T15:36:26.229Z</time></trkpt><trkpt lat="42.08415" lon="12.1508133"><ele>278.0</ele><time>2026-04-19T15:36:30.225Z</time></trkpt><trkpt lat="42.0841917" lon="12.1507267"><ele>278.0</ele><time>2026-04-19T15:38:00.221Z</time></trkpt><trkpt lat="42.0842167" lon="12.1506017"><ele>278.0</ele><time>2026-04-19T15:38:03.225Z</time></trkpt><trkpt lat="42.08424" lon="12.1505117"><ele>278.0</ele><time>2026-04-19T15:38:05.225Z</time></trkpt><trkpt lat="42.084275" lon="12.1504317"><ele>278.0</ele><time>2026-04-19T15:38:07.224Z</time></trkpt><trkpt lat="42.0843033" lon="12.15034"><ele>278.0</ele><time>2026-04-19T15:38:09.225Z</time></trkpt><trkpt lat="42.08433" lon="12.1502367"><ele>278.0</ele><time>2026-04-19T15:38:11.221Z</time></trkpt><trkpt lat="42.0843633" lon="12.1501367"><ele>278.0</ele><time>2026-04-19T15:38:13.224Z</time></trkpt><trkpt lat="42.0843867" lon="12.1500333"><ele>278.0</ele><time>2026-04-19T15:38:15.228Z</time></trkpt><trkpt lat="42.08441" lon="12.1499217"><ele>278.0</ele><time>2026-04-19T15:38:17.221Z</time></trkpt><trkpt lat="42.0844317" lon="12.1498033"><ele>278.0</ele><time>2026-04-19T15:38:19.221Z</time></trkpt><trkpt lat="42.084455" lon="12.1496817"><ele>278.0</ele><time>2026-04-19T15:38:21.223Z</time></trkpt><trkpt lat="42.0844817" lon="12.1495367"><ele>278.0</ele><time>2026-04-19T15:38:23.23Z</time></trkpt><trkpt lat="42.0845233" lon="12.1493933"><ele>278.0</ele><time>2026-04-19T15:38:25.22Z</time></trkpt><trkpt lat="42.0845583" lon="12.1492333"><ele>278.0</ele><time>2026-04-19T15:38:27.219Z</time></trkpt><trkpt lat="42.0845783" lon="12.149145"><ele>278.0</ele><time>2026-04-19T15:38:28.222Z</time></trkpt><trkpt lat="42.0845983" lon="12.1490467"><ele>278.0</ele><time>2026-04-19T15:38:29.229Z</time></trkpt><trkpt lat="42.084625" lon="12.1489517"><ele>277.57142857142856</ele><time>2026-04-19T15:38:30.221Z</time></trkpt><trkpt lat="42.08465" lon="12.1488533"><ele>277.14285714285717</ele><time>2026-04-19T15:38:31.224Z</time></trkpt><trkpt lat="42.0846717" lon="12.1487517"><ele>276.7142857142857</ele><time>2026-04-19T15:38:32.222Z</time></trkpt><trkpt lat="42.084695" lon="12.148655"><ele>276.2857142857143</ele><time>2026-04-19T15:38:33.224Z</time></trkpt><trkpt lat="42.08472" lon="12.1485617"><ele>275.85714285714283</ele><time>2026-04-19T15:38:34.226Z</time></trkpt><trkpt lat="42.084745" lon="12.1484733"><ele>275.42857142857144</ele><time>2026-04-19T15:38:35.221Z</time></trkpt><trkpt lat="42.0847667" lon="12.14839"><ele>275.0</ele><time>2026-04-19T15:38:36.229Z</time></trkpt><trkpt lat="42.0847967" lon="12.1482283"><ele>274.2</ele><time>2026-04-19T15:38:38.22Z</time></trkpt><trkpt lat="42.0848217" lon="12.14807"><ele>273.4</ele><time>2026-04-19T15:38:40.221Z</time></trkpt><trkpt lat="42.0848333" lon="12.14791"><ele>272.6</ele><time>2026-04-19T15:38:42.222Z</time></trkpt><trkpt lat="42.0848433" lon="12.147825"><ele>271.8</ele><time>2026-04-19T15:38:43.224Z</time></trkpt><trkpt lat="42.084875" lon="12.1476717"><ele>271.0</ele><time>2026-04-19T15:38:45.225Z</time></trkpt><trkpt lat="42.0848817" lon="12.1475217"><ele>271.0</ele><time>2026-04-19T15:38:47.225Z</time></trkpt><trkpt lat="42.0849033" lon="12.147385"><ele>271.0</ele><time>2026-04-19T15:38:49.22Z</time></trkpt><trkpt lat="42.08493" lon="12.147225"><ele>271.0</ele><time>2026-04-19T15:38:51.226Z</time></trkpt><trkpt lat="42.084945" lon="12.14714"><ele>271.0</ele><time>2026-04-19T15:38:52.23Z</time></trkpt><trkpt lat="42.0849633" lon="12.147045"><ele>271.0</ele><time>2026-04-19T15:38:53.223Z</time></trkpt><trkpt lat="42.0849867" lon="12.1469517"><ele>271.0</ele><time>2026-04-19T15:38:54.224Z</time></trkpt><trkpt lat="42.0850167" lon="12.146865"><ele>271.0</ele><time>2026-04-19T15:38:55.222Z</time></trkpt><trkpt lat="42.08508" lon="12.1467317"><ele>271.0</ele><time>2026-04-19T15:38:57.222Z</time></trkpt><trkpt lat="42.085145" lon="12.146605"><ele>271.0</ele><time>2026-04-19T15:38:59.224Z</time></trkpt><trkpt lat="42.085195" lon="12.14647"><ele>271.0</ele><time>2026-04-19T15:39:01.266Z</time></trkpt><trkpt lat="42.085235" lon="12.146335"><ele>270.25</ele><time>2026-04-19T15:39:03.224Z</time></trkpt><trkpt lat="42.0852583" lon="12.1461733"><ele>269.5</ele><time>2026-04-19T15:39:05.222Z</time></trkpt><trkpt lat="42.085265" lon="12.1460117"><ele>268.75</ele><time>2026-04-19T15:39:07.223Z</time></trkpt><trkpt lat="42.0852783" lon="12.1458683"><ele>268.0</ele><time>2026-04-19T15:39:09.224Z</time></trkpt><trkpt lat="42.0852833" lon="12.14572"><ele>268.0</ele><time>2026-04-19T15:39:11.223Z</time></trkpt><trkpt lat="42.0853" lon="12.1455817"><ele>268.0</ele><time>2026-04-19T15:39:13.222Z</time></trkpt><trkpt lat="42.0853083" lon="12.1454483"><ele>268.0</ele><time>2026-04-19T15:39:15.222Z</time></trkpt><trkpt lat="42.0852883" lon="12.1453233"><ele>268.0</ele><time>2026-04-19T15:39:17.222Z</time></trkpt><trkpt lat="42.0852567" lon="12.1452133"><ele>268.0</ele><time>2026-04-19T15:39:19.225Z</time></trkpt><trkpt lat="42.085205" lon="12.1451067"><ele>268.0</ele><time>2026-04-19T15:39:21.223Z</time></trkpt><trkpt lat="42.0851483" lon="12.1450083"><ele>268.0</ele><time>2026-04-19T15:39:23.223Z</time></trkpt><trkpt lat="42.085075" lon="12.144905"><ele>268.0</ele><time>2026-04-19T15:39:25.221Z</time></trkpt><trkpt lat="42.08501" lon="12.1447967"><ele>268.0</ele><time>2026-04-19T15:39:27.223Z</time></trkpt><trkpt lat="42.0849467" lon="12.144695"><ele>268.0</ele><time>2026-04-19T15:39:29.226Z</time></trkpt><trkpt lat="42.0848767" lon="12.1445867"><ele>268.6</ele><time>2026-04-19T15:39:31.225Z</time></trkpt><trkpt lat="42.0848117" lon="12.144465"><ele>269.20000000000005</ele><time>2026-04-19T15:39:33.22Z</time></trkpt><trkpt lat="42.0847533" lon="12.144375"><ele>269.8</ele><time>2026-04-19T15:39:35.222Z</time></trkpt><trkpt lat="42.0847" lon="12.1443033"><ele>270.40000000000003</ele><time>2026-04-19T15:39:38.222Z</time></trkpt><trkpt lat="42.084605" lon="12.1441617"><ele>271.0</ele><time>2026-04-19T15:40:49.224Z</time></trkpt><trkpt lat="42.084535" lon="12.144085"><ele>271.0</ele><time>2026-04-19T15:40:52.223Z</time></trkpt><trkpt lat="42.0844867" lon="12.14401"><ele>271.0</ele><time>2026-04-19T15:40:54.232Z</time></trkpt><trkpt lat="42.0844433" lon="12.1439333"><ele>271.0</ele><time>2026-04-19T15:40:56.223Z</time></trkpt><trkpt lat="42.0844017" lon="12.14386"><ele>271.0</ele><time>2026-04-19T15:40:58.221Z</time></trkpt><trkpt lat="42.0843567" lon="12.1437783"><ele>271.0</ele><time>2026-04-19T15:41:00.225Z</time></trkpt><trkpt lat="42.084295" lon="12.1437017"><ele>271.0</ele><time>2026-04-19T15:41:02.221Z</time></trkpt><trkpt lat="42.0842317" lon="12.143615"><ele>271.0</ele><time>2026-04-19T15:41:04.232Z</time></trkpt><trkpt lat="42.0841633" lon="12.14354"><ele>271.0</ele><time>2026-04-19T15:41:06.221Z</time></trkpt><trkpt lat="42.0840983" lon="12.14347"><ele>271.0</ele><time>2026-04-19T15:41:08.223Z</time></trkpt><trkpt lat="42.0840267" lon="12.1433983"><ele>271.0</ele><time>2026-04-19T15:41:10.223Z</time></trkpt><trkpt lat="42.0839567" lon="12.143325"><ele>271.0</ele><time>2026-04-19T15:41:12.222Z</time></trkpt><trkpt lat="42.0838917" lon="12.143265"><ele>271.0</ele><time>2026-04-19T15:41:14.222Z</time></trkpt><trkpt lat="42.0838317" lon="12.143215"><ele>272.2857142857143</ele><time>2026-04-19T15:41:16.224Z</time></trkpt><trkpt lat="42.0837683" lon="12.1431733"><ele>273.57142857142856</ele><time>2026-04-19T15:41:18.221Z</time></trkpt><trkpt lat="42.0837083" lon="12.1431367"><ele>274.8571428571429</ele><time>2026-04-19T15:41:20.231Z</time></trkpt><trkpt lat="42.0836467" lon="12.1430817"><ele>276.1428571428571</ele><time>2026-04-19T15:41:23.223Z</time></trkpt><trkpt lat="42.0835817" lon="12.14303"><ele>277.42857142857144</ele><time>2026-04-19T15:41:26.224Z</time></trkpt><trkpt lat="42.0835117" lon="12.14298"><ele>278.7142857142857</ele><time>2026-04-19T15:41:30.222Z</time></trkpt><trkpt lat="42.0834517" lon="12.1429367"><ele>280.0</ele><time>2026-04-19T15:41:33.236Z</time></trkpt><trkpt lat="42.0833933" lon="12.14288"><ele>280.0</ele><time>2026-04-19T15:41:36.222Z</time></trkpt><trkpt lat="42.0833317" lon="12.1428183"><ele>280.0</ele><time>2026-04-19T15:41:39.224Z</time></trkpt><trkpt lat="42.0832733" lon="12.142765"><ele>280.0</ele><time>2026-04-19T15:41:42.224Z</time></trkpt><trkpt lat="42.0832133" lon="12.1427183"><ele>280.0</ele><time>2026-04-19T15:41:45.233Z</time></trkpt><trkpt lat="42.0831567" lon="12.14266"><ele>280.0</ele><time>2026-04-19T15:41:48.224Z</time></trkpt><trkpt lat="42.0830933" lon="12.1425967"><ele>280.0</ele><time>2026-04-19T15:41:51.222Z</time></trkpt><trkpt lat="42.08303" lon="12.1425417"><ele>280.0</ele><time>2026-04-19T15:41:55.225Z</time></trkpt><trkpt lat="42.0829683" lon="12.1424567"><ele>279.4</ele><time>2026-04-19T15:41:59.222Z</time></trkpt><trkpt lat="42.0829167" lon="12.142375"><ele>278.8</ele><time>2026-04-19T15:42:01.222Z</time></trkpt><trkpt lat="42.082855" lon="12.1422733"><ele>278.2</ele><time>2026-04-19T15:42:03.223Z</time></trkpt><trkpt lat="42.08279" lon="12.1421633"><ele>277.6</ele><time>2026-04-19T15:42:05.221Z</time></trkpt><trkpt lat="42.0827183" lon="12.1420417"><ele>277.0</ele><time>2026-04-19T15:42:07.221Z</time></trkpt><trkpt lat="42.0826617" lon="12.141915"><ele>277.0</ele><time>2026-04-19T15:42:09.229Z</time></trkpt><trkpt lat="42.0826267" lon="12.1417833"><ele>277.0</ele><time>2026-04-19T15:42:11.22Z</time></trkpt><trkpt lat="42.0826083" lon="12.1416567"><ele>277.0</ele><time>2026-04-19T15:42:13.223Z</time></trkpt><trkpt lat="42.08259" lon="12.1415283"><ele>277.0</ele><time>2026-04-19T15:42:15.227Z</time></trkpt><trkpt lat="42.0825717" lon="12.14141"><ele>277.0</ele><time>2026-04-19T15:42:17.221Z</time></trkpt><trkpt lat="42.0825483" lon="12.1413033"><ele>277.16666666666663</ele><time>2026-04-19T15:42:19.223Z</time></trkpt><trkpt lat="42.0825167" lon="12.141205"><ele>277.3333333333333</ele><time>2026-04-19T15:42:21.224Z</time></trkpt><trkpt lat="42.0824817" lon="12.1411133"><ele>277.5</ele><time>2026-04-19T15:42:23.221Z</time></trkpt><trkpt lat="42.0824417" lon="12.1410267"><ele>277.6666666666667</ele><time>2026-04-19T15:42:25.221Z</time></trkpt><trkpt lat="42.0823967" lon="12.1409417"><ele>277.83333333333337</ele><time>2026-04-19T15:42:27.224Z</time></trkpt><trkpt lat="42.0823533" lon="12.1408533"><ele>278.0</ele><time>2026-04-19T15:42:29.228Z</time></trkpt><trkpt lat="42.08231" lon="12.140765"><ele>278.5</ele><time>2026-04-19T15:42:31.221Z</time></trkpt><trkpt lat="42.0822533" lon="12.1406733"><ele>279.0</ele><time>2026-04-19T15:42:33.225Z</time></trkpt><trkpt lat="42.08218" lon="12.1405867"><ele>279.5</ele><time>2026-04-19T15:42:35.22Z</time></trkpt><trkpt lat="42.0821017" lon="12.1405217"><ele>280.0</ele><time>2026-04-19T15:42:37.22Z</time></trkpt><trkpt lat="42.0820217" lon="12.14048"><ele>280.5</ele><time>2026-04-19T15:42:39.22Z</time></trkpt><trkpt lat="42.081945" lon="12.1404617"><ele>281.0</ele><time>2026-04-19T15:42:41.221Z</time></trkpt><trkpt lat="42.0818683" lon="12.1404667"><ele>281.0</ele><time>2026-04-19T15:42:43.221Z</time></trkpt><trkpt lat="42.08179" lon="12.1404517"><ele>281.0</ele><time>2026-04-19T15:42:45.221Z</time></trkpt><trkpt lat="42.0817117" lon="12.140435"><ele>281.0</ele><time>2026-04-19T15:42:47.22Z</time></trkpt><trkpt lat="42.081635" lon="12.14041"><ele>281.0</ele><time>2026-04-19T15:42:49.225Z</time></trkpt><trkpt lat="42.0815583" lon="12.1403767"><ele>281.0</ele><time>2026-04-19T15:42:51.23Z</time></trkpt><trkpt lat="42.0814833" lon="12.1403483"><ele>281.0</ele><time>2026-04-19T15:42:53.222Z</time></trkpt><trkpt lat="42.0814083" lon="12.1403333"><ele>281.42857142857144</ele><time>2026-04-19T15:42:55.222Z</time></trkpt><trkpt lat="42.0813333" lon="12.1403267"><ele>281.8571428571429</ele><time>2026-04-19T15:42:57.224Z</time></trkpt><trkpt lat="42.0812583" lon="12.1403283"><ele>282.2857142857143</ele><time>2026-04-19T15:42:59.228Z</time></trkpt><trkpt lat="42.0811867" lon="12.140325"><ele>282.7142857142857</ele><time>2026-04-19T15:43:01.225Z</time></trkpt><trkpt lat="42.081115" lon="12.140315"><ele>283.1428571428571</ele><time>2026-04-19T15:43:03.225Z</time></trkpt><trkpt lat="42.0810467" lon="12.1403033"><ele>283.57142857142856</ele><time>2026-04-19T15:43:05.222Z</time></trkpt><trkpt lat="42.0809767" lon="12.140295"><ele>284.0</ele><time>2026-04-19T15:43:07.223Z</time></trkpt><trkpt lat="42.0809017" lon="12.1402867"><ele>284.0</ele><time>2026-04-19T15:43:09.225Z</time></trkpt><trkpt lat="42.0808267" lon="12.1402767"><ele>284.0</ele><time>2026-04-19T15:43:11.223Z</time></trkpt><trkpt lat="42.08075" lon="12.1402633"><ele>284.0</ele><time>2026-04-19T15:43:13.222Z</time></trkpt><trkpt lat="42.0806733" lon="12.1402433"><ele>284.0</ele><time>2026-04-19T15:43:15.229Z</time></trkpt><trkpt lat="42.080595" lon="12.1402233"><ele>284.0</ele><time>2026-04-19T15:43:17.227Z</time></trkpt><trkpt lat="42.0805233" lon="12.1401917"><ele>284.0</ele><time>2026-04-19T15:43:19.22Z</time></trkpt><trkpt lat="42.0804567" lon="12.14015"><ele>283.83333333333337</ele><time>2026-04-19T15:43:21.223Z</time></trkpt><trkpt lat="42.080395" lon="12.140095"><ele>283.6666666666667</ele><time>2026-04-19T15:43:23.219Z</time></trkpt><trkpt lat="42.0803233" lon="12.14002"><ele>283.5</ele><time>2026-04-19T15:43:26.223Z</time></trkpt><trkpt lat="42.0802483" lon="12.1399617"><ele>283.3333333333333</ele><time>2026-04-19T15:43:29.225Z</time></trkpt><trkpt lat="42.0801683" lon="12.1399133"><ele>283.16666666666663</ele><time>2026-04-19T15:43:32.222Z</time></trkpt><trkpt lat="42.080095" lon="12.1398783"><ele>283.0</ele><time>2026-04-19T15:43:35.222Z</time></trkpt><trkpt lat="42.08002" lon="12.1398383"><ele>283.42857142857144</ele><time>2026-04-19T15:43:38.221Z</time></trkpt><trkpt lat="42.0799583" lon="12.1397967"><ele>283.8571428571429</ele><time>2026-04-19T15:43:40.22Z</time></trkpt><trkpt lat="42.0798983" lon="12.1397433"><ele>284.2857142857143</ele><time>2026-04-19T15:43:42.221Z</time></trkpt><trkpt lat="42.0798417" lon="12.1396917"><ele>284.7142857142857</ele><time>2026-04-19T15:43:44.222Z</time></trkpt><trkpt lat="42.0797917" lon="12.1396367"><ele>285.1428571428571</ele><time>2026-04-19T15:43:46.23Z</time></trkpt><trkpt lat="42.0797283" lon="12.1395983"><ele>285.57142857142856</ele><time>2026-04-19T15:43:48.221Z</time></trkpt><trkpt lat="42.0796667" lon="12.1395533"><ele>286.0</ele><time>2026-04-19T15:43:50.225Z</time></trkpt><trkpt lat="42.0796033" lon="12.1395083"><ele>285.99999999999994</ele><time>2026-04-19T15:43:52.222Z</time></trkpt><trkpt lat="42.0795483" lon="12.1394533"><ele>286.0</ele><time>2026-04-19T15:43:54.224Z</time></trkpt><trkpt lat="42.0794933" lon="12.1394"><ele>286.0</ele><time>2026-04-19T15:43:56.232Z</time></trkpt><trkpt lat="42.07944" lon="12.139345"><ele>286.0</ele><time>2026-04-19T15:43:58.222Z</time></trkpt><trkpt lat="42.079385" lon="12.1392917"><ele>286.0</ele><time>2026-04-19T15:44:00.22Z</time></trkpt><trkpt lat="42.0793267" lon="12.13924"><ele>285.99999999999994</ele><time>2026-04-19T15:44:02.226Z</time></trkpt><trkpt lat="42.07927" lon="12.1391933"><ele>286.0</ele><time>2026-04-19T15:44:04.22Z</time></trkpt><trkpt lat="42.079215" lon="12.1391417"><ele>286.0</ele><time>2026-04-19T15:44:06.22Z</time></trkpt><trkpt lat="42.0791567" lon="12.1390983"><ele>286.0</ele><time>2026-04-19T15:44:08.225Z</time></trkpt><trkpt lat="42.07909" lon="12.1390483"><ele>286.0</ele><time>2026-04-19T15:44:10.22Z</time></trkpt><trkpt lat="42.0790217" lon="12.1389867"><ele>286.0</ele><time>2026-04-19T15:44:12.223Z</time></trkpt><trkpt lat="42.0789467" lon="12.1389217"><ele>286.0</ele><time>2026-04-19T15:44:14.23Z</time></trkpt><trkpt lat="42.0788717" lon="12.138855"><ele>286.0</ele><time>2026-04-19T15:44:16.224Z</time></trkpt><trkpt lat="42.07879" lon="12.1387883"><ele>285.40000000000003</ele><time>2026-04-19T15:44:18.223Z</time></trkpt><trkpt lat="42.0787017" lon="12.1387267"><ele>284.8</ele><time>2026-04-19T15:44:20.227Z</time></trkpt><trkpt lat="42.0786083" lon="12.1386633"><ele>284.20000000000005</ele><time>2026-04-19T15:44:22.222Z</time></trkpt><trkpt lat="42.0785017" lon="12.1385867"><ele>283.6</ele><time>2026-04-19T15:44:24.225Z</time></trkpt><trkpt lat="42.0784467" lon="12.1385433"><ele>283.0</ele><time>2026-04-19T15:44:25.223Z</time></trkpt><trkpt lat="42.07839" lon="12.1384967"><ele>283.0</ele><time>2026-04-19T15:44:26.227Z</time></trkpt><trkpt lat="42.0783283" lon="12.1384517"><ele>283.0</ele><time>2026-04-19T15:44:27.227Z</time></trkpt><trkpt lat="42.07825" lon="12.1383983"><ele>283.0</ele><time>2026-04-19T15:44:28.22Z</time></trkpt><trkpt lat="42.078175" lon="12.138355"><ele>283.0</ele><time>2026-04-19T15:44:29.225Z</time></trkpt><trkpt lat="42.078065" lon="12.138275"><ele>283.0</ele><time>2026-04-19T15:44:31.22Z</time></trkpt><trkpt lat="42.07801" lon="12.1382233"><ele>283.0</ele><time>2026-04-19T15:44:32.221Z</time></trkpt><trkpt lat="42.07791" lon="12.13814"><ele>282.6</ele><time>2026-04-19T15:44:34.222Z</time></trkpt><trkpt lat="42.0778033" lon="12.138055"><ele>282.20000000000005</ele><time>2026-04-19T15:44:36.221Z</time></trkpt><trkpt lat="42.077745" lon="12.1380017"><ele>281.8</ele><time>2026-04-19T15:44:37.223Z</time></trkpt><trkpt lat="42.0776533" lon="12.13791"><ele>281.40000000000003</ele><time>2026-04-19T15:44:39.222Z</time></trkpt><trkpt lat="42.0775533" lon="12.1378317"><ele>281.0</ele><time>2026-04-19T15:44:41.222Z</time></trkpt><trkpt lat="42.0774533" lon="12.137755"><ele>281.2</ele><time>2026-04-19T15:44:43.221Z</time></trkpt><trkpt lat="42.0773483" lon="12.1376833"><ele>281.40000000000003</ele><time>2026-04-19T15:44:45.232Z</time></trkpt><trkpt lat="42.0772517" lon="12.1376083"><ele>281.6</ele><time>2026-04-19T15:44:47.219Z</time></trkpt><trkpt lat="42.0771683" lon="12.137535"><ele>281.8</ele><time>2026-04-19T15:44:49.217Z</time></trkpt><trkpt lat="42.0771017" lon="12.1374467"><ele>282.0</ele><time>2026-04-19T15:44:51.22Z</time></trkpt><trkpt lat="42.0770367" lon="12.137355"><ele>282.0</ele><time>2026-04-19T15:44:53.224Z</time></trkpt><trkpt lat="42.076955" lon="12.1372583"><ele>282.0</ele><time>2026-04-19T15:44:55.224Z</time></trkpt><trkpt lat="42.0768667" lon="12.1371667"><ele>282.0</ele><time>2026-04-19T15:44:57.222Z</time></trkpt><trkpt lat="42.0767883" lon="12.1370733"><ele>282.0</ele><time>2026-04-19T15:44:59.219Z</time></trkpt><trkpt lat="42.0767117" lon="12.136975"><ele>282.0</ele><time>2026-04-19T15:45:01.227Z</time></trkpt><trkpt lat="42.076645" lon="12.13685"><ele>281.5</ele><time>2026-04-19T15:45:03.227Z</time></trkpt><trkpt lat="42.0765917" lon="12.1367183"><ele>281.0</ele><time>2026-04-19T15:45:05.22Z</time></trkpt><trkpt lat="42.0765467" lon="12.1365733"><ele>280.5</ele><time>2026-04-19T15:45:07.221Z</time></trkpt><trkpt lat="42.0764967" lon="12.1364383"><ele>280.0</ele><time>2026-04-19T15:45:09.224Z</time></trkpt><trkpt lat="42.0764467" lon="12.1363"><ele>280.8</ele><time>2026-04-19T15:45:11.221Z</time></trkpt><trkpt lat="42.0763883" lon="12.1361733"><ele>281.6</ele><time>2026-04-19T15:45:13.219Z</time></trkpt><trkpt lat="42.0763167" lon="12.1360683"><ele>282.4</ele><time>2026-04-19T15:45:15.22Z</time></trkpt><trkpt lat="42.0762633" lon="12.1359983"><ele>283.2</ele><time>2026-04-19T15:45:16.22Z</time></trkpt><trkpt lat="42.0761567" lon="12.1359133"><ele>284.0</ele><time>2026-04-19T15:45:18.218Z</time></trkpt><trkpt lat="42.07605" lon="12.135865"><ele>284.0</ele><time>2026-04-19T15:45:20.224Z</time></trkpt><trkpt lat="42.0759417" lon="12.13581"><ele>284.0</ele><time>2026-04-19T15:45:22.226Z</time></trkpt><trkpt lat="42.07585" lon="12.1357533"><ele>284.0</ele><time>2026-04-19T15:45:24.221Z</time></trkpt><trkpt lat="42.07575" lon="12.1356817"><ele>284.0</ele><time>2026-04-19T15:45:26.219Z</time></trkpt><trkpt lat="42.0756933" lon="12.13564"><ele>284.0</ele><time>2026-04-19T15:45:27.228Z</time></trkpt><trkpt lat="42.0755883" lon="12.1355417"><ele>282.8</ele><time>2026-04-19T15:45:29.218Z</time></trkpt><trkpt lat="42.0755017" lon="12.1354367"><ele>281.59999999999997</ele><time>2026-04-19T15:45:31.226Z</time></trkpt><trkpt lat="42.07546" lon="12.1353717"><ele>280.4</ele><time>2026-04-19T15:45:32.223Z</time></trkpt><trkpt lat="42.0753783" lon="12.1352767"><ele>279.2</ele><time>2026-04-19T15:45:34.221Z</time></trkpt><trkpt lat="42.0752817" lon="12.1352083"><ele>278.0</ele><time>2026-04-19T15:45:36.22Z</time></trkpt><trkpt lat="42.0751817" lon="12.13515"><ele>278.0</ele><time>2026-04-19T15:45:38.223Z</time></trkpt><trkpt lat="42.0750917" lon="12.1350917"><ele>278.0</ele><time>2026-04-19T15:45:40.226Z</time></trkpt><trkpt lat="42.0750333" lon="12.1350467"><ele>278.0</ele><time>2026-04-19T15:45:41.22Z</time></trkpt><trkpt lat="42.0749833" lon="12.1349917"><ele>278.0</ele><time>2026-04-19T15:45:42.222Z</time></trkpt><trkpt lat="42.074895" lon="12.1349133"><ele>278.0</ele><time>2026-04-19T15:45:44.22Z</time></trkpt><trkpt lat="42.0747933" lon="12.1348683"><ele>278.0</ele><time>2026-04-19T15:45:46.217Z</time></trkpt><trkpt lat="42.0747317" lon="12.1348417"><ele>276.8</ele><time>2026-04-19T15:45:47.223Z</time></trkpt><trkpt lat="42.074675" lon="12.1348"><ele>275.6</ele><time>2026-04-19T15:45:48.222Z</time></trkpt><trkpt lat="42.0745733" lon="12.134715"><ele>274.4</ele><time>2026-04-19T15:45:50.221Z</time></trkpt><trkpt lat="42.0744767" lon="12.134635"><ele>273.2</ele><time>2026-04-19T15:45:52.223Z</time></trkpt><trkpt lat="42.0743817" lon="12.13456"><ele>272.0</ele><time>2026-04-19T15:45:54.227Z</time></trkpt><trkpt lat="42.0742917" lon="12.1344867"><ele>272.0</ele><time>2026-04-19T15:45:56.225Z</time></trkpt><trkpt lat="42.0742" lon="12.1344133"><ele>272.0</ele><time>2026-04-19T15:45:58.23Z</time></trkpt><trkpt lat="42.0740967" lon="12.13434"><ele>272.0</ele><time>2026-04-19T15:46:00.221Z</time></trkpt><trkpt lat="42.0740383" lon="12.1343083"><ele>272.0</ele><time>2026-04-19T15:46:01.223Z</time></trkpt><trkpt lat="42.07395" lon="12.134245"><ele>272.0</ele><time>2026-04-19T15:46:03.222Z</time></trkpt><trkpt lat="42.073855" lon="12.1341767"><ele>271.6</ele><time>2026-04-19T15:46:05.225Z</time></trkpt><trkpt lat="42.0737583" lon="12.1341"><ele>271.2</ele><time>2026-04-19T15:46:07.219Z</time></trkpt><trkpt lat="42.07366" lon="12.1340183"><ele>270.8</ele><time>2026-04-19T15:46:09.222Z</time></trkpt><trkpt lat="42.073565" lon="12.1339317"><ele>270.4</ele><time>2026-04-19T15:46:11.223Z</time></trkpt><trkpt lat="42.0734733" lon="12.1338617"><ele>270.0</ele><time>2026-04-19T15:46:13.222Z</time></trkpt><trkpt lat="42.0733717" lon="12.1337867"><ele>270.0</ele><time>2026-04-19T15:46:15.232Z</time></trkpt><trkpt lat="42.073285" lon="12.1337167"><ele>270.0</ele><time>2026-04-19T15:46:17.223Z</time></trkpt><trkpt lat="42.0731917" lon="12.13364"><ele>270.0</ele><time>2026-04-19T15:46:19.221Z</time></trkpt><trkpt lat="42.0730967" lon="12.1335867"><ele>270.0</ele><time>2026-04-19T15:46:21.225Z</time></trkpt><trkpt lat="42.0730133" lon="12.133535"><ele>270.0</ele><time>2026-04-19T15:46:23.221Z</time></trkpt><trkpt lat="42.0729383" lon="12.1334983"><ele>270.0</ele><time>2026-04-19T15:46:25.222Z</time></trkpt><trkpt lat="42.0728533" lon="12.1334667"><ele>270.0</ele><time>2026-04-19T15:46:27.231Z</time></trkpt><trkpt lat="42.0727633" lon="12.1334467"><ele>270.0</ele><time>2026-04-19T15:46:29.223Z</time></trkpt><trkpt lat="42.07267" lon="12.1334333"><ele>270.0</ele><time>2026-04-19T15:46:31.223Z</time></trkpt><trkpt lat="42.072585" lon="12.1334183"><ele>270.0</ele><time>2026-04-19T15:46:33.22Z</time></trkpt><trkpt lat="42.07251" lon="12.1333867"><ele>270.0</ele><time>2026-04-19T15:46:35.222Z</time></trkpt><trkpt lat="42.0724283" lon="12.13336"><ele>270.0</ele><time>2026-04-19T15:46:37.225Z</time></trkpt><trkpt lat="42.0723667" lon="12.133325"><ele>270.0</ele><time>2026-04-19T15:46:38.221Z</time></trkpt><trkpt lat="42.072255" lon="12.1333317"><ele>270.0</ele><time>2026-04-19T15:46:40.22Z</time></trkpt><trkpt lat="42.0721467" lon="12.1332533"><ele>270.0</ele><time>2026-04-19T15:46:42.231Z</time></trkpt><trkpt lat="42.07204" lon="12.1331733"><ele>270.0</ele><time>2026-04-19T15:46:44.221Z</time></trkpt><trkpt lat="42.0719333" lon="12.1331"><ele>269.8</ele><time>2026-04-19T15:46:46.221Z</time></trkpt><trkpt lat="42.071825" lon="12.13304"><ele>269.6</ele><time>2026-04-19T15:46:48.225Z</time></trkpt><trkpt lat="42.0717467" lon="12.1329883"><ele>269.4</ele><time>2026-04-19T15:46:50.219Z</time></trkpt><trkpt lat="42.0716583" lon="12.1329933"><ele>269.2</ele><time>2026-04-19T15:46:56.222Z</time></trkpt><trkpt lat="42.07158" lon="12.13296"><ele>269.0</ele><time>2026-04-19T15:46:58.222Z</time></trkpt><trkpt lat="42.0714833" lon="12.1329233"><ele>268.6666666666667</ele><time>2026-04-19T15:47:00.226Z</time></trkpt><trkpt lat="42.07137" lon="12.1328817"><ele>268.33333333333337</ele><time>2026-04-19T15:47:02.225Z</time></trkpt><trkpt lat="42.0712533" lon="12.1328383"><ele>268.0</ele><time>2026-04-19T15:47:04.222Z</time></trkpt><trkpt lat="42.0711917" lon="12.13281"><ele>267.6666666666667</ele><time>2026-04-19T15:47:05.22Z</time></trkpt><trkpt lat="42.0711283" lon="12.1327767"><ele>267.3333333333333</ele><time>2026-04-19T15:47:06.221Z</time></trkpt><trkpt lat="42.071065" lon="12.1327417"><ele>267.0</ele><time>2026-04-19T15:47:07.22Z</time></trkpt><trkpt lat="42.0709983" lon="12.1327067"><ele>267.00000000000006</ele><time>2026-04-19T15:47:08.218Z</time></trkpt><trkpt lat="42.0709317" lon="12.132665"><ele>267.0</ele><time>2026-04-19T15:47:09.22Z</time></trkpt><trkpt lat="42.0708633" lon="12.1326267"><ele>267.0</ele><time>2026-04-19T15:47:10.218Z</time></trkpt><trkpt lat="42.0707967" lon="12.132585"><ele>267.0</ele><time>2026-04-19T15:47:11.223Z</time></trkpt><trkpt lat="42.0707283" lon="12.1325383"><ele>267.0</ele><time>2026-04-19T15:47:12.221Z</time></trkpt><trkpt lat="42.07066" lon="12.1324967"><ele>267.00000000000006</ele><time>2026-04-19T15:47:13.224Z</time></trkpt><trkpt lat="42.07059" lon="12.13246"><ele>267.0</ele><time>2026-04-19T15:47:14.22Z</time></trkpt><trkpt lat="42.07052" lon="12.13242"><ele>266.3333333333333</ele><time>2026-04-19T15:47:15.228Z</time></trkpt><trkpt lat="42.0704517" lon="12.1323783"><ele>265.6666666666667</ele><time>2026-04-19T15:47:16.222Z</time></trkpt><trkpt lat="42.0703867" lon="12.1323283"><ele>265.0</ele><time>2026-04-19T15:47:17.223Z</time></trkpt><trkpt lat="42.0703217" lon="12.132275"><ele>264.33333333333337</ele><time>2026-04-19T15:47:18.222Z</time></trkpt><trkpt lat="42.070255" lon="12.1322217"><ele>263.6666666666667</ele><time>2026-04-19T15:47:19.222Z</time></trkpt><trkpt lat="42.070185" lon="12.13217"><ele>263.0</ele><time>2026-04-19T15:47:20.23Z</time></trkpt><trkpt lat="42.0701117" lon="12.1321183"><ele>263.0</ele><time>2026-04-19T15:47:21.222Z</time></trkpt><trkpt lat="42.0700417" lon="12.13206"><ele>263.0</ele><time>2026-04-19T15:47:22.225Z</time></trkpt><trkpt lat="42.0699683" lon="12.132"><ele>263.0</ele><time>2026-04-19T15:47:23.224Z</time></trkpt><trkpt lat="42.0698967" lon="12.131935"><ele>263.0</ele><time>2026-04-19T15:47:24.221Z</time></trkpt><trkpt lat="42.0698233" lon="12.131875"><ele>263.0</ele><time>2026-04-19T15:47:25.221Z</time></trkpt><trkpt lat="42.0697517" lon="12.131815"><ele>263.0</ele><time>2026-04-19T15:47:26.219Z</time></trkpt><trkpt lat="42.06968" lon="12.1317583"><ele>262.33333333333337</ele><time>2026-04-19T15:47:27.225Z</time></trkpt><trkpt lat="42.0696117" lon="12.1317033"><ele>261.6666666666667</ele><time>2026-04-19T15:47:28.225Z</time></trkpt><trkpt lat="42.069545" lon="12.1316517"><ele>261.0</ele><time>2026-04-19T15:47:29.224Z</time></trkpt><trkpt lat="42.06948" lon="12.1315983"><ele>260.3333333333333</ele><time>2026-04-19T15:47:30.222Z</time></trkpt><trkpt lat="42.0694167" lon="12.131545"><ele>259.66666666666663</ele><time>2026-04-19T15:47:31.22Z</time></trkpt><trkpt lat="42.0693533" lon="12.131495"><ele>259.0</ele><time>2026-04-19T15:47:32.219Z</time></trkpt><trkpt lat="42.0692933" lon="12.131445"><ele>258.8333333333333</ele><time>2026-04-19T15:47:33.222Z</time></trkpt><trkpt lat="42.0692317" lon="12.1313917"><ele>258.66666666666663</ele><time>2026-04-19T15:47:34.222Z</time></trkpt><trkpt lat="42.0691667" lon="12.131335"><ele>258.5</ele><time>2026-04-19T15:47:35.223Z</time></trkpt><trkpt lat="42.0691033" lon="12.1312817"><ele>258.3333333333333</ele><time>2026-04-19T15:47:36.221Z</time></trkpt><trkpt lat="42.0690383" lon="12.1312267"><ele>258.1666666666667</ele><time>2026-04-19T15:47:37.22Z</time></trkpt><trkpt lat="42.0689733" lon="12.1311683"><ele>258.0</ele><time>2026-04-19T15:47:38.222Z</time></trkpt><trkpt lat="42.0689083" lon="12.13111"><ele>257.8333333333333</ele><time>2026-04-19T15:47:39.222Z</time></trkpt><trkpt lat="42.0688417" lon="12.131055"><ele>257.6666666666667</ele><time>2026-04-19T15:47:40.219Z</time></trkpt><trkpt lat="42.0687783" lon="12.131"><ele>257.5</ele><time>2026-04-19T15:47:41.225Z</time></trkpt><trkpt lat="42.068715" lon="12.1309467"><ele>257.33333333333337</ele><time>2026-04-19T15:47:42.227Z</time></trkpt><trkpt lat="42.0686517" lon="12.1308917"><ele>257.1666666666667</ele><time>2026-04-19T15:47:43.22Z</time></trkpt><trkpt lat="42.0685833" lon="12.1308417"><ele>257.0</ele><time>2026-04-19T15:47:44.224Z</time></trkpt><trkpt lat="42.0685133" lon="12.1308"><ele>257.0</ele><time>2026-04-19T15:47:45.222Z</time></trkpt><trkpt lat="42.0684417" lon="12.1307617"><ele>257.0</ele><time>2026-04-19T15:47:46.22Z</time></trkpt><trkpt lat="42.0683733" lon="12.1307267"><ele>257.0</ele><time>2026-04-19T15:47:47.223Z</time></trkpt><trkpt lat="42.068305" lon="12.130695"><ele>257.0</ele><time>2026-04-19T15:47:48.224Z</time></trkpt><trkpt lat="42.068235" lon="12.13067"><ele>257.0</ele><time>2026-04-19T15:47:49.229Z</time></trkpt><trkpt lat="42.068165" lon="12.130655"><ele>257.0</ele><time>2026-04-19T15:47:50.223Z</time></trkpt><trkpt lat="42.068095" lon="12.1306467"><ele>257.0</ele><time>2026-04-19T15:47:51.223Z</time></trkpt><trkpt lat="42.068025" lon="12.13065"><ele>256.85714285714283</ele><time>2026-04-19T15:47:52.224Z</time></trkpt><trkpt lat="42.0679583" lon="12.13066"><ele>256.7142857142857</ele><time>2026-04-19T15:47:53.225Z</time></trkpt><trkpt lat="42.0678917" lon="12.1306783"><ele>256.57142857142856</ele><time>2026-04-19T15:47:54.225Z</time></trkpt><trkpt lat="42.067825" lon="12.1307"><ele>256.42857142857144</ele><time>2026-04-19T15:47:55.224Z</time></trkpt><trkpt lat="42.0677567" lon="12.13072"><ele>256.2857142857143</ele><time>2026-04-19T15:47:56.228Z</time></trkpt><trkpt lat="42.06769" lon="12.1307433"><ele>256.1428571428571</ele><time>2026-04-19T15:47:57.227Z</time></trkpt><trkpt lat="42.06762" lon="12.1307667"><ele>256.0</ele><time>2026-04-19T15:47:58.223Z</time></trkpt><trkpt lat="42.06755" lon="12.1307967"><ele>256.0</ele><time>2026-04-19T15:47:59.22Z</time></trkpt><trkpt lat="42.06748" lon="12.13083"><ele>255.99999999999997</ele><time>2026-04-19T15:48:00.224Z</time></trkpt><trkpt lat="42.06741" lon="12.13086"><ele>256.0</ele><time>2026-04-19T15:48:01.22Z</time></trkpt><trkpt lat="42.0673383" lon="12.1308867"><ele>256.0</ele><time>2026-04-19T15:48:02.224Z</time></trkpt><trkpt lat="42.0672667" lon="12.1309133"><ele>255.99999999999997</ele><time>2026-04-19T15:48:03.222Z</time></trkpt><trkpt lat="42.067195" lon="12.1309417"><ele>256.0</ele><time>2026-04-19T15:48:04.231Z</time></trkpt><trkpt lat="42.0671233" lon="12.1309683"><ele>256.0</ele><time>2026-04-19T15:48:05.222Z</time></trkpt><trkpt lat="42.0670517" lon="12.1309983"><ele>255.7142857142857</ele><time>2026-04-19T15:48:06.223Z</time></trkpt><trkpt lat="42.06698" lon="12.131025"><ele>255.4285714285714</ele><time>2026-04-19T15:48:07.222Z</time></trkpt><trkpt lat="42.0669067" lon="12.13105"><ele>255.14285714285714</ele><time>2026-04-19T15:48:08.225Z</time></trkpt><trkpt lat="42.0668333" lon="12.13108"><ele>254.85714285714283</ele><time>2026-04-19T15:48:09.231Z</time></trkpt><trkpt lat="42.0667617" lon="12.1311067"><ele>254.57142857142856</ele><time>2026-04-19T15:48:10.223Z</time></trkpt><trkpt lat="42.0666917" lon="12.13113"><ele>254.28571428571428</ele><time>2026-04-19T15:48:11.224Z</time></trkpt><trkpt lat="42.0666217" lon="12.1311583"><ele>254.0</ele><time>2026-04-19T15:48:12.222Z</time></trkpt><trkpt lat="42.0665567" lon="12.1311883"><ele>253.33333333333334</ele><time>2026-04-19T15:48:13.223Z</time></trkpt><trkpt lat="42.066495" lon="12.1312183"><ele>252.66666666666669</ele><time>2026-04-19T15:48:14.228Z</time></trkpt><trkpt lat="42.0663967" lon="12.1312617"><ele>252.0</ele><time>2026-04-19T15:48:16.22Z</time></trkpt><trkpt lat="42.0663167" lon="12.1313033"><ele>251.33333333333331</ele><time>2026-04-19T15:48:19.231Z</time></trkpt><trkpt lat="42.0662317" lon="12.1313583"><ele>250.66666666666666</ele><time>2026-04-19T15:48:22.225Z</time></trkpt><trkpt lat="42.0661533" lon="12.1314017"><ele>250.0</ele><time>2026-04-19T15:48:24.23Z</time></trkpt><trkpt lat="42.0660617" lon="12.1314517"><ele>250.0</ele><time>2026-04-19T15:48:26.225Z</time></trkpt><trkpt lat="42.0659633" lon="12.13151"><ele>250.0</ele><time>2026-04-19T15:48:28.223Z</time></trkpt><trkpt lat="42.0658617" lon="12.1315633"><ele>250.0</ele><time>2026-04-19T15:48:30.229Z</time></trkpt><trkpt lat="42.0657467" lon="12.1316283"><ele>250.0</ele><time>2026-04-19T15:48:32.222Z</time></trkpt><trkpt lat="42.065635" lon="12.1316967"><ele>250.8</ele><time>2026-04-19T15:48:34.223Z</time></trkpt><trkpt lat="42.065525" lon="12.1317683"><ele>251.6</ele><time>2026-04-19T15:48:36.224Z</time></trkpt><trkpt lat="42.0654133" lon="12.131835"><ele>252.39999999999998</ele><time>2026-04-19T15:48:38.225Z</time></trkpt><trkpt lat="42.0652983" lon="12.1319117"><ele>253.2</ele><time>2026-04-19T15:48:40.225Z</time></trkpt><trkpt lat="42.0652417" lon="12.13195"><ele>254.0</ele><time>2026-04-19T15:48:41.224Z</time></trkpt><trkpt lat="42.065185" lon="12.1319883"><ele>254.0</ele><time>2026-04-19T15:48:42.229Z</time></trkpt><trkpt lat="42.0651283" lon="12.13203"><ele>254.0</ele><time>2026-04-19T15:48:43.225Z</time></trkpt><trkpt lat="42.0650683" lon="12.1320717"><ele>254.0</ele><time>2026-04-19T15:48:44.225Z</time></trkpt><trkpt lat="42.06501" lon="12.1321167"><ele>254.0</ele><time>2026-04-19T15:48:45.224Z</time></trkpt><trkpt lat="42.0649517" lon="12.132165"><ele>254.0</ele><time>2026-04-19T15:48:46.223Z</time></trkpt><trkpt lat="42.064895" lon="12.1322133"><ele>254.0</ele><time>2026-04-19T15:48:47.222Z</time></trkpt><trkpt lat="42.0648383" lon="12.1322633"><ele>254.0</ele><time>2026-04-19T15:48:48.221Z</time></trkpt><trkpt lat="42.0647817" lon="12.1323133"><ele>253.85714285714286</ele><time>2026-04-19T15:48:49.229Z</time></trkpt><trkpt lat="42.0647267" lon="12.1323683"><ele>253.71428571428572</ele><time>2026-04-19T15:48:50.222Z</time></trkpt><trkpt lat="42.0646717" lon="12.13242"><ele>253.57142857142858</ele><time>2026-04-19T15:48:51.225Z</time></trkpt><trkpt lat="42.064615" lon="12.13247"><ele>253.42857142857144</ele><time>2026-04-19T15:48:52.223Z</time></trkpt><trkpt lat="42.0645583" lon="12.13252"><ele>253.28571428571428</ele><time>2026-04-19T15:48:53.223Z</time></trkpt><trkpt lat="42.064505" lon="12.13257"><ele>253.14285714285717</ele><time>2026-04-19T15:48:54.231Z</time></trkpt><trkpt lat="42.06445" lon="12.1326133"><ele>253.00000000000003</ele><time>2026-04-19T15:48:55.223Z</time></trkpt><trkpt lat="42.0643967" lon="12.1326667"><ele>253.00000000000003</ele><time>2026-04-19T15:48:56.223Z</time></trkpt><trkpt lat="42.0643433" lon="12.1327217"><ele>253.0</ele><time>2026-04-19T15:48:57.223Z</time></trkpt><trkpt lat="42.0642883" lon="12.1327717"><ele>253.00000000000003</ele><time>2026-04-19T15:48:58.223Z</time></trkpt><trkpt lat="42.064235" lon="12.1328233"><ele>253.00000000000003</ele><time>2026-04-19T15:48:59.226Z</time></trkpt><trkpt lat="42.0641817" lon="12.1328767"><ele>253.0</ele><time>2026-04-19T15:49:00.227Z</time></trkpt><trkpt lat="42.0641283" lon="12.1329267"><ele>253.00000000000003</ele><time>2026-04-19T15:49:01.22Z</time></trkpt><trkpt lat="42.0640783" lon="12.13298"><ele>253.00000000000003</ele><time>2026-04-19T15:49:02.222Z</time></trkpt><trkpt lat="42.0640267" lon="12.1330317"><ele>252.60000000000002</ele><time>2026-04-19T15:49:03.223Z</time></trkpt><trkpt lat="42.0639783" lon="12.1330867"><ele>252.20000000000002</ele><time>2026-04-19T15:49:04.229Z</time></trkpt><trkpt lat="42.06393" lon="12.133145"><ele>251.8</ele><time>2026-04-19T15:49:05.223Z</time></trkpt><trkpt lat="42.0638367" lon="12.133255"><ele>251.4</ele><time>2026-04-19T15:49:07.221Z</time></trkpt><trkpt lat="42.063735" lon="12.1333567"><ele>251.0</ele><time>2026-04-19T15:49:09.221Z</time></trkpt><trkpt lat="42.063675" lon="12.1334133"><ele>251.00000000000003</ele><time>2026-04-19T15:49:10.221Z</time></trkpt><trkpt lat="42.0636133" lon="12.1334717"><ele>251.0</ele><time>2026-04-19T15:49:11.224Z</time></trkpt><trkpt lat="42.0635517" lon="12.1335317"><ele>251.0</ele><time>2026-04-19T15:49:12.221Z</time></trkpt><trkpt lat="42.0634833" lon="12.1335817"><ele>251.0</ele><time>2026-04-19T15:49:13.225Z</time></trkpt><trkpt lat="42.063415" lon="12.1336367"><ele>251.00000000000003</ele><time>2026-04-19T15:49:14.221Z</time></trkpt><trkpt lat="42.0633467" lon="12.1337017"><ele>251.0</ele><time>2026-04-19T15:49:15.223Z</time></trkpt><trkpt lat="42.0632783" lon="12.1337583"><ele>250.16666666666669</ele><time>2026-04-19T15:49:16.225Z</time></trkpt><trkpt lat="42.063205" lon="12.1338133"><ele>249.33333333333334</ele><time>2026-04-19T15:49:17.223Z</time></trkpt><trkpt lat="42.0631317" lon="12.1338717"><ele>248.5</ele><time>2026-04-19T15:49:18.221Z</time></trkpt><trkpt lat="42.06306" lon="12.1339317"><ele>247.66666666666669</ele><time>2026-04-19T15:49:19.224Z</time></trkpt><trkpt lat="42.06299" lon="12.13399"><ele>246.83333333333334</ele><time>2026-04-19T15:49:20.222Z</time></trkpt><trkpt lat="42.0629217" lon="12.1340483"><ele>246.0</ele><time>2026-04-19T15:49:21.233Z</time></trkpt><trkpt lat="42.062855" lon="12.1341083"><ele>246.00000000000003</ele><time>2026-04-19T15:49:22.222Z</time></trkpt><trkpt lat="42.06279" lon="12.1341633"><ele>246.0</ele><time>2026-04-19T15:49:23.221Z</time></trkpt><trkpt lat="42.062725" lon="12.13422"><ele>246.00000000000003</ele><time>2026-04-19T15:49:24.224Z</time></trkpt><trkpt lat="42.0626633" lon="12.134275"><ele>246.00000000000003</ele><time>2026-04-19T15:49:25.223Z</time></trkpt><trkpt lat="42.0626017" lon="12.13433"><ele>246.0</ele><time>2026-04-19T15:49:26.228Z</time></trkpt><trkpt lat="42.0625417" lon="12.1343817"><ele>246.00000000000003</ele><time>2026-04-19T15:49:27.223Z</time></trkpt><trkpt lat="42.0624833" lon="12.1344317"><ele>246.00000000000003</ele><time>2026-04-19T15:49:28.222Z</time></trkpt><trkpt lat="42.062425" lon="12.1344817"><ele>245.66666666666666</ele><time>2026-04-19T15:49:29.22Z</time></trkpt><trkpt lat="42.06237" lon="12.1345333"><ele>245.33333333333331</ele><time>2026-04-19T15:49:30.229Z</time></trkpt><trkpt lat="42.0623167" lon="12.1345833"><ele>245.0</ele><time>2026-04-19T15:49:31.221Z</time></trkpt><trkpt lat="42.0622633" lon="12.1346333"><ele>244.66666666666666</ele><time>2026-04-19T15:49:32.222Z</time></trkpt><trkpt lat="42.0621583" lon="12.134725"><ele>244.33333333333331</ele><time>2026-04-19T15:49:34.221Z</time></trkpt><trkpt lat="42.0621017" lon="12.13477"><ele>244.0</ele><time>2026-04-19T15:49:35.227Z</time></trkpt><trkpt lat="42.062045" lon="12.1348167"><ele>243.99999999999997</ele><time>2026-04-19T15:49:36.225Z</time></trkpt><trkpt lat="42.061985" lon="12.134855"><ele>244.0</ele><time>2026-04-19T15:49:37.222Z</time></trkpt><trkpt lat="42.0619217" lon="12.1348933"><ele>243.99999999999997</ele><time>2026-04-19T15:49:38.224Z</time></trkpt><trkpt lat="42.0618583" lon="12.1349267"><ele>243.99999999999997</ele><time>2026-04-19T15:49:39.226Z</time></trkpt><trkpt lat="42.0617933" lon="12.1349467"><ele>244.0</ele><time>2026-04-19T15:49:40.224Z</time></trkpt><trkpt lat="42.0617267" lon="12.134955"><ele>243.99999999999997</ele><time>2026-04-19T15:49:41.223Z</time></trkpt><trkpt lat="42.0616583" lon="12.13496"><ele>243.99999999999997</ele><time>2026-04-19T15:49:42.225Z</time></trkpt><trkpt lat="42.0615917" lon="12.1349617"><ele>244.0</ele><time>2026-04-19T15:49:43.222Z</time></trkpt><trkpt lat="42.0615217" lon="12.1349683"><ele>243.99999999999997</ele><time>2026-04-19T15:49:44.221Z</time></trkpt><trkpt lat="42.0614083" lon="12.13497"><ele>243.99999999999997</ele><time>2026-04-19T15:49:46.222Z</time></trkpt><trkpt lat="42.0612983" lon="12.134945"><ele>244.0</ele><time>2026-04-19T15:49:48.221Z</time></trkpt><trkpt lat="42.06119" lon="12.13487"><ele>244.0</ele><time>2026-04-19T15:49:50.222Z</time></trkpt><trkpt lat="42.0611317" lon="12.13483"><ele>243.57142857142856</ele><time>2026-04-19T15:49:51.23Z</time></trkpt><trkpt lat="42.06107" lon="12.1347917"><ele>243.14285714285714</ele><time>2026-04-19T15:49:52.221Z</time></trkpt><trkpt lat="42.06101" lon="12.1347467"><ele>242.71428571428572</ele><time>2026-04-19T15:49:53.221Z</time></trkpt><trkpt lat="42.0609483" lon="12.1347"><ele>242.28571428571428</ele><time>2026-04-19T15:49:54.223Z</time></trkpt><trkpt lat="42.060885" lon="12.1346583"><ele>241.8571428571429</ele><time>2026-04-19T15:49:55.222Z</time></trkpt><trkpt lat="42.0608233" lon="12.1346217"><ele>241.42857142857144</ele><time>2026-04-19T15:49:56.227Z</time></trkpt><trkpt lat="42.06076" lon="12.1345867"><ele>241.0</ele><time>2026-04-19T15:49:57.221Z</time></trkpt><trkpt lat="42.0607" lon="12.1345567"><ele>240.8</ele><time>2026-04-19T15:49:58.224Z</time></trkpt><trkpt lat="42.0606383" lon="12.134525"><ele>240.60000000000002</ele><time>2026-04-19T15:49:59.221Z</time></trkpt><trkpt lat="42.0605283" lon="12.1344517"><ele>240.4</ele><time>2026-04-19T15:50:01.222Z</time></trkpt><trkpt lat="42.0604183" lon="12.1343867"><ele>240.2</ele><time>2026-04-19T15:50:03.221Z</time></trkpt><trkpt lat="42.06031" lon="12.1343183"><ele>240.0</ele><time>2026-04-19T15:50:05.223Z</time></trkpt><trkpt lat="42.0602" lon="12.1342433"><ele>240.0</ele><time>2026-04-19T15:50:07.223Z</time></trkpt><trkpt lat="42.06009" lon="12.13416"><ele>240.0</ele><time>2026-04-19T15:50:09.233Z</time></trkpt><trkpt lat="42.05998" lon="12.1340933"><ele>240.0</ele><time>2026-04-19T15:50:11.223Z</time></trkpt><trkpt lat="42.0598717" lon="12.13402"><ele>240.0</ele><time>2026-04-19T15:50:13.221Z</time></trkpt><trkpt lat="42.0597733" lon="12.13393"><ele>240.0</ele><time>2026-04-19T15:50:15.224Z</time></trkpt><trkpt lat="42.0597167" lon="12.13389"><ele>240.0</ele><time>2026-04-19T15:50:16.223Z</time></trkpt><trkpt lat="42.05962" lon="12.1338017"><ele>240.0</ele><time>2026-04-19T15:50:18.223Z</time></trkpt><trkpt lat="42.0595267" lon="12.1337083"><ele>240.0</ele><time>2026-04-19T15:50:20.222Z</time></trkpt><trkpt lat="42.059445" lon="12.1336083"><ele>240.0</ele><time>2026-04-19T15:50:22.223Z</time></trkpt><trkpt lat="42.05937" lon="12.1334967"><ele>240.0</ele><time>2026-04-19T15:50:24.228Z</time></trkpt><trkpt lat="42.0592967" lon="12.1333667"><ele>240.0</ele><time>2026-04-19T15:50:26.224Z</time></trkpt><trkpt lat="42.0592167" lon="12.1332417"><ele>240.0</ele><time>2026-04-19T15:50:28.225Z</time></trkpt><trkpt lat="42.059145" lon="12.1331167"><ele>240.0</ele><time>2026-04-19T15:50:30.222Z</time></trkpt><trkpt lat="42.05907" lon="12.13298"><ele>240.42857142857144</ele><time>2026-04-19T15:50:32.222Z</time></trkpt><trkpt lat="42.059035" lon="12.1329033"><ele>240.85714285714283</ele><time>2026-04-19T15:50:33.224Z</time></trkpt><trkpt lat="42.0589933" lon="12.1328317"><ele>241.28571428571428</ele><time>2026-04-19T15:50:34.222Z</time></trkpt><trkpt lat="42.058955" lon="12.13276"><ele>241.71428571428572</ele><time>2026-04-19T15:50:35.227Z</time></trkpt><trkpt lat="42.058915" lon="12.1326867"><ele>242.14285714285717</ele><time>2026-04-19T15:50:36.224Z</time></trkpt><trkpt lat="42.0588717" lon="12.1326183"><ele>242.57142857142856</ele><time>2026-04-19T15:50:37.223Z</time></trkpt><trkpt lat="42.0588283" lon="12.1325483"><ele>243.0</ele><time>2026-04-19T15:50:38.222Z</time></trkpt><trkpt lat="42.0587833" lon="12.1324783"><ele>243.0</ele><time>2026-04-19T15:50:39.223Z</time></trkpt><trkpt lat="42.05874" lon="12.1324067"><ele>243.0</ele><time>2026-04-19T15:50:40.222Z</time></trkpt><trkpt lat="42.0587" lon="12.1323333"><ele>243.0</ele><time>2026-04-19T15:50:41.221Z</time></trkpt><trkpt lat="42.0586583" lon="12.1322617"><ele>243.0</ele><time>2026-04-19T15:50:42.229Z</time></trkpt><trkpt lat="42.0586167" lon="12.13219"><ele>243.0</ele><time>2026-04-19T15:50:43.22Z</time></trkpt><trkpt lat="42.0585733" lon="12.13211"><ele>243.0</ele><time>2026-04-19T15:50:44.225Z</time></trkpt><trkpt lat="42.0585317" lon="12.1320267"><ele>243.0</ele><time>2026-04-19T15:50:45.223Z</time></trkpt><trkpt lat="42.0584867" lon="12.131945"><ele>242.5</ele><time>2026-04-19T15:50:46.222Z</time></trkpt><trkpt lat="42.058445" lon="12.13186"><ele>242.0</ele><time>2026-04-19T15:50:47.234Z</time></trkpt><trkpt lat="42.0583983" lon="12.13177"><ele>241.5</ele><time>2026-04-19T15:50:48.222Z</time></trkpt><trkpt lat="42.0583467" lon="12.1316817"><ele>241.0</ele><time>2026-04-19T15:50:49.222Z</time></trkpt><trkpt lat="42.0582983" lon="12.1315917"><ele>240.5</ele><time>2026-04-19T15:50:50.222Z</time></trkpt><trkpt lat="42.058255" lon="12.1315017"><ele>240.0</ele><time>2026-04-19T15:50:51.222Z</time></trkpt><trkpt lat="42.0582083" lon="12.1314133"><ele>239.57142857142858</ele><time>2026-04-19T15:50:52.22Z</time></trkpt><trkpt lat="42.0581633" lon="12.1313267"><ele>239.1428571428571</ele><time>2026-04-19T15:50:53.223Z</time></trkpt><trkpt lat="42.0581217" lon="12.131235"><ele>238.7142857142857</ele><time>2026-04-19T15:50:54.221Z</time></trkpt><trkpt lat="42.058085" lon="12.1311417"><ele>238.28571428571428</ele><time>2026-04-19T15:50:55.224Z</time></trkpt><trkpt lat="42.0580517" lon="12.131055"><ele>237.85714285714283</ele><time>2026-04-19T15:50:56.232Z</time></trkpt><trkpt lat="42.0580283" lon="12.13097"><ele>237.4285714285714</ele><time>2026-04-19T15:50:57.225Z</time></trkpt><trkpt lat="42.0580067" lon="12.1308783"><ele>236.99999999999997</ele><time>2026-04-19T15:50:58.221Z</time></trkpt><trkpt lat="42.0579883" lon="12.1307867"><ele>236.99999999999997</ele><time>2026-04-19T15:50:59.223Z</time></trkpt><trkpt lat="42.0579783" lon="12.1306883"><ele>237.0</ele><time>2026-04-19T15:51:00.224Z</time></trkpt><trkpt lat="42.0579733" lon="12.1305917"><ele>236.99999999999997</ele><time>2026-04-19T15:51:01.225Z</time></trkpt><trkpt lat="42.0579683" lon="12.1304983"><ele>236.99999999999997</ele><time>2026-04-19T15:51:02.223Z</time></trkpt><trkpt lat="42.05796" lon="12.1304067"><ele>237.0</ele><time>2026-04-19T15:51:03.227Z</time></trkpt><trkpt lat="42.05796" lon="12.1303167"><ele>236.99999999999997</ele><time>2026-04-19T15:51:04.22Z</time></trkpt><trkpt lat="42.057955" lon="12.1302133"><ele>236.99999999999997</ele><time>2026-04-19T15:51:05.229Z</time></trkpt><trkpt lat="42.0579583" lon="12.1301183"><ele>237.0</ele><time>2026-04-19T15:51:06.223Z</time></trkpt><trkpt lat="42.0579517" lon="12.1300217"><ele>237.0</ele><time>2026-04-19T15:51:07.224Z</time></trkpt><trkpt lat="42.0579483" lon="12.1299267"><ele>237.0</ele><time>2026-04-19T15:51:08.224Z</time></trkpt><trkpt lat="42.0579433" lon="12.1298283"><ele>237.0</ele><time>2026-04-19T15:51:09.222Z</time></trkpt><trkpt lat="42.0579333" lon="12.1297383"><ele>237.0</ele><time>2026-04-19T15:51:10.231Z</time></trkpt><trkpt lat="42.0579217" lon="12.1295717"><ele>237.0</ele><time>2026-04-19T15:51:12.22Z</time></trkpt><trkpt lat="42.0579133" lon="12.129405"><ele>237.39999999999998</ele><time>2026-04-19T15:51:14.223Z</time></trkpt><trkpt lat="42.057905" lon="12.12932"><ele>237.79999999999998</ele><time>2026-04-19T15:51:15.222Z</time></trkpt><trkpt lat="42.0578967" lon="12.1292333"><ele>238.2</ele><time>2026-04-19T15:51:16.219Z</time></trkpt><trkpt lat="42.0578917" lon="12.1290733"><ele>238.6</ele><time>2026-04-19T15:51:18.221Z</time></trkpt><trkpt lat="42.0578833" lon="12.1289133"><ele>239.0</ele><time>2026-04-19T15:51:20.223Z</time></trkpt><trkpt lat="42.057875" lon="12.1287567"><ele>239.0</ele><time>2026-04-19T15:51:22.222Z</time></trkpt><trkpt lat="42.0578517" lon="12.1286"><ele>239.0</ele><time>2026-04-19T15:51:24.222Z</time></trkpt><trkpt lat="42.0577983" lon="12.1284567"><ele>239.0</ele><time>2026-04-19T15:51:26.223Z</time></trkpt><trkpt lat="42.0577167" lon="12.1283417"><ele>239.0</ele><time>2026-04-19T15:51:28.222Z</time></trkpt><trkpt lat="42.0576317" lon="12.1282483"><ele>238.6</ele><time>2026-04-19T15:51:30.221Z</time></trkpt><trkpt lat="42.057535" lon="12.1281817"><ele>238.2</ele><time>2026-04-19T15:51:32.221Z</time></trkpt><trkpt lat="42.0574367" lon="12.1281233"><ele>237.79999999999998</ele><time>2026-04-19T15:51:34.222Z</time></trkpt><trkpt lat="42.0573417" lon="12.1280617"><ele>237.39999999999998</ele><time>2026-04-19T15:51:36.222Z</time></trkpt><trkpt lat="42.0572517" lon="12.128"><ele>237.0</ele><time>2026-04-19T15:51:38.224Z</time></trkpt><trkpt lat="42.057155" lon="12.1279433"><ele>236.5</ele><time>2026-04-19T15:51:40.23Z</time></trkpt><trkpt lat="42.0570533" lon="12.1278867"><ele>236.0</ele><time>2026-04-19T15:51:42.226Z</time></trkpt><trkpt lat="42.0569483" lon="12.1278317"><ele>235.5</ele><time>2026-04-19T15:51:44.223Z</time></trkpt><trkpt lat="42.0568433" lon="12.1277617"><ele>235.0</ele><time>2026-04-19T15:51:46.222Z</time></trkpt><trkpt lat="42.05673" lon="12.1277"><ele>234.57142857142856</ele><time>2026-04-19T15:51:48.221Z</time></trkpt><trkpt lat="42.0566133" lon="12.1276433"><ele>234.1428571428571</ele><time>2026-04-19T15:51:50.225Z</time></trkpt><trkpt lat="42.056555" lon="12.1276067"><ele>233.71428571428572</ele><time>2026-04-19T15:51:51.224Z</time></trkpt><trkpt lat="42.056495" lon="12.1275733"><ele>233.28571428571428</ele><time>2026-04-19T15:51:52.225Z</time></trkpt><trkpt lat="42.056435" lon="12.1275383"><ele>232.85714285714286</ele><time>2026-04-19T15:51:53.22Z</time></trkpt><trkpt lat="42.0563767" lon="12.1275033"><ele>232.42857142857144</ele><time>2026-04-19T15:51:54.225Z</time></trkpt><trkpt lat="42.0563167" lon="12.12747"><ele>232.00000000000003</ele><time>2026-04-19T15:51:55.224Z</time></trkpt><trkpt lat="42.0562583" lon="12.1274367"><ele>232.0</ele><time>2026-04-19T15:51:56.222Z</time></trkpt><trkpt lat="42.0562" lon="12.1274033"><ele>232.0</ele><time>2026-04-19T15:51:57.224Z</time></trkpt><trkpt lat="42.05608" lon="12.1273483"><ele>232.0</ele><time>2026-04-19T15:51:59.222Z</time></trkpt><trkpt lat="42.05602" lon="12.1273167"><ele>232.0</ele><time>2026-04-19T15:52:00.228Z</time></trkpt><trkpt lat="42.0559083" lon="12.1272483"><ele>232.0</ele><time>2026-04-19T15:52:02.223Z</time></trkpt><trkpt lat="42.055795" lon="12.12719"><ele>232.25</ele><time>2026-04-19T15:52:04.222Z</time></trkpt><trkpt lat="42.0556867" lon="12.1271283"><ele>232.5</ele><time>2026-04-19T15:52:06.223Z</time></trkpt><trkpt lat="42.055575" lon="12.127075"><ele>232.75</ele><time>2026-04-19T15:52:08.224Z</time></trkpt><trkpt lat="42.05547" lon="12.127015"><ele>233.0</ele><time>2026-04-19T15:52:10.222Z</time></trkpt><trkpt lat="42.0553617" lon="12.126955"><ele>233.0</ele><time>2026-04-19T15:52:12.22Z</time></trkpt><trkpt lat="42.05525" lon="12.1268917"><ele>233.0</ele><time>2026-04-19T15:52:14.221Z</time></trkpt><trkpt lat="42.0551417" lon="12.12683"><ele>233.0</ele><time>2026-04-19T15:52:16.219Z</time></trkpt><trkpt lat="42.05502" lon="12.1267717"><ele>233.0</ele><time>2026-04-19T15:52:18.221Z</time></trkpt><trkpt lat="42.054955" lon="12.1267467"><ele>233.0</ele><time>2026-04-19T15:52:19.225Z</time></trkpt><trkpt lat="42.054895" lon="12.1267167"><ele>232.50000000000003</ele><time>2026-04-19T15:52:20.224Z</time></trkpt><trkpt lat="42.0547667" lon="12.126665"><ele>232.0</ele><time>2026-04-19T15:52:22.23Z</time></trkpt><trkpt lat="42.0546967" lon="12.12664"><ele>231.5</ele><time>2026-04-19T15:52:23.222Z</time></trkpt><trkpt lat="42.054635" lon="12.12661"><ele>231.0</ele><time>2026-04-19T15:52:24.223Z</time></trkpt><trkpt lat="42.05457" lon="12.1265817"><ele>230.50000000000003</ele><time>2026-04-19T15:52:25.221Z</time></trkpt><trkpt lat="42.054505" lon="12.12655"><ele>230.0</ele><time>2026-04-19T15:52:26.222Z</time></trkpt><trkpt lat="42.0544417" lon="12.1265233"><ele>229.99999999999997</ele><time>2026-04-19T15:52:27.227Z</time></trkpt><trkpt lat="42.0543767" lon="12.1264767"><ele>230.0</ele><time>2026-04-19T15:52:28.229Z</time></trkpt><trkpt lat="42.0543117" lon="12.12644"><ele>229.99999999999997</ele><time>2026-04-19T15:52:29.222Z</time></trkpt><trkpt lat="42.0542467" lon="12.126405"><ele>229.99999999999997</ele><time>2026-04-19T15:52:30.224Z</time></trkpt><trkpt lat="42.0541817" lon="12.12637"><ele>230.0</ele><time>2026-04-19T15:52:31.221Z</time></trkpt><trkpt lat="42.0541133" lon="12.1263333"><ele>229.99999999999997</ele><time>2026-04-19T15:52:32.221Z</time></trkpt><trkpt lat="42.0540417" lon="12.126295"><ele>229.99999999999997</ele><time>2026-04-19T15:52:33.223Z</time></trkpt><trkpt lat="42.05398" lon="12.1262517"><ele>229.50000000000003</ele><time>2026-04-19T15:52:34.223Z</time></trkpt><trkpt lat="42.0539117" lon="12.1262117"><ele>229.0</ele><time>2026-04-19T15:52:35.223Z</time></trkpt><trkpt lat="42.0538467" lon="12.1261783"><ele>228.5</ele><time>2026-04-19T15:52:36.224Z</time></trkpt><trkpt lat="42.0537867" lon="12.126145"><ele>228.0</ele><time>2026-04-19T15:52:37.226Z</time></trkpt><trkpt lat="42.0536983" lon="12.1260883"><ele>227.50000000000003</ele><time>2026-04-19T15:52:39.222Z</time></trkpt><trkpt lat="42.0536317" lon="12.126045"><ele>227.0</ele><time>2026-04-19T15:52:42.219Z</time></trkpt><trkpt lat="42.0535267" lon="12.1260233"><ele>227.0</ele><time>2026-04-19T15:54:01.22Z</time></trkpt><trkpt lat="42.0534683" lon="12.1259667"><ele>227.0</ele><time>2026-04-19T15:54:03.222Z</time></trkpt><trkpt lat="42.0534" lon="12.1259067"><ele>227.0</ele><time>2026-04-19T15:54:05.221Z</time></trkpt><trkpt lat="42.0533" lon="12.12586"><ele>227.0</ele><time>2026-04-19T15:54:07.223Z</time></trkpt><trkpt lat="42.0532017" lon="12.1258333"><ele>227.0</ele><time>2026-04-19T15:54:09.223Z</time></trkpt><trkpt lat="42.053095" lon="12.1258033"><ele>227.2</ele><time>2026-04-19T15:54:11.219Z</time></trkpt><trkpt lat="42.052985" lon="12.125805"><ele>227.39999999999998</ele><time>2026-04-19T15:54:13.222Z</time></trkpt><trkpt lat="42.0529333" lon="12.1258983"><ele>227.60000000000002</ele><time>2026-04-19T15:54:15.244Z</time></trkpt><trkpt lat="42.0529533" lon="12.1260267"><ele>227.8</ele><time>2026-04-19T15:54:17.229Z</time></trkpt><trkpt lat="42.0530217" lon="12.1260683"><ele>228.0</ele><time>2026-04-19T15:54:19.221Z</time></trkpt><trkpt lat="42.0531017" lon="12.126045"><ele>228.0</ele><time>2026-04-19T15:54:21.224Z</time></trkpt><trkpt lat="42.0531517" lon="12.1259883"><ele>227.99999999999997</ele><time>2026-04-19T15:54:23.223Z</time></trkpt><trkpt lat="42.053205" lon="12.1259133"><ele>228.0</ele><time>2026-04-19T15:54:26.222Z</time></trkpt><trkpt lat="42.05328" lon="12.1258933"><ele>228.0</ele><time>2026-04-19T15:58:39.224Z</time></trkpt><trkpt lat="42.05334" lon="12.125925"><ele>227.99999999999997</ele><time>2026-04-19T15:58:41.226Z</time></trkpt><trkpt lat="42.0534067" lon="12.125965"><ele>228.0</ele><time>2026-04-19T15:58:43.221Z</time></trkpt><trkpt lat="42.0534733" lon="12.1259983"><ele>228.0</ele><time>2026-04-19T15:58:45.223Z</time></trkpt><trkpt lat="42.0535617" lon="12.1260517"><ele>227.85714285714283</ele><time>2026-04-19T15:58:48.223Z</time></trkpt><trkpt lat="42.0536283" lon="12.1260867"><ele>227.7142857142857</ele><time>2026-04-19T15:58:50.224Z</time></trkpt><trkpt lat="42.053695" lon="12.1261167"><ele>227.57142857142856</ele><time>2026-04-19T15:58:52.224Z</time></trkpt><trkpt lat="42.05376" lon="12.1261417"><ele>227.42857142857144</ele><time>2026-04-19T15:58:54.227Z</time></trkpt><trkpt lat="42.053825" lon="12.1261817"><ele>227.2857142857143</ele><time>2026-04-19T15:58:56.223Z</time></trkpt><trkpt lat="42.0538917" lon="12.12622"><ele>227.14285714285717</ele><time>2026-04-19T15:58:58.223Z</time></trkpt><trkpt lat="42.05396" lon="12.1262583"><ele>227.0</ele><time>2026-04-19T15:59:00.219Z</time></trkpt><trkpt lat="42.054025" lon="12.1262933"><ele>227.0</ele><time>2026-04-19T15:59:02.229Z</time></trkpt><trkpt lat="42.0540933" lon="12.126325"><ele>227.00000000000003</ele><time>2026-04-19T15:59:04.221Z</time></trkpt><trkpt lat="42.054155" lon="12.1263567"><ele>227.0</ele><time>2026-04-19T15:59:06.22Z</time></trkpt><trkpt lat="42.0542167" lon="12.1263883"><ele>227.0</ele><time>2026-04-19T15:59:08.222Z</time></trkpt><trkpt lat="42.0542817" lon="12.1264183"><ele>227.00000000000003</ele><time>2026-04-19T15:59:10.222Z</time></trkpt><trkpt lat="42.0543417" lon="12.1264567"><ele>227.0</ele><time>2026-04-19T15:59:12.222Z</time></trkpt><trkpt lat="42.0544083" lon="12.1264933"><ele>227.0</ele><time>2026-04-19T15:59:14.221Z</time></trkpt><trkpt lat="42.0544717" lon="12.126525"><ele>227.14285714285717</ele><time>2026-04-19T15:59:16.234Z</time></trkpt><trkpt lat="42.0545317" lon="12.1265633"><ele>227.2857142857143</ele><time>2026-04-19T15:59:18.222Z</time></trkpt><trkpt lat="42.0545967" lon="12.1265967"><ele>227.42857142857144</ele><time>2026-04-19T15:59:20.221Z</time></trkpt><trkpt lat="42.0546633" lon="12.1266267"><ele>227.57142857142856</ele><time>2026-04-19T15:59:22.231Z</time></trkpt><trkpt lat="42.0547267" lon="12.1266533"><ele>227.7142857142857</ele><time>2026-04-19T15:59:24.224Z</time></trkpt><trkpt lat="42.05479" lon="12.1266883"><ele>227.85714285714283</ele><time>2026-04-19T15:59:26.222Z</time></trkpt><trkpt lat="42.0548567" lon="12.1267317"><ele>228.0</ele><time>2026-04-19T15:59:28.219Z</time></trkpt><trkpt lat="42.0549233" lon="12.1267667"><ele>228.7142857142857</ele><time>2026-04-19T15:59:30.221Z</time></trkpt><trkpt lat="42.05501" lon="12.1268183"><ele>229.4285714285714</ele><time>2026-04-19T15:59:33.224Z</time></trkpt><trkpt lat="42.055075" lon="12.1268517"><ele>230.14285714285714</ele><time>2026-04-19T15:59:35.221Z</time></trkpt><trkpt lat="42.0551333" lon="12.1268917"><ele>230.85714285714283</ele><time>2026-04-19T15:59:37.22Z</time></trkpt><trkpt lat="42.0551933" lon="12.126925"><ele>231.57142857142856</ele><time>2026-04-19T15:59:39.221Z</time></trkpt><trkpt lat="42.0552667" lon="12.126965"><ele>232.28571428571428</ele><time>2026-04-19T15:59:41.222Z</time></trkpt><trkpt lat="42.0553317" lon="12.126995"><ele>233.0</ele><time>2026-04-19T15:59:43.22Z</time></trkpt><trkpt lat="42.0554" lon="12.1270367"><ele>233.00000000000003</ele><time>2026-04-19T15:59:45.223Z</time></trkpt><trkpt lat="42.0554717" lon="12.1270767"><ele>233.0</ele><time>2026-04-19T15:59:47.224Z</time></trkpt><trkpt lat="42.0555417" lon="12.1271117"><ele>233.0</ele><time>2026-04-19T15:59:49.224Z</time></trkpt><trkpt lat="42.0556233" lon="12.1271517"><ele>233.0</ele><time>2026-04-19T15:59:51.225Z</time></trkpt><trkpt lat="42.055705" lon="12.1271917"><ele>233.00000000000003</ele><time>2026-04-19T15:59:53.221Z</time></trkpt><trkpt lat="42.05579" lon="12.12724"><ele>233.0</ele><time>2026-04-19T15:59:55.229Z</time></trkpt><trkpt lat="42.0558767" lon="12.1272883"><ele>233.0</ele><time>2026-04-19T15:59:57.226Z</time></trkpt><trkpt lat="42.0559683" lon="12.127335"><ele>233.0</ele><time>2026-04-19T15:59:59.222Z</time></trkpt><trkpt lat="42.0560583" lon="12.1273783"><ele>233.0</ele><time>2026-04-19T16:00:01.224Z</time></trkpt><trkpt lat="42.0561517" lon="12.1274217"><ele>233.0</ele><time>2026-04-19T16:00:03.223Z</time></trkpt><trkpt lat="42.05624" lon="12.1274667"><ele>233.0</ele><time>2026-04-19T16:00:05.231Z</time></trkpt><trkpt lat="42.05633" lon="12.1275117"><ele>232.83333333333334</ele><time>2026-04-19T16:00:07.223Z</time></trkpt><trkpt lat="42.0564217" lon="12.12755"><ele>232.66666666666669</ele><time>2026-04-19T16:00:09.225Z</time></trkpt><trkpt lat="42.0565083" lon="12.1275833"><ele>232.5</ele><time>2026-04-19T16:00:11.226Z</time></trkpt><trkpt lat="42.0565933" lon="12.1276117"><ele>232.33333333333331</ele><time>2026-04-19T16:00:13.221Z</time></trkpt><trkpt lat="42.056675" lon="12.12766"><ele>232.16666666666666</ele><time>2026-04-19T16:00:15.235Z</time></trkpt><trkpt lat="42.0567467" lon="12.127725"><ele>232.0</ele><time>2026-04-19T16:00:17.221Z</time></trkpt><trkpt lat="42.056825" lon="12.1277767"><ele>232.49999999999997</ele><time>2026-04-19T16:00:19.222Z</time></trkpt><trkpt lat="42.0569083" lon="12.1278217"><ele>233.0</ele><time>2026-04-19T16:00:21.223Z</time></trkpt><trkpt lat="42.0569883" lon="12.1278667"><ele>233.5</ele><time>2026-04-19T16:00:23.226Z</time></trkpt><trkpt lat="42.0570667" lon="12.1279067"><ele>234.0</ele><time>2026-04-19T16:00:25.223Z</time></trkpt><trkpt lat="42.0571433" lon="12.127955"><ele>234.49999999999997</ele><time>2026-04-19T16:00:27.228Z</time></trkpt><trkpt lat="42.0572283" lon="12.1280017"><ele>235.0</ele><time>2026-04-19T16:00:29.232Z</time></trkpt><trkpt lat="42.0573133" lon="12.12805"><ele>235.0</ele><time>2026-04-19T16:00:31.223Z</time></trkpt><trkpt lat="42.0574" lon="12.12811"><ele>235.0</ele><time>2026-04-19T16:00:33.223Z</time></trkpt><trkpt lat="42.057485" lon="12.1281767"><ele>235.0</ele><time>2026-04-19T16:00:35.218Z</time></trkpt><trkpt lat="42.0575733" lon="12.128255"><ele>235.0</ele><time>2026-04-19T16:00:37.223Z</time></trkpt><trkpt lat="42.0576583" lon="12.1283467"><ele>235.0</ele><time>2026-04-19T16:00:39.226Z</time></trkpt><trkpt lat="42.05774" lon="12.12845"><ele>236.0</ele><time>2026-04-19T16:00:41.223Z</time></trkpt><trkpt lat="42.0578033" lon="12.1285783"><ele>237.0</ele><time>2026-04-19T16:00:43.224Z</time></trkpt><trkpt lat="42.0578433" lon="12.128725"><ele>238.0</ele><time>2026-04-19T16:00:45.226Z</time></trkpt><trkpt lat="42.0578667" lon="12.12888"><ele>239.0</ele><time>2026-04-19T16:00:47.222Z</time></trkpt><trkpt lat="42.0578833" lon="12.1290383"><ele>239.00000000000003</ele><time>2026-04-19T16:00:49.223Z</time></trkpt><trkpt lat="42.0578933" lon="12.1292083"><ele>239.0</ele><time>2026-04-19T16:00:51.228Z</time></trkpt><trkpt lat="42.0578967" lon="12.1292983"><ele>239.0</ele><time>2026-04-19T16:00:52.222Z</time></trkpt><trkpt lat="42.0578967" lon="12.12939"><ele>239.0</ele><time>2026-04-19T16:00:53.222Z</time></trkpt><trkpt lat="42.0578967" lon="12.1294783"><ele>239.00000000000003</ele><time>2026-04-19T16:00:54.223Z</time></trkpt><trkpt lat="42.0579" lon="12.1295683"><ele>239.0</ele><time>2026-04-19T16:00:55.222Z</time></trkpt><trkpt lat="42.0579" lon="12.1296617"><ele>239.00000000000003</ele><time>2026-04-19T16:00:56.229Z</time></trkpt><trkpt lat="42.0579" lon="12.129755"><ele>239.0</ele><time>2026-04-19T16:00:57.223Z</time></trkpt><trkpt lat="42.0579" lon="12.1298467"><ele>239.00000000000003</ele><time>2026-04-19T16:00:58.22Z</time></trkpt><trkpt lat="42.0579" lon="12.1299383"><ele>239.00000000000003</ele><time>2026-04-19T16:00:59.223Z</time></trkpt><trkpt lat="42.0578983" lon="12.1300333"><ele>239.0</ele><time>2026-04-19T16:01:00.223Z</time></trkpt><trkpt lat="42.0579" lon="12.130125"><ele>239.00000000000003</ele><time>2026-04-19T16:01:01.223Z</time></trkpt><trkpt lat="42.057895" lon="12.1302167"><ele>239.00000000000003</ele><time>2026-04-19T16:01:02.227Z</time></trkpt><trkpt lat="42.0578933" lon="12.130305"><ele>238.71428571428575</ele><time>2026-04-19T16:01:03.224Z</time></trkpt><trkpt lat="42.0578917" lon="12.130395"><ele>238.42857142857144</ele><time>2026-04-19T16:01:04.22Z</time></trkpt><trkpt lat="42.0578917" lon="12.1304867"><ele>238.14285714285714</ele><time>2026-04-19T16:01:05.22Z</time></trkpt><trkpt lat="42.057885" lon="12.1305733"><ele>237.85714285714286</ele><time>2026-04-19T16:01:06.224Z</time></trkpt><trkpt lat="42.05789" lon="12.130665"><ele>237.57142857142856</ele><time>2026-04-19T16:01:07.223Z</time></trkpt><trkpt lat="42.0579083" lon="12.1307567"><ele>237.28571428571425</ele><time>2026-04-19T16:01:08.23Z</time></trkpt><trkpt lat="42.0579267" lon="12.1308467"><ele>236.99999999999997</ele><time>2026-04-19T16:01:09.224Z</time></trkpt><trkpt lat="42.05795" lon="12.1309333"><ele>237.0</ele><time>2026-04-19T16:01:10.219Z</time></trkpt><trkpt lat="42.0580017" lon="12.13107"><ele>237.0</ele><time>2026-04-19T16:01:12.225Z</time></trkpt><trkpt lat="42.05807" lon="12.1311983"><ele>237.0</ele><time>2026-04-19T16:01:14.221Z</time></trkpt><trkpt lat="42.0581283" lon="12.1313217"><ele>237.0</ele><time>2026-04-19T16:01:16.222Z</time></trkpt><trkpt lat="42.0581917" lon="12.1314417"><ele>237.0</ele><time>2026-04-19T16:01:18.228Z</time></trkpt><trkpt lat="42.058245" lon="12.13155"><ele>237.5</ele><time>2026-04-19T16:01:20.226Z</time></trkpt><trkpt lat="42.058295" lon="12.1316417"><ele>238.0</ele><time>2026-04-19T16:01:22.224Z</time></trkpt><trkpt lat="42.0583283" lon="12.1317217"><ele>238.5</ele><time>2026-04-19T16:01:24.227Z</time></trkpt><trkpt lat="42.0583717" lon="12.13181"><ele>239.0</ele><time>2026-04-19T16:01:26.223Z</time></trkpt><trkpt lat="42.058425" lon="12.1318983"><ele>239.5</ele><time>2026-04-19T16:01:28.218Z</time></trkpt><trkpt lat="42.0584767" lon="12.1319767"><ele>240.0</ele><time>2026-04-19T16:01:30.221Z</time></trkpt><trkpt lat="42.0585167" lon="12.1320617"><ele>240.0</ele><time>2026-04-19T16:01:32.224Z</time></trkpt><trkpt lat="42.0585617" lon="12.1321483"><ele>240.0</ele><time>2026-04-19T16:01:34.222Z</time></trkpt><trkpt lat="42.0586117" lon="12.1322383"><ele>240.0</ele><time>2026-04-19T16:01:36.23Z</time></trkpt><trkpt lat="42.0586633" lon="12.1323267"><ele>240.0</ele><time>2026-04-19T16:01:38.226Z</time></trkpt><trkpt lat="42.0587167" lon="12.1324117"><ele>240.0</ele><time>2026-04-19T16:01:40.221Z</time></trkpt><trkpt lat="42.0587733" lon="12.132505"><ele>240.0</ele><time>2026-04-19T16:01:42.226Z</time></trkpt><trkpt lat="42.0588267" lon="12.1326067"><ele>240.4</ele><time>2026-04-19T16:01:44.222Z</time></trkpt><trkpt lat="42.05889" lon="12.13272"><ele>240.8</ele><time>2026-04-19T16:01:46.222Z</time></trkpt><trkpt lat="42.058955" lon="12.1328367"><ele>241.2</ele><time>2026-04-19T16:01:48.228Z</time></trkpt><trkpt lat="42.0590183" lon="12.1329567"><ele>241.6</ele><time>2026-04-19T16:01:50.221Z</time></trkpt><trkpt lat="42.0590833" lon="12.1330767"><ele>242.0</ele><time>2026-04-19T16:01:52.223Z</time></trkpt><trkpt lat="42.059155" lon="12.1331933"><ele>241.5</ele><time>2026-04-19T16:01:54.221Z</time></trkpt><trkpt lat="42.0592283" lon="12.1333133"><ele>241.0</ele><time>2026-04-19T16:01:56.221Z</time></trkpt><trkpt lat="42.0593033" lon="12.1334317"><ele>240.5</ele><time>2026-04-19T16:01:58.224Z</time></trkpt><trkpt lat="42.05938" lon="12.1335467"><ele>240.0</ele><time>2026-04-19T16:02:00.22Z</time></trkpt><trkpt lat="42.05945" lon="12.1336533"><ele>240.0</ele><time>2026-04-19T16:02:02.221Z</time></trkpt><trkpt lat="42.0595267" lon="12.1337533"><ele>240.0</ele><time>2026-04-19T16:02:04.222Z</time></trkpt><trkpt lat="42.0596133" lon="12.13385"><ele>240.0</ele><time>2026-04-19T16:02:06.226Z</time></trkpt><trkpt lat="42.0597067" lon="12.1339367"><ele>240.0</ele><time>2026-04-19T16:02:08.23Z</time></trkpt><trkpt lat="42.0597983" lon="12.13401"><ele>240.0</ele><time>2026-04-19T16:02:10.222Z</time></trkpt><trkpt lat="42.0598833" lon="12.1340617"><ele>240.0</ele><time>2026-04-19T16:02:12.222Z</time></trkpt><trkpt lat="42.0599817" lon="12.13412"><ele>240.0</ele><time>2026-04-19T16:02:14.222Z</time></trkpt><trkpt lat="42.060075" lon="12.134175"><ele>240.0</ele><time>2026-04-19T16:02:16.221Z</time></trkpt><trkpt lat="42.0601667" lon="12.1342217"><ele>240.0</ele><time>2026-04-19T16:02:18.22Z</time></trkpt><trkpt lat="42.0602617" lon="12.134275"><ele>240.0</ele><time>2026-04-19T16:02:20.222Z</time></trkpt><trkpt lat="42.0603567" lon="12.1343483"><ele>240.0</ele><time>2026-04-19T16:02:22.23Z</time></trkpt><trkpt lat="42.060445" lon="12.13441"><ele>240.0</ele><time>2026-04-19T16:02:24.22Z</time></trkpt><trkpt lat="42.06053" lon="12.13447"><ele>240.0</ele><time>2026-04-19T16:02:26.223Z</time></trkpt><trkpt lat="42.0606117" lon="12.134525"><ele>240.0</ele><time>2026-04-19T16:02:28.222Z</time></trkpt><trkpt lat="42.0606983" lon="12.134585"><ele>240.0</ele><time>2026-04-19T16:02:30.223Z</time></trkpt><trkpt lat="42.0607917" lon="12.134645"><ele>240.2</ele><time>2026-04-19T16:02:32.223Z</time></trkpt><trkpt lat="42.0608783" lon="12.1347017"><ele>240.4</ele><time>2026-04-19T16:02:34.221Z</time></trkpt><trkpt lat="42.0609567" lon="12.134755"><ele>240.60000000000002</ele><time>2026-04-19T16:02:36.225Z</time></trkpt><trkpt lat="42.0610383" lon="12.1348117"><ele>240.8</ele><time>2026-04-19T16:02:38.221Z</time></trkpt><trkpt lat="42.0611233" lon="12.1348667"><ele>241.0</ele><time>2026-04-19T16:02:40.221Z</time></trkpt><trkpt lat="42.0612083" lon="12.1349167"><ele>241.49999999999997</ele><time>2026-04-19T16:02:42.22Z</time></trkpt><trkpt lat="42.0612917" lon="12.13496"><ele>242.0</ele><time>2026-04-19T16:02:44.222Z</time></trkpt><trkpt lat="42.0613783" lon="12.134985"><ele>242.5</ele><time>2026-04-19T16:02:46.223Z</time></trkpt><trkpt lat="42.0614633" lon="12.1349667"><ele>243.0</ele><time>2026-04-19T16:02:48.222Z</time></trkpt><trkpt lat="42.0615633" lon="12.134955"><ele>243.49999999999997</ele><time>2026-04-19T16:02:50.222Z</time></trkpt><trkpt lat="42.0616433" lon="12.13496"><ele>244.0</ele><time>2026-04-19T16:02:52.22Z</time></trkpt><trkpt lat="42.061725" lon="12.1349567"><ele>243.99999999999997</ele><time>2026-04-19T16:02:54.229Z</time></trkpt><trkpt lat="42.06181" lon="12.134945"><ele>244.0</ele><time>2026-04-19T16:02:56.224Z</time></trkpt><trkpt lat="42.0618883" lon="12.134915"><ele>244.0</ele><time>2026-04-19T16:02:58.221Z</time></trkpt><trkpt lat="42.06196" lon="12.1348717"><ele>244.0</ele><time>2026-04-19T16:03:00.225Z</time></trkpt><trkpt lat="42.06203" lon="12.1348217"><ele>243.99999999999997</ele><time>2026-04-19T16:03:02.222Z</time></trkpt><trkpt lat="42.0620983" lon="12.1347683"><ele>244.0</ele><time>2026-04-19T16:03:04.234Z</time></trkpt><trkpt lat="42.0621617" lon="12.1347067"><ele>243.99999999999997</ele><time>2026-04-19T16:03:06.222Z</time></trkpt><trkpt lat="42.0622217" lon="12.134645"><ele>244.0</ele><time>2026-04-19T16:03:08.223Z</time></trkpt><trkpt lat="42.0622833" lon="12.1345883"><ele>243.99999999999997</ele><time>2026-04-19T16:03:10.237Z</time></trkpt><trkpt lat="42.0623433" lon="12.13453"><ele>243.99999999999997</ele><time>2026-04-19T16:03:12.223Z</time></trkpt><trkpt lat="42.0624083" lon="12.1344717"><ele>244.0</ele><time>2026-04-19T16:03:14.222Z</time></trkpt><trkpt lat="42.06247" lon="12.134415"><ele>243.99999999999997</ele><time>2026-04-19T16:03:16.224Z</time></trkpt><trkpt lat="42.0625267" lon="12.134375"><ele>243.99999999999997</ele><time>2026-04-19T16:03:18.221Z</time></trkpt><trkpt lat="42.0625767" lon="12.13432"><ele>244.0</ele><time>2026-04-19T16:03:21.223Z</time></trkpt><trkpt lat="42.062655" lon="12.134245"><ele>243.99999999999997</ele><time>2026-04-19T16:03:24.225Z</time></trkpt><trkpt lat="42.0627383" lon="12.1341767"><ele>243.99999999999997</ele><time>2026-04-19T16:03:26.224Z</time></trkpt><trkpt lat="42.06283" lon="12.134105"><ele>244.0</ele><time>2026-04-19T16:03:28.223Z</time></trkpt><trkpt lat="42.0629217" lon="12.1340383"><ele>244.0</ele><time>2026-04-19T16:03:30.226Z</time></trkpt><trkpt lat="42.0630133" lon="12.1339683"><ele>244.0</ele><time>2026-04-19T16:03:32.231Z</time></trkpt><trkpt lat="42.0630967" lon="12.1338933"><ele>243.99999999999997</ele><time>2026-04-19T16:03:34.221Z</time></trkpt><trkpt lat="42.0631817" lon="12.1338267"><ele>243.99999999999997</ele><time>2026-04-19T16:03:36.223Z</time></trkpt><trkpt lat="42.0632617" lon="12.1337617"><ele>244.0</ele><time>2026-04-19T16:03:38.223Z</time></trkpt><trkpt lat="42.063335" lon="12.1337017"><ele>244.0</ele><time>2026-04-19T16:03:40.221Z</time></trkpt><trkpt lat="42.0634033" lon="12.1336517"><ele>244.99999999999997</ele><time>2026-04-19T16:03:42.22Z</time></trkpt><trkpt lat="42.0634717" lon="12.1336067"><ele>246.0</ele><time>2026-04-19T16:03:44.223Z</time></trkpt><trkpt lat="42.0635383" lon="12.1335567"><ele>246.99999999999997</ele><time>2026-04-19T16:03:46.222Z</time></trkpt><trkpt lat="42.0636033" lon="12.1335033"><ele>247.99999999999997</ele><time>2026-04-19T16:03:48.228Z</time></trkpt><trkpt lat="42.0636633" lon="12.1334517"><ele>249.0</ele><time>2026-04-19T16:03:50.222Z</time></trkpt><trkpt lat="42.0637217" lon="12.1333917"><ele>249.99999999999997</ele><time>2026-04-19T16:03:52.226Z</time></trkpt><trkpt lat="42.0637767" lon="12.1333283"><ele>250.99999999999997</ele><time>2026-04-19T16:03:54.224Z</time></trkpt><trkpt lat="42.0638333" lon="12.1332683"><ele>250.66666666666669</ele><time>2026-04-19T16:03:56.227Z</time></trkpt><trkpt lat="42.0638883" lon="12.13321"><ele>250.33333333333334</ele><time>2026-04-19T16:03:58.223Z</time></trkpt><trkpt lat="42.0639467" lon="12.1331467"><ele>250.0</ele><time>2026-04-19T16:04:00.222Z</time></trkpt><trkpt lat="42.0640067" lon="12.13308"><ele>249.66666666666669</ele><time>2026-04-19T16:04:02.221Z</time></trkpt><trkpt lat="42.0640683" lon="12.1330117"><ele>249.33333333333334</ele><time>2026-04-19T16:04:04.223Z</time></trkpt><trkpt lat="42.0641317" lon="12.1329383"><ele>249.0</ele><time>2026-04-19T16:04:06.225Z</time></trkpt><trkpt lat="42.0641967" lon="12.132875"><ele>249.66666666666666</ele><time>2026-04-19T16:04:08.221Z</time></trkpt><trkpt lat="42.0642633" lon="12.132805"><ele>250.33333333333331</ele><time>2026-04-19T16:04:10.224Z</time></trkpt><trkpt lat="42.0643267" lon="12.1327383"><ele>251.0</ele><time>2026-04-19T16:04:12.223Z</time></trkpt><trkpt lat="42.0643933" lon="12.1326783"><ele>251.66666666666666</ele><time>2026-04-19T16:04:14.222Z</time></trkpt><trkpt lat="42.06446" lon="12.1326117"><ele>252.33333333333331</ele><time>2026-04-19T16:04:16.221Z</time></trkpt><trkpt lat="42.064535" lon="12.1325367"><ele>253.0</ele><time>2026-04-19T16:04:18.222Z</time></trkpt><trkpt lat="42.0646117" lon="12.1324667"><ele>253.0</ele><time>2026-04-19T16:04:20.227Z</time></trkpt><trkpt lat="42.064685" lon="12.1323983"><ele>253.0</ele><time>2026-04-19T16:04:22.221Z</time></trkpt><trkpt lat="42.064755" lon="12.132325"><ele>253.0</ele><time>2026-04-19T16:04:24.222Z</time></trkpt><trkpt lat="42.0648333" lon="12.132255"><ele>253.0</ele><time>2026-04-19T16:04:26.225Z</time></trkpt><trkpt lat="42.0649167" lon="12.1321883"><ele>253.0</ele><time>2026-04-19T16:04:28.225Z</time></trkpt><trkpt lat="42.0649967" lon="12.13212"><ele>253.2</ele><time>2026-04-19T16:04:30.22Z</time></trkpt><trkpt lat="42.065075" lon="12.13206"><ele>253.4</ele><time>2026-04-19T16:04:32.222Z</time></trkpt><trkpt lat="42.0651583" lon="12.132005"><ele>253.59999999999997</ele><time>2026-04-19T16:04:34.22Z</time></trkpt><trkpt lat="42.06524" lon="12.1319483"><ele>253.79999999999998</ele><time>2026-04-19T16:04:36.221Z</time></trkpt><trkpt lat="42.0653217" lon="12.13189"><ele>254.0</ele><time>2026-04-19T16:04:38.224Z</time></trkpt><trkpt lat="42.0654017" lon="12.1318383"><ele>254.00000000000003</ele><time>2026-04-19T16:04:40.221Z</time></trkpt><trkpt lat="42.065475" lon="12.13179"><ele>254.0</ele><time>2026-04-19T16:04:42.222Z</time></trkpt><trkpt lat="42.065555" lon="12.1317433"><ele>254.0</ele><time>2026-04-19T16:04:44.222Z</time></trkpt><trkpt lat="42.0656383" lon="12.1317017"><ele>254.0</ele><time>2026-04-19T16:04:46.221Z</time></trkpt><trkpt lat="42.06572" lon="12.1316617"><ele>254.00000000000003</ele><time>2026-04-19T16:04:48.221Z</time></trkpt><trkpt lat="42.0658067" lon="12.1316167"><ele>254.0</ele><time>2026-04-19T16:04:50.226Z</time></trkpt><trkpt lat="42.0658883" lon="12.1315667"><ele>253.33333333333334</ele><time>2026-04-19T16:04:52.225Z</time></trkpt><trkpt lat="42.0659683" lon="12.1315133"><ele>252.66666666666669</ele><time>2026-04-19T16:04:54.222Z</time></trkpt><trkpt lat="42.0660467" lon="12.1314667"><ele>252.0</ele><time>2026-04-19T16:04:56.224Z</time></trkpt><trkpt lat="42.0661233" lon="12.1314233"><ele>251.33333333333331</ele><time>2026-04-19T16:04:58.229Z</time></trkpt><trkpt lat="42.0662" lon="12.1313917"><ele>250.66666666666666</ele><time>2026-04-19T16:05:00.218Z</time></trkpt><trkpt lat="42.066275" lon="12.13135"><ele>250.0</ele><time>2026-04-19T16:05:02.221Z</time></trkpt><trkpt lat="42.0663483" lon="12.13131"><ele>249.99999999999997</ele><time>2026-04-19T16:05:04.22Z</time></trkpt><trkpt lat="42.0664283" lon="12.1312767"><ele>250.0</ele><time>2026-04-19T16:05:06.225Z</time></trkpt><trkpt lat="42.0665083" lon="12.1312417"><ele>250.0</ele><time>2026-04-19T16:05:08.221Z</time></trkpt><trkpt lat="42.06659" lon="12.1312067"><ele>250.0</ele><time>2026-04-19T16:05:10.221Z</time></trkpt><trkpt lat="42.06667" lon="12.1311683"><ele>249.99999999999997</ele><time>2026-04-19T16:05:12.221Z</time></trkpt><trkpt lat="42.0667467" lon="12.1311367"><ele>250.0</ele><time>2026-04-19T16:05:14.225Z</time></trkpt><trkpt lat="42.0668217" lon="12.131105"><ele>250.66666666666666</ele><time>2026-04-19T16:05:16.225Z</time></trkpt><trkpt lat="42.0668933" lon="12.131075"><ele>251.33333333333331</ele><time>2026-04-19T16:05:18.223Z</time></trkpt><trkpt lat="42.0669667" lon="12.13105"><ele>252.0</ele><time>2026-04-19T16:05:20.222Z</time></trkpt><trkpt lat="42.0670383" lon="12.1310233"><ele>252.66666666666669</ele><time>2026-04-19T16:05:22.221Z</time></trkpt><trkpt lat="42.067115" lon="12.130995"><ele>253.33333333333334</ele><time>2026-04-19T16:05:24.223Z</time></trkpt><trkpt lat="42.06719" lon="12.1309617"><ele>254.0</ele><time>2026-04-19T16:05:26.224Z</time></trkpt><trkpt lat="42.067265" lon="12.1309417"><ele>254.00000000000003</ele><time>2026-04-19T16:05:28.224Z</time></trkpt><trkpt lat="42.0673367" lon="12.1309317"><ele>254.0</ele><time>2026-04-19T16:05:30.223Z</time></trkpt><trkpt lat="42.06741" lon="12.1309133"><ele>254.0</ele><time>2026-04-19T16:05:32.225Z</time></trkpt><trkpt lat="42.0674867" lon="12.130885"><ele>254.0</ele><time>2026-04-19T16:05:34.228Z</time></trkpt><trkpt lat="42.0675583" lon="12.1308417"><ele>254.00000000000003</ele><time>2026-04-19T16:05:36.217Z</time></trkpt><trkpt lat="42.0676317" lon="12.130815"><ele>254.0</ele><time>2026-04-19T16:05:38.221Z</time></trkpt><trkpt lat="42.0677033" lon="12.130775"><ele>254.00000000000003</ele><time>2026-04-19T16:05:40.221Z</time></trkpt><trkpt lat="42.0677733" lon="12.13075"><ele>254.0</ele><time>2026-04-19T16:05:42.223Z</time></trkpt><trkpt lat="42.0678433" lon="12.1307283"><ele>254.0</ele><time>2026-04-19T16:05:44.221Z</time></trkpt><trkpt lat="42.067915" lon="12.13071"><ele>254.0</ele><time>2026-04-19T16:05:46.22Z</time></trkpt><trkpt lat="42.0679917" lon="12.1306867"><ele>254.00000000000003</ele><time>2026-04-19T16:05:48.221Z</time></trkpt><trkpt lat="42.06807" lon="12.1306733"><ele>254.0</ele><time>2026-04-19T16:05:50.223Z</time></trkpt><trkpt lat="42.0681467" lon="12.1306767"><ele>254.00000000000003</ele><time>2026-04-19T16:05:52.223Z</time></trkpt><trkpt lat="42.0682233" lon="12.1306967"><ele>254.0</ele><time>2026-04-19T16:05:54.221Z</time></trkpt><trkpt lat="42.0683" lon="12.1307267"><ele>254.0</ele><time>2026-04-19T16:05:56.222Z</time></trkpt><trkpt lat="42.06838" lon="12.1307617"><ele>254.0</ele><time>2026-04-19T16:05:58.222Z</time></trkpt><trkpt lat="42.0684683" lon="12.1308"><ele>254.00000000000003</ele><time>2026-04-19T16:06:00.222Z</time></trkpt><trkpt lat="42.0685433" lon="12.1308433"><ele>254.0</ele><time>2026-04-19T16:06:02.224Z</time></trkpt><trkpt lat="42.0686133" lon="12.1308967"><ele>254.50000000000003</ele><time>2026-04-19T16:06:04.219Z</time></trkpt><trkpt lat="42.0686867" lon="12.1309517"><ele>255.0</ele><time>2026-04-19T16:06:06.222Z</time></trkpt><trkpt lat="42.0687617" lon="12.1310167"><ele>255.5</ele><time>2026-04-19T16:06:08.221Z</time></trkpt><trkpt lat="42.0688317" lon="12.1310833"><ele>256.0</ele><time>2026-04-19T16:06:10.221Z</time></trkpt><trkpt lat="42.06891" lon="12.1311567"><ele>256.5</ele><time>2026-04-19T16:06:12.221Z</time></trkpt><trkpt lat="42.068985" lon="12.1312267"><ele>257.0</ele><time>2026-04-19T16:06:14.22Z</time></trkpt><trkpt lat="42.06906" lon="12.131285"><ele>257.1666666666667</ele><time>2026-04-19T16:06:16.22Z</time></trkpt><trkpt lat="42.0691367" lon="12.1313417"><ele>257.33333333333337</ele><time>2026-04-19T16:06:18.222Z</time></trkpt><trkpt lat="42.069215" lon="12.1313967"><ele>257.5</ele><time>2026-04-19T16:06:20.224Z</time></trkpt><trkpt lat="42.0692933" lon="12.1314633"><ele>257.6666666666667</ele><time>2026-04-19T16:06:22.223Z</time></trkpt><trkpt lat="42.06937" lon="12.1315283"><ele>257.8333333333333</ele><time>2026-04-19T16:06:24.222Z</time></trkpt><trkpt lat="42.0694467" lon="12.1315883"><ele>258.0</ele><time>2026-04-19T16:06:26.222Z</time></trkpt><trkpt lat="42.0695167" lon="12.1316483"><ele>258.1428571428571</ele><time>2026-04-19T16:06:28.22Z</time></trkpt><trkpt lat="42.0695867" lon="12.1317"><ele>258.2857142857143</ele><time>2026-04-19T16:06:30.224Z</time></trkpt><trkpt lat="42.0696517" lon="12.1317533"><ele>258.42857142857144</ele><time>2026-04-19T16:06:32.22Z</time></trkpt><trkpt lat="42.0697283" lon="12.13182"><ele>258.57142857142856</ele><time>2026-04-19T16:06:35.224Z</time></trkpt><trkpt lat="42.0697833" lon="12.1318617"><ele>258.7142857142857</ele><time>2026-04-19T16:06:37.22Z</time></trkpt><trkpt lat="42.0698417" lon="12.1319117"><ele>258.85714285714283</ele><time>2026-04-19T16:06:39.223Z</time></trkpt><trkpt lat="42.0698983" lon="12.13196"><ele>259.0</ele><time>2026-04-19T16:06:41.222Z</time></trkpt><trkpt lat="42.0699533" lon="12.1320033"><ele>259.57142857142856</ele><time>2026-04-19T16:06:43.223Z</time></trkpt><trkpt lat="42.0700117" lon="12.132055"><ele>260.1428571428571</ele><time>2026-04-19T16:06:45.221Z</time></trkpt><trkpt lat="42.0700667" lon="12.1321"><ele>260.7142857142857</ele><time>2026-04-19T16:06:47.228Z</time></trkpt><trkpt lat="42.0701417" lon="12.1321567"><ele>261.2857142857143</ele><time>2026-04-19T16:06:50.224Z</time></trkpt><trkpt lat="42.0702" lon="12.1322033"><ele>261.85714285714283</ele><time>2026-04-19T16:06:52.223Z</time></trkpt><trkpt lat="42.0702533" lon="12.1322533"><ele>262.42857142857144</ele><time>2026-04-19T16:06:54.224Z</time></trkpt><trkpt lat="42.0703083" lon="12.132295"><ele>263.0</ele><time>2026-04-19T16:06:56.234Z</time></trkpt><trkpt lat="42.070365" lon="12.1323367"><ele>263.0</ele><time>2026-04-19T16:06:58.222Z</time></trkpt><trkpt lat="42.070425" lon="12.1323833"><ele>263.0</ele><time>2026-04-19T16:07:00.222Z</time></trkpt><trkpt lat="42.070485" lon="12.1324233"><ele>263.0</ele><time>2026-04-19T16:07:02.221Z</time></trkpt><trkpt lat="42.0705483" lon="12.1324667"><ele>263.0</ele><time>2026-04-19T16:07:04.22Z</time></trkpt><trkpt lat="42.0706167" lon="12.1325067"><ele>263.0</ele><time>2026-04-19T16:07:06.219Z</time></trkpt><trkpt lat="42.0706917" lon="12.1325467"><ele>263.0</ele><time>2026-04-19T16:07:08.224Z</time></trkpt><trkpt lat="42.070765" lon="12.1325883"><ele>263.0</ele><time>2026-04-19T16:07:10.222Z</time></trkpt><trkpt lat="42.0708283" lon="12.1326333"><ele>263.6666666666667</ele><time>2026-04-19T16:07:12.225Z</time></trkpt><trkpt lat="42.070895" lon="12.1326767"><ele>264.33333333333337</ele><time>2026-04-19T16:07:14.22Z</time></trkpt><trkpt lat="42.0709683" lon="12.1327133"><ele>265.0</ele><time>2026-04-19T16:07:16.23Z</time></trkpt><trkpt lat="42.07104" lon="12.1327583"><ele>265.6666666666667</ele><time>2026-04-19T16:07:18.221Z</time></trkpt><trkpt lat="42.0711133" lon="12.1328"><ele>266.3333333333333</ele><time>2026-04-19T16:07:20.224Z</time></trkpt><trkpt lat="42.0711833" lon="12.1328383"><ele>267.0</ele><time>2026-04-19T16:07:22.221Z</time></trkpt><trkpt lat="42.0712533" lon="12.1328633"><ele>267.00000000000006</ele><time>2026-04-19T16:07:24.227Z</time></trkpt><trkpt lat="42.0713233" lon="12.1328933"><ele>267.0</ele><time>2026-04-19T16:07:26.226Z</time></trkpt><trkpt lat="42.07139" lon="12.1329267"><ele>267.0</ele><time>2026-04-19T16:07:28.226Z</time></trkpt><trkpt lat="42.0714633" lon="12.1329483"><ele>267.0</ele><time>2026-04-19T16:07:30.229Z</time></trkpt><trkpt lat="42.0715333" lon="12.1329683"><ele>267.0</ele><time>2026-04-19T16:07:32.222Z</time></trkpt><trkpt lat="42.0716033" lon="12.1329933"><ele>267.00000000000006</ele><time>2026-04-19T16:07:34.224Z</time></trkpt><trkpt lat="42.0716717" lon="12.133015"><ele>267.0</ele><time>2026-04-19T16:07:36.229Z</time></trkpt><trkpt lat="42.071735" lon="12.1330383"><ele>267.3333333333333</ele><time>2026-04-19T16:07:38.22Z</time></trkpt><trkpt lat="42.0718017" lon="12.1330617"><ele>267.6666666666667</ele><time>2026-04-19T16:07:40.221Z</time></trkpt><trkpt lat="42.0718717" lon="12.1330833"><ele>268.0</ele><time>2026-04-19T16:07:42.223Z</time></trkpt><trkpt lat="42.0719467" lon="12.1331"><ele>268.33333333333337</ele><time>2026-04-19T16:07:44.223Z</time></trkpt><trkpt lat="42.0720183" lon="12.1331317"><ele>268.6666666666667</ele><time>2026-04-19T16:07:46.222Z</time></trkpt><trkpt lat="42.0720983" lon="12.13316"><ele>269.0</ele><time>2026-04-19T16:07:48.223Z</time></trkpt><trkpt lat="42.07218" lon="12.13319"><ele>269.1666666666667</ele><time>2026-04-19T16:07:50.222Z</time></trkpt><trkpt lat="42.0722583" lon="12.1332233"><ele>269.33333333333337</ele><time>2026-04-19T16:07:52.224Z</time></trkpt><trkpt lat="42.072335" lon="12.1332483"><ele>269.5</ele><time>2026-04-19T16:07:54.221Z</time></trkpt><trkpt lat="42.07241" lon="12.1332733"><ele>269.6666666666667</ele><time>2026-04-19T16:07:56.223Z</time></trkpt><trkpt lat="42.0724883" lon="12.1333"><ele>269.8333333333333</ele><time>2026-04-19T16:07:58.22Z</time></trkpt><trkpt lat="42.0725717" lon="12.1333367"><ele>270.0</ele><time>2026-04-19T16:08:00.226Z</time></trkpt><trkpt lat="42.0726583" lon="12.133375"><ele>270.0</ele><time>2026-04-19T16:08:02.22Z</time></trkpt><trkpt lat="42.0727517" lon="12.13341"><ele>270.0</ele><time>2026-04-19T16:08:04.219Z</time></trkpt><trkpt lat="42.0728433" lon="12.1334433"><ele>270.0</ele><time>2026-04-19T16:08:06.221Z</time></trkpt><trkpt lat="42.0729283" lon="12.1334883"><ele>270.0</ele><time>2026-04-19T16:08:08.219Z</time></trkpt><trkpt lat="42.07301" lon="12.1335217"><ele>270.0</ele><time>2026-04-19T16:08:10.221Z</time></trkpt><trkpt lat="42.0730867" lon="12.13356"><ele>270.0</ele><time>2026-04-19T16:08:12.221Z</time></trkpt><trkpt lat="42.07316" lon="12.133605"><ele>270.0</ele><time>2026-04-19T16:08:14.224Z</time></trkpt><trkpt lat="42.0732333" lon="12.1336567"><ele>270.0</ele><time>2026-04-19T16:08:16.223Z</time></trkpt><trkpt lat="42.0733" lon="12.1337267"><ele>270.0</ele><time>2026-04-19T16:08:18.223Z</time></trkpt><trkpt lat="42.073365" lon="12.1337933"><ele>270.0</ele><time>2026-04-19T16:08:20.219Z</time></trkpt><trkpt lat="42.0734317" lon="12.13385"><ele>270.0</ele><time>2026-04-19T16:08:22.221Z</time></trkpt><trkpt lat="42.0734967" lon="12.1339067"><ele>270.0</ele><time>2026-04-19T16:08:24.222Z</time></trkpt><trkpt lat="42.0735633" lon="12.1339617"><ele>270.0</ele><time>2026-04-19T16:08:26.222Z</time></trkpt><trkpt lat="42.0736383" lon="12.1340133"><ele>270.0</ele><time>2026-04-19T16:08:28.222Z</time></trkpt><trkpt lat="42.0737083" lon="12.1340683"><ele>270.0</ele><time>2026-04-19T16:08:30.227Z</time></trkpt><trkpt lat="42.0737733" lon="12.1341167"><ele>270.0</ele><time>2026-04-19T16:08:32.222Z</time></trkpt><trkpt lat="42.0738367" lon="12.1341633"><ele>270.0</ele><time>2026-04-19T16:08:34.226Z</time></trkpt><trkpt lat="42.0739017" lon="12.1342133"><ele>270.0</ele><time>2026-04-19T16:08:36.222Z</time></trkpt><trkpt lat="42.07396" lon="12.1342733"><ele>270.0</ele><time>2026-04-19T16:08:38.221Z</time></trkpt><trkpt lat="42.0740233" lon="12.1343133"><ele>270.0</ele><time>2026-04-19T16:08:40.226Z</time></trkpt><trkpt lat="42.07409" lon="12.13436"><ele>270.0</ele><time>2026-04-19T16:08:42.219Z</time></trkpt><trkpt lat="42.07415" lon="12.1344033"><ele>270.0</ele><time>2026-04-19T16:08:44.224Z</time></trkpt><trkpt lat="42.0742133" lon="12.1344517"><ele>270.0</ele><time>2026-04-19T16:08:46.225Z</time></trkpt><trkpt lat="42.0742783" lon="12.1345"><ele>270.0</ele><time>2026-04-19T16:08:48.224Z</time></trkpt><trkpt lat="42.074345" lon="12.134555"><ele>270.3333333333333</ele><time>2026-04-19T16:08:50.218Z</time></trkpt><trkpt lat="42.0744133" lon="12.13461"><ele>270.6666666666667</ele><time>2026-04-19T16:08:52.225Z</time></trkpt><trkpt lat="42.074475" lon="12.1346683"><ele>271.0</ele><time>2026-04-19T16:08:54.223Z</time></trkpt><trkpt lat="42.074535" lon="12.1347233"><ele>271.33333333333337</ele><time>2026-04-19T16:08:56.222Z</time></trkpt><trkpt lat="42.0746033" lon="12.1347883"><ele>271.6666666666667</ele><time>2026-04-19T16:08:58.22Z</time></trkpt><trkpt lat="42.0746617" lon="12.1348367"><ele>272.0</ele><time>2026-04-19T16:09:00.22Z</time></trkpt><trkpt lat="42.0747267" lon="12.13488"><ele>272.1666666666667</ele><time>2026-04-19T16:09:02.223Z</time></trkpt><trkpt lat="42.07479" lon="12.1349133"><ele>272.33333333333337</ele><time>2026-04-19T16:09:04.23Z</time></trkpt><trkpt lat="42.07488" lon="12.1349483"><ele>272.5</ele><time>2026-04-19T16:09:07.223Z</time></trkpt><trkpt lat="42.0749417" lon="12.13498"><ele>272.6666666666667</ele><time>2026-04-19T16:09:09.222Z</time></trkpt><trkpt lat="42.0750133" lon="12.1350517"><ele>272.8333333333333</ele><time>2026-04-19T16:09:12.222Z</time></trkpt><trkpt lat="42.07507" lon="12.13511"><ele>273.0</ele><time>2026-04-19T16:09:14.221Z</time></trkpt><trkpt lat="42.0751383" lon="12.1351617"><ele>273.8333333333333</ele><time>2026-04-19T16:09:16.221Z</time></trkpt><trkpt lat="42.0752017" lon="12.1352067"><ele>274.6666666666667</ele><time>2026-04-19T16:09:18.222Z</time></trkpt><trkpt lat="42.0752767" lon="12.13525"><ele>275.5</ele><time>2026-04-19T16:09:20.218Z</time></trkpt><trkpt lat="42.075365" lon="12.1353"><ele>276.33333333333337</ele><time>2026-04-19T16:09:22.224Z</time></trkpt><trkpt lat="42.0754433" lon="12.13537"><ele>277.1666666666667</ele><time>2026-04-19T16:09:24.221Z</time></trkpt><trkpt lat="42.0755" lon="12.1354383"><ele>278.0</ele><time>2026-04-19T16:09:26.225Z</time></trkpt><trkpt lat="42.0755417" lon="12.1355067"><ele>278.0</ele><time>2026-04-19T16:09:28.221Z</time></trkpt><trkpt lat="42.075605" lon="12.1355717"><ele>278.0</ele><time>2026-04-19T16:09:30.224Z</time></trkpt><trkpt lat="42.0756767" lon="12.13562"><ele>278.0</ele><time>2026-04-19T16:09:32.219Z</time></trkpt><trkpt lat="42.0757417" lon="12.1356583"><ele>278.0</ele><time>2026-04-19T16:09:34.222Z</time></trkpt><trkpt lat="42.0758083" lon="12.1356983"><ele>278.0</ele><time>2026-04-19T16:09:36.229Z</time></trkpt><trkpt lat="42.075875" lon="12.1357367"><ele>278.0</ele><time>2026-04-19T16:09:38.222Z</time></trkpt><trkpt lat="42.0759367" lon="12.1357767"><ele>278.0</ele><time>2026-04-19T16:09:40.222Z</time></trkpt><trkpt lat="42.0760017" lon="12.1358083"><ele>278.85714285714283</ele><time>2026-04-19T16:09:42.221Z</time></trkpt><trkpt lat="42.0760883" lon="12.1358667"><ele>279.7142857142857</ele><time>2026-04-19T16:09:45.222Z</time></trkpt><trkpt lat="42.07615" lon="12.1359017"><ele>280.57142857142856</ele><time>2026-04-19T16:09:47.221Z</time></trkpt><trkpt lat="42.0762117" lon="12.13594"><ele>281.42857142857144</ele><time>2026-04-19T16:09:49.222Z</time></trkpt><trkpt lat="42.0762683" lon="12.1359917"><ele>282.2857142857143</ele><time>2026-04-19T16:09:51.222Z</time></trkpt><trkpt lat="42.0763117" lon="12.1360533"><ele>283.1428571428571</ele><time>2026-04-19T16:09:53.221Z</time></trkpt><trkpt lat="42.07636" lon="12.13612"><ele>284.0</ele><time>2026-04-19T16:09:55.225Z</time></trkpt><trkpt lat="42.0763983" lon="12.1361933"><ele>284.0</ele><time>2026-04-19T16:09:57.236Z</time></trkpt><trkpt lat="42.0764283" lon="12.1362733"><ele>284.0</ele><time>2026-04-19T16:09:59.222Z</time></trkpt><trkpt lat="42.076455" lon="12.1363533"><ele>284.0</ele><time>2026-04-19T16:10:01.219Z</time></trkpt><trkpt lat="42.076495" lon="12.136465"><ele>284.0</ele><time>2026-04-19T16:10:04.221Z</time></trkpt><trkpt lat="42.07653" lon="12.1365467"><ele>284.0</ele><time>2026-04-19T16:10:06.219Z</time></trkpt><trkpt lat="42.0765583" lon="12.1366267"><ele>284.0</ele><time>2026-04-19T16:10:08.222Z</time></trkpt><trkpt lat="42.076585" lon="12.1367483"><ele>283.6666666666667</ele><time>2026-04-19T16:10:11.221Z</time></trkpt><trkpt lat="42.076615" lon="12.1368267"><ele>283.33333333333337</ele><time>2026-04-19T16:10:13.22Z</time></trkpt><trkpt lat="42.07665" lon="12.13691"><ele>283.0</ele><time>2026-04-19T16:10:15.222Z</time></trkpt><trkpt lat="42.0767133" lon="12.136995"><ele>282.6666666666667</ele><time>2026-04-19T16:10:18.221Z</time></trkpt><trkpt lat="42.07677" lon="12.137055"><ele>282.3333333333333</ele><time>2026-04-19T16:10:20.22Z</time></trkpt><trkpt lat="42.0768333" lon="12.1371133"><ele>282.0</ele><time>2026-04-19T16:10:22.222Z</time></trkpt><trkpt lat="42.0768917" lon="12.13719"><ele>282.0</ele><time>2026-04-19T16:10:24.221Z</time></trkpt><trkpt lat="42.0769583" lon="12.1372633"><ele>282.0</ele><time>2026-04-19T16:10:26.222Z</time></trkpt><trkpt lat="42.0770067" lon="12.1373383"><ele>282.0</ele><time>2026-04-19T16:10:28.219Z</time></trkpt><trkpt lat="42.07707" lon="12.1374117"><ele>282.0</ele><time>2026-04-19T16:10:30.221Z</time></trkpt><trkpt lat="42.0771383" lon="12.1375"><ele>282.0</ele><time>2026-04-19T16:10:32.22Z</time></trkpt><trkpt lat="42.077205" lon="12.1375783"><ele>282.0</ele><time>2026-04-19T16:10:34.229Z</time></trkpt><trkpt lat="42.0772733" lon="12.1376383"><ele>281.8333333333333</ele><time>2026-04-19T16:10:36.223Z</time></trkpt><trkpt lat="42.0773367" lon="12.1377017"><ele>281.6666666666667</ele><time>2026-04-19T16:10:38.222Z</time></trkpt><trkpt lat="42.0774083" lon="12.137755"><ele>281.5</ele><time>2026-04-19T16:10:40.222Z</time></trkpt><trkpt lat="42.0774833" lon="12.1378117"><ele>281.33333333333337</ele><time>2026-04-19T16:10:42.222Z</time></trkpt><trkpt lat="42.0775583" lon="12.1378633"><ele>281.1666666666667</ele><time>2026-04-19T16:10:44.231Z</time></trkpt><trkpt lat="42.07763" lon="12.1379267"><ele>281.0</ele><time>2026-04-19T16:10:46.222Z</time></trkpt><trkpt lat="42.0776967" lon="12.1379783"><ele>281.0</ele><time>2026-04-19T16:10:48.222Z</time></trkpt><trkpt lat="42.0777683" lon="12.13803"><ele>281.0</ele><time>2026-04-19T16:10:50.223Z</time></trkpt><trkpt lat="42.0778417" lon="12.1380833"><ele>281.0</ele><time>2026-04-19T16:10:52.218Z</time></trkpt><trkpt lat="42.0779167" lon="12.1381383"><ele>281.0</ele><time>2026-04-19T16:10:54.223Z</time></trkpt><trkpt lat="42.077985" lon="12.1381867"><ele>281.0</ele><time>2026-04-19T16:10:56.223Z</time></trkpt><trkpt lat="42.0780417" lon="12.1382333"><ele>281.0</ele><time>2026-04-19T16:10:58.223Z</time></trkpt><trkpt lat="42.0781083" lon="12.13828"><ele>281.00000000000006</ele><time>2026-04-19T16:11:00.221Z</time></trkpt><trkpt lat="42.07817" lon="12.1383267"><ele>281.0</ele><time>2026-04-19T16:11:02.229Z</time></trkpt><trkpt lat="42.07824" lon="12.1383733"><ele>281.0</ele><time>2026-04-19T16:11:04.22Z</time></trkpt><trkpt lat="42.0783033" lon="12.1384083"><ele>281.0</ele><time>2026-04-19T16:11:06.222Z</time></trkpt><trkpt lat="42.0783567" lon="12.1384583"><ele>281.0</ele><time>2026-04-19T16:11:08.224Z</time></trkpt><trkpt lat="42.078435" lon="12.1385283"><ele>281.00000000000006</ele><time>2026-04-19T16:11:11.221Z</time></trkpt><trkpt lat="42.0784967" lon="12.1385683"><ele>281.0</ele><time>2026-04-19T16:11:13.222Z</time></trkpt><trkpt lat="42.0785633" lon="12.1386317"><ele>281.33333333333337</ele><time>2026-04-19T16:11:15.223Z</time></trkpt><trkpt lat="42.07863" lon="12.13869"><ele>281.6666666666667</ele><time>2026-04-19T16:11:17.221Z</time></trkpt><trkpt lat="42.0787" lon="12.13876"><ele>282.0</ele><time>2026-04-19T16:11:20.224Z</time></trkpt><trkpt lat="42.0787783" lon="12.13882"><ele>282.3333333333333</ele><time>2026-04-19T16:11:23.223Z</time></trkpt><trkpt lat="42.0788633" lon="12.138875"><ele>282.66666666666663</ele><time>2026-04-19T16:11:26.221Z</time></trkpt><trkpt lat="42.0789267" lon="12.1389233"><ele>283.0</ele><time>2026-04-19T16:11:28.223Z</time></trkpt><trkpt lat="42.0789967" lon="12.13898"><ele>283.0</ele><time>2026-04-19T16:11:30.221Z</time></trkpt><trkpt lat="42.0790617" lon="12.1390383"><ele>283.0</ele><time>2026-04-19T16:11:32.223Z</time></trkpt><trkpt lat="42.0791183" lon="12.13909"><ele>283.0</ele><time>2026-04-19T16:11:34.221Z</time></trkpt><trkpt lat="42.0791967" lon="12.1391517"><ele>283.0</ele><time>2026-04-19T16:11:37.228Z</time></trkpt><trkpt lat="42.079285" lon="12.139235"><ele>283.0</ele><time>2026-04-19T16:11:40.221Z</time></trkpt><trkpt lat="42.0793633" lon="12.1392983"><ele>283.0</ele><time>2026-04-19T16:11:42.226Z</time></trkpt><trkpt lat="42.0794533" lon="12.13938"><ele>283.6</ele><time>2026-04-19T16:11:44.222Z</time></trkpt><trkpt lat="42.0795533" lon="12.1394583"><ele>284.20000000000005</ele><time>2026-04-19T16:11:46.22Z</time></trkpt><trkpt lat="42.0796517" lon="12.1395367"><ele>284.8</ele><time>2026-04-19T16:11:48.223Z</time></trkpt><trkpt lat="42.0797433" lon="12.1396033"><ele>285.40000000000003</ele><time>2026-04-19T16:11:50.228Z</time></trkpt><trkpt lat="42.0798267" lon="12.1396783"><ele>286.0</ele><time>2026-04-19T16:11:52.219Z</time></trkpt><trkpt lat="42.0799" lon="12.1397517"><ele>286.6</ele><time>2026-04-19T16:11:54.219Z</time></trkpt><trkpt lat="42.079975" lon="12.13982"><ele>287.20000000000005</ele><time>2026-04-19T16:11:56.223Z</time></trkpt><trkpt lat="42.080055" lon="12.1398617"><ele>287.79999999999995</ele><time>2026-04-19T16:11:58.221Z</time></trkpt><trkpt lat="42.0801367" lon="12.139905"><ele>288.4</ele><time>2026-04-19T16:12:00.222Z</time></trkpt><trkpt lat="42.0802217" lon="12.139965"><ele>289.0</ele><time>2026-04-19T16:12:02.222Z</time></trkpt><trkpt lat="42.0803083" lon="12.1400283"><ele>288.2857142857143</ele><time>2026-04-19T16:12:04.217Z</time></trkpt><trkpt lat="42.0804" lon="12.1401133"><ele>287.57142857142856</ele><time>2026-04-19T16:12:06.219Z</time></trkpt><trkpt lat="42.080455" lon="12.14016"><ele>286.85714285714283</ele><time>2026-04-19T16:12:07.222Z</time></trkpt><trkpt lat="42.08051" lon="12.1402083"><ele>286.1428571428571</ele><time>2026-04-19T16:12:08.22Z</time></trkpt><trkpt lat="42.0805783" lon="12.1402433"><ele>285.4285714285714</ele><time>2026-04-19T16:12:09.224Z</time></trkpt><trkpt lat="42.0806483" lon="12.140255"><ele>284.7142857142857</ele><time>2026-04-19T16:12:10.223Z</time></trkpt><trkpt lat="42.0807117" lon="12.140265"><ele>284.0</ele><time>2026-04-19T16:12:11.221Z</time></trkpt><trkpt lat="42.08078" lon="12.140275"><ele>284.0</ele><time>2026-04-19T16:12:12.231Z</time></trkpt><trkpt lat="42.0808483" lon="12.1402833"><ele>284.0</ele><time>2026-04-19T16:12:13.223Z</time></trkpt><trkpt lat="42.0809167" lon="12.14029"><ele>284.0</ele><time>2026-04-19T16:12:14.221Z</time></trkpt><trkpt lat="42.0809817" lon="12.1402917"><ele>284.0</ele><time>2026-04-19T16:12:15.222Z</time></trkpt><trkpt lat="42.0810467" lon="12.1402933"><ele>284.0</ele><time>2026-04-19T16:12:16.22Z</time></trkpt><trkpt lat="42.0811683" lon="12.1403117"><ele>284.0</ele><time>2026-04-19T16:12:18.224Z</time></trkpt><trkpt lat="42.0812317" lon="12.140325"><ele>284.0</ele><time>2026-04-19T16:12:19.224Z</time></trkpt><trkpt lat="42.081295" lon="12.1403383"><ele>284.0</ele><time>2026-04-19T16:12:20.224Z</time></trkpt><trkpt lat="42.0814083" lon="12.1403617"><ele>284.0</ele><time>2026-04-19T16:12:22.229Z</time></trkpt><trkpt lat="42.08152" lon="12.1403733"><ele>284.0</ele><time>2026-04-19T16:12:24.225Z</time></trkpt><trkpt lat="42.08163" lon="12.1404"><ele>284.0</ele><time>2026-04-19T16:12:26.221Z</time></trkpt><trkpt lat="42.081735" lon="12.14043"><ele>283.4</ele><time>2026-04-19T16:12:28.222Z</time></trkpt><trkpt lat="42.081835" lon="12.14045"><ele>282.79999999999995</ele><time>2026-04-19T16:12:30.223Z</time></trkpt><trkpt lat="42.0819333" lon="12.1404683"><ele>282.20000000000005</ele><time>2026-04-19T16:12:32.221Z</time></trkpt><trkpt lat="42.0820383" lon="12.1405017"><ele>281.6</ele><time>2026-04-19T16:12:34.221Z</time></trkpt><trkpt lat="42.08215" lon="12.14057"><ele>281.0</ele><time>2026-04-19T16:12:36.221Z</time></trkpt><trkpt lat="42.0822033" lon="12.1406167"><ele>281.0</ele><time>2026-04-19T16:12:37.221Z</time></trkpt><trkpt lat="42.0822517" lon="12.1406717"><ele>281.0</ele><time>2026-04-19T16:12:38.218Z</time></trkpt><trkpt lat="42.0823333" lon="12.1407817"><ele>281.0</ele><time>2026-04-19T16:12:40.224Z</time></trkpt><trkpt lat="42.0824" lon="12.1409"><ele>281.0</ele><time>2026-04-19T16:12:42.228Z</time></trkpt><trkpt lat="42.0824617" lon="12.1410267"><ele>281.0</ele><time>2026-04-19T16:12:44.219Z</time></trkpt><trkpt lat="42.08251" lon="12.141165"><ele>280.25</ele><time>2026-04-19T16:12:46.22Z</time></trkpt><trkpt lat="42.08255" lon="12.1413133"><ele>279.5</ele><time>2026-04-19T16:12:48.222Z</time></trkpt><trkpt lat="42.082575" lon="12.14147"><ele>278.75</ele><time>2026-04-19T16:12:50.22Z</time></trkpt><trkpt lat="42.0825933" lon="12.1416317"><ele>278.0</ele><time>2026-04-19T16:12:52.221Z</time></trkpt><trkpt lat="42.0826117" lon="12.1417883"><ele>277.8</ele><time>2026-04-19T16:12:54.22Z</time></trkpt><trkpt lat="42.08265" lon="12.14193"><ele>277.6</ele><time>2026-04-19T16:12:56.22Z</time></trkpt><trkpt lat="42.08271" lon="12.1420483"><ele>277.4</ele><time>2026-04-19T16:12:58.22Z</time></trkpt><trkpt lat="42.0827683" lon="12.14216"><ele>277.2</ele><time>2026-04-19T16:13:00.221Z</time></trkpt><trkpt lat="42.0828317" lon="12.1422783"><ele>277.0</ele><time>2026-04-19T16:13:02.232Z</time></trkpt><trkpt lat="42.082905" lon="12.1423867"><ele>276.4</ele><time>2026-04-19T16:13:04.225Z</time></trkpt><trkpt lat="42.0829683" lon="12.14249"><ele>275.79999999999995</ele><time>2026-04-19T16:13:06.221Z</time></trkpt><trkpt lat="42.083025" lon="12.1425683"><ele>275.2</ele><time>2026-04-19T16:13:08.223Z</time></trkpt><trkpt lat="42.0831" lon="12.1426317"><ele>274.59999999999997</ele><time>2026-04-19T16:13:10.223Z</time></trkpt><trkpt lat="42.0831917" lon="12.1427267"><ele>274.0</ele><time>2026-04-19T16:13:12.222Z</time></trkpt><trkpt lat="42.0832433" lon="12.1427867"><ele>275.5</ele><time>2026-04-19T16:13:13.223Z</time></trkpt><trkpt lat="42.0833433" lon="12.14289"><ele>277.0</ele><time>2026-04-19T16:13:15.221Z</time></trkpt><trkpt lat="42.0834417" lon="12.14297"><ele>278.5</ele><time>2026-04-19T16:13:17.222Z</time></trkpt><trkpt lat="42.0835583" lon="12.1430683"><ele>280.0</ele><time>2026-04-19T16:13:19.221Z</time></trkpt><trkpt lat="42.0836233" lon="12.14312"><ele>280.0</ele><time>2026-04-19T16:13:20.221Z</time></trkpt><trkpt lat="42.0837" lon="12.143175"><ele>280.0</ele><time>2026-04-19T16:13:21.23Z</time></trkpt><trkpt lat="42.08377" lon="12.1432267"><ele>280.0</ele><time>2026-04-19T16:13:22.223Z</time></trkpt><trkpt lat="42.0838383" lon="12.14328"><ele>280.0</ele><time>2026-04-19T16:13:23.222Z</time></trkpt><trkpt lat="42.0839183" lon="12.1433783"><ele>280.0</ele><time>2026-04-19T16:13:25.222Z</time></trkpt><trkpt lat="42.0840267" lon="12.1434983"><ele>278.5</ele><time>2026-04-19T16:13:27.223Z</time></trkpt><trkpt lat="42.0840967" lon="12.1435683"><ele>277.0</ele><time>2026-04-19T16:13:28.22Z</time></trkpt><trkpt lat="42.0841733" lon="12.1436433"><ele>275.5</ele><time>2026-04-19T16:13:29.223Z</time></trkpt><trkpt lat="42.084245" lon="12.1437167"><ele>274.0</ele><time>2026-04-19T16:13:30.223Z</time></trkpt><trkpt lat="42.0843083" lon="12.143795"><ele>272.5</ele><time>2026-04-19T16:13:31.232Z</time></trkpt><trkpt lat="42.0843683" lon="12.1438683"><ele>271.0</ele><time>2026-04-19T16:13:32.225Z</time></trkpt><trkpt lat="42.0844267" lon="12.1439367"><ele>271.0</ele><time>2026-04-19T16:13:33.224Z</time></trkpt><trkpt lat="42.0844817" lon="12.144005"><ele>271.0</ele><time>2026-04-19T16:13:34.22Z</time></trkpt><trkpt lat="42.08454" lon="12.1440683"><ele>271.0</ele><time>2026-04-19T16:13:35.223Z</time></trkpt><trkpt lat="42.0845967" lon="12.1441317"><ele>271.0</ele><time>2026-04-19T16:13:36.228Z</time></trkpt><trkpt lat="42.084645" lon="12.1441967"><ele>271.0</ele><time>2026-04-19T16:13:37.221Z</time></trkpt><trkpt lat="42.08469" lon="12.144265"><ele>271.0</ele><time>2026-04-19T16:13:38.225Z</time></trkpt><trkpt lat="42.0847367" lon="12.14434"><ele>271.0</ele><time>2026-04-19T16:13:39.227Z</time></trkpt><trkpt lat="42.0847833" lon="12.1444117"><ele>271.0</ele><time>2026-04-19T16:13:40.22Z</time></trkpt><trkpt lat="42.084825" lon="12.14448"><ele>271.0</ele><time>2026-04-19T16:13:41.22Z</time></trkpt><trkpt lat="42.0849" lon="12.1445983"><ele>271.0</ele><time>2026-04-19T16:13:43.224Z</time></trkpt><trkpt lat="42.084965" lon="12.1447167"><ele>271.0</ele><time>2026-04-19T16:13:45.223Z</time></trkpt><trkpt lat="42.0850317" lon="12.1448367"><ele>271.0</ele><time>2026-04-19T16:13:47.227Z</time></trkpt><trkpt lat="42.0850967" lon="12.1449483"><ele>270.40000000000003</ele><time>2026-04-19T16:13:49.221Z</time></trkpt><trkpt lat="42.0851633" lon="12.145055"><ele>269.8</ele><time>2026-04-19T16:13:51.222Z</time></trkpt><trkpt lat="42.0852083" lon="12.14517"><ele>269.20000000000005</ele><time>2026-04-19T16:13:53.222Z</time></trkpt><trkpt lat="42.0852633" lon="12.1452867"><ele>268.6</ele><time>2026-04-19T16:13:55.222Z</time></trkpt><trkpt lat="42.0852883" lon="12.1454067"><ele>268.0</ele><time>2026-04-19T16:13:57.228Z</time></trkpt><trkpt lat="42.0852733" lon="12.1455367"><ele>268.0</ele><time>2026-04-19T16:13:59.222Z</time></trkpt><trkpt lat="42.085265" lon="12.1456717"><ele>268.0</ele><time>2026-04-19T16:14:01.225Z</time></trkpt><trkpt lat="42.085265" lon="12.1458167"><ele>268.0</ele><time>2026-04-19T16:14:03.227Z</time></trkpt><trkpt lat="42.0852633" lon="12.1459567"><ele>268.0</ele><time>2026-04-19T16:14:05.22Z</time></trkpt><trkpt lat="42.0852567" lon="12.14609"><ele>268.0</ele><time>2026-04-19T16:14:07.224Z</time></trkpt><trkpt lat="42.0852367" lon="12.14622"><ele>268.0</ele><time>2026-04-19T16:14:09.221Z</time></trkpt><trkpt lat="42.085215" lon="12.1463417"><ele>268.0</ele><time>2026-04-19T16:14:11.221Z</time></trkpt><trkpt lat="42.085185" lon="12.1464433"><ele>268.0</ele><time>2026-04-19T16:14:13.223Z</time></trkpt><trkpt lat="42.085155" lon="12.1465567"><ele>268.0</ele><time>2026-04-19T16:14:15.222Z</time></trkpt><trkpt lat="42.08511" lon="12.1466617"><ele>268.0</ele><time>2026-04-19T16:14:17.22Z</time></trkpt><trkpt lat="42.0850683" lon="12.146755"><ele>268.0</ele><time>2026-04-19T16:14:19.221Z</time></trkpt><trkpt lat="42.0850233" lon="12.1468417"><ele>268.14285714285717</ele><time>2026-04-19T16:14:21.222Z</time></trkpt><trkpt lat="42.0849883" lon="12.1469333"><ele>268.2857142857143</ele><time>2026-04-19T16:14:23.223Z</time></trkpt><trkpt lat="42.08497" lon="12.1470267"><ele>268.42857142857144</ele><time>2026-04-19T16:14:25.222Z</time></trkpt><trkpt lat="42.0849483" lon="12.14713"><ele>268.57142857142856</ele><time>2026-04-19T16:14:27.219Z</time></trkpt><trkpt lat="42.084925" lon="12.14723"><ele>268.7142857142857</ele><time>2026-04-19T16:14:29.222Z</time></trkpt><trkpt lat="42.084905" lon="12.14732"><ele>268.8571428571429</ele><time>2026-04-19T16:14:31.228Z</time></trkpt><trkpt lat="42.08488" lon="12.1474083"><ele>269.0</ele><time>2026-04-19T16:14:33.222Z</time></trkpt><trkpt lat="42.0848617" lon="12.1475017"><ele>269.2857142857143</ele><time>2026-04-19T16:14:35.223Z</time></trkpt><trkpt lat="42.0848517" lon="12.1475883"><ele>269.5714285714286</ele><time>2026-04-19T16:14:37.221Z</time></trkpt><trkpt lat="42.0848433" lon="12.1476733"><ele>269.8571428571429</ele><time>2026-04-19T16:14:39.221Z</time></trkpt><trkpt lat="42.084845" lon="12.1477617"><ele>270.14285714285717</ele><time>2026-04-19T16:14:41.223Z</time></trkpt><trkpt lat="42.084845" lon="12.1478517"><ele>270.42857142857144</ele><time>2026-04-19T16:14:43.223Z</time></trkpt><trkpt lat="42.084835" lon="12.14794"><ele>270.7142857142857</ele><time>2026-04-19T16:14:45.222Z</time></trkpt><trkpt lat="42.0848233" lon="12.1480317"><ele>271.0</ele><time>2026-04-19T16:14:47.221Z</time></trkpt><trkpt lat="42.0848183" lon="12.1481167"><ele>271.66666666666663</ele><time>2026-04-19T16:14:49.222Z</time></trkpt><trkpt lat="42.0848" lon="12.148235"><ele>272.3333333333333</ele><time>2026-04-19T16:14:52.223Z</time></trkpt><trkpt lat="42.0847767" lon="12.1483167"><ele>273.0</ele><time>2026-04-19T16:14:54.222Z</time></trkpt><trkpt lat="42.0847467" lon="12.1484333"><ele>273.6666666666667</ele><time>2026-04-19T16:14:57.22Z</time></trkpt><trkpt lat="42.0847167" lon="12.148555"><ele>274.33333333333337</ele><time>2026-04-19T16:15:00.223Z</time></trkpt><trkpt lat="42.08468" lon="12.148665"><ele>275.0</ele><time>2026-04-19T16:15:03.223Z</time></trkpt><trkpt lat="42.0846533" lon="12.1487867"><ele>275.0</ele><time>2026-04-19T16:15:06.222Z</time></trkpt><trkpt lat="42.0846233" lon="12.1488983"><ele>275.0</ele><time>2026-04-19T16:15:09.223Z</time></trkpt><trkpt lat="42.0845933" lon="12.149005"><ele>275.0</ele><time>2026-04-19T16:15:12.224Z</time></trkpt><trkpt lat="42.08457" lon="12.14911"><ele>275.0</ele><time>2026-04-19T16:15:15.221Z</time></trkpt><trkpt lat="42.0845517" lon="12.1492133"><ele>275.0</ele><time>2026-04-19T16:15:18.223Z</time></trkpt><trkpt lat="42.0845283" lon="12.149315"><ele>275.0</ele><time>2026-04-19T16:15:21.22Z</time></trkpt><trkpt lat="42.084505" lon="12.1494217"><ele>275.42857142857144</ele><time>2026-04-19T16:15:24.224Z</time></trkpt><trkpt lat="42.084485" lon="12.149525"><ele>275.85714285714283</ele><time>2026-04-19T16:15:27.222Z</time></trkpt><trkpt lat="42.0844667" lon="12.1496183"><ele>276.2857142857143</ele><time>2026-04-19T16:15:30.221Z</time></trkpt><trkpt lat="42.0844333" lon="12.1497017"><ele>276.7142857142857</ele><time>2026-04-19T16:15:33.223Z</time></trkpt><trkpt lat="42.0844117" lon="12.1497917"><ele>277.14285714285717</ele><time>2026-04-19T16:15:36.22Z</time></trkpt><trkpt lat="42.084385" lon="12.1498867"><ele>277.57142857142856</ele><time>2026-04-19T16:15:39.225Z</time></trkpt><trkpt lat="42.0843517" lon="12.1499867"><ele>278.0</ele><time>2026-04-19T16:15:42.222Z</time></trkpt><trkpt lat="42.0843267" lon="12.1500917"><ele>278.0</ele><time>2026-04-19T16:15:45.221Z</time></trkpt><trkpt lat="42.084305" lon="12.1502067"><ele>278.0</ele><time>2026-04-19T16:15:48.222Z</time></trkpt><trkpt lat="42.0842833" lon="12.1502867"><ele>278.0</ele><time>2026-04-19T16:15:50.231Z</time></trkpt><trkpt lat="42.0842533" lon="12.1504017"><ele>278.0</ele><time>2026-04-19T16:15:53.22Z</time></trkpt><trkpt lat="42.0842233" lon="12.1505083"><ele>278.0</ele><time>2026-04-19T16:15:56.226Z</time></trkpt><trkpt lat="42.0842017" lon="12.1506233"><ele>278.0</ele><time>2026-04-19T16:15:59.222Z</time></trkpt><trkpt lat="42.0841683" lon="12.1507267"><ele>278.0</ele><time>2026-04-19T16:16:02.228Z</time></trkpt><trkpt lat="42.0841467" lon="12.1508083"><ele>278.0</ele><time>2026-04-19T16:16:05.221Z</time></trkpt><trkpt lat="42.0841533" lon="12.1509167"><ele>278.0</ele><time>2026-04-19T16:17:45.22Z</time></trkpt><trkpt lat="42.08417" lon="12.1510183"><ele>278.0</ele><time>2026-04-19T16:17:48.223Z</time></trkpt><trkpt lat="42.0841483" lon="12.151115"><ele>278.0</ele><time>2026-04-19T16:17:52.225Z</time></trkpt><trkpt lat="42.084125" lon="12.1512217"><ele>278.0</ele><time>2026-04-19T16:17:55.22Z</time></trkpt><trkpt lat="42.0840967" lon="12.151345"><ele>278.0</ele><time>2026-04-19T16:17:58.219Z</time></trkpt><trkpt lat="42.0840733" lon="12.1514383"><ele>278.0</ele><time>2026-04-19T16:18:00.22Z</time></trkpt><trkpt lat="42.0840467" lon="12.151545"><ele>278.0</ele><time>2026-04-19T16:18:02.22Z</time></trkpt><trkpt lat="42.0840233" lon="12.1516633"><ele>278.0</ele><time>2026-04-19T16:18:04.222Z</time></trkpt><trkpt lat="42.083985" lon="12.1517967"><ele>278.0</ele><time>2026-04-19T16:18:06.229Z</time></trkpt><trkpt lat="42.08395" lon="12.151945"><ele>278.0</ele><time>2026-04-19T16:18:08.219Z</time></trkpt><trkpt lat="42.0839117" lon="12.15209"><ele>278.0</ele><time>2026-04-19T16:18:10.223Z</time></trkpt><trkpt lat="42.0838783" lon="12.15224"><ele>278.0</ele><time>2026-04-19T16:18:12.222Z</time></trkpt><trkpt lat="42.083855" lon="12.1523317"><ele>278.0</ele><time>2026-04-19T16:18:13.221Z</time></trkpt><trkpt lat="42.0838317" lon="12.1524283"><ele>278.0</ele><time>2026-04-19T16:18:14.218Z</time></trkpt><trkpt lat="42.083805" lon="12.1525283"><ele>277.6666666666667</ele><time>2026-04-19T16:18:15.221Z</time></trkpt><trkpt lat="42.0837783" lon="12.152625"><ele>277.33333333333337</ele><time>2026-04-19T16:18:16.221Z</time></trkpt><trkpt lat="42.083755" lon="12.152725"><ele>277.0</ele><time>2026-04-19T16:18:17.22Z</time></trkpt><trkpt lat="42.0837367" lon="12.152815"><ele>276.6666666666667</ele><time>2026-04-19T16:18:18.219Z</time></trkpt><trkpt lat="42.0837283" lon="12.1529433"><ele>276.3333333333333</ele><time>2026-04-19T16:18:20.219Z</time></trkpt><trkpt lat="42.0836967" lon="12.1530967"><ele>276.0</ele><time>2026-04-19T16:18:22.222Z</time></trkpt><trkpt lat="42.0836733" lon="12.1531833"><ele>275.0</ele><time>2026-04-19T16:18:23.219Z</time></trkpt><trkpt lat="42.08365" lon="12.15328"><ele>274.0</ele><time>2026-04-19T16:18:24.218Z</time></trkpt><trkpt lat="42.0836183" lon="12.1533733"><ele>273.0</ele><time>2026-04-19T16:18:25.218Z</time></trkpt><trkpt lat="42.08359" lon="12.153475"><ele>272.0</ele><time>2026-04-19T16:18:26.22Z</time></trkpt><trkpt lat="42.083565" lon="12.1535833"><ele>271.0</ele><time>2026-04-19T16:18:27.221Z</time></trkpt><trkpt lat="42.0835383" lon="12.1536967"><ele>270.0</ele><time>2026-04-19T16:18:28.224Z</time></trkpt><trkpt lat="42.0835033" lon="12.1538033"><ele>270.0</ele><time>2026-04-19T16:18:29.229Z</time></trkpt><trkpt lat="42.083475" lon="12.15391"><ele>270.0</ele><time>2026-04-19T16:18:30.218Z</time></trkpt><trkpt lat="42.0834483" lon="12.15402"><ele>270.0</ele><time>2026-04-19T16:18:31.222Z</time></trkpt><trkpt lat="42.0834217" lon="12.1541267"><ele>270.0</ele><time>2026-04-19T16:18:32.222Z</time></trkpt><trkpt lat="42.0833967" lon="12.1542283"><ele>270.0</ele><time>2026-04-19T16:18:33.222Z</time></trkpt><trkpt lat="42.08337" lon="12.154325"><ele>270.0</ele><time>2026-04-19T16:18:34.219Z</time></trkpt><trkpt lat="42.0833433" lon="12.1544217"><ele>269.7142857142857</ele><time>2026-04-19T16:18:35.222Z</time></trkpt><trkpt lat="42.0833217" lon="12.1545183"><ele>269.4285714285714</ele><time>2026-04-19T16:18:36.228Z</time></trkpt><trkpt lat="42.0833017" lon="12.1546117"><ele>269.1428571428571</ele><time>2026-04-19T16:18:37.221Z</time></trkpt><trkpt lat="42.0832783" lon="12.1547067"><ele>268.85714285714283</ele><time>2026-04-19T16:18:38.224Z</time></trkpt><trkpt lat="42.0832567" lon="12.1548017"><ele>268.57142857142856</ele><time>2026-04-19T16:18:39.224Z</time></trkpt><trkpt lat="42.0832317" lon="12.1548933"><ele>268.2857142857143</ele><time>2026-04-19T16:18:40.221Z</time></trkpt><trkpt lat="42.0832067" lon="12.154985"><ele>268.0</ele><time>2026-04-19T16:18:41.218Z</time></trkpt><trkpt lat="42.0831833" lon="12.1550767"><ele>267.2857142857143</ele><time>2026-04-19T16:18:42.219Z</time></trkpt><trkpt lat="42.0831583" lon="12.1551683"><ele>266.57142857142856</ele><time>2026-04-19T16:18:43.222Z</time></trkpt><trkpt lat="42.083135" lon="12.1552567"><ele>265.85714285714283</ele><time>2026-04-19T16:18:44.221Z</time></trkpt><trkpt lat="42.0831117" lon="12.155345"><ele>265.1428571428571</ele><time>2026-04-19T16:18:45.229Z</time></trkpt><trkpt lat="42.08309" lon="12.1554317"><ele>264.4285714285714</ele><time>2026-04-19T16:18:46.219Z</time></trkpt><trkpt lat="42.0830667" lon="12.1555233"><ele>263.7142857142857</ele><time>2026-04-19T16:18:47.221Z</time></trkpt><trkpt lat="42.083045" lon="12.15561"><ele>263.0</ele><time>2026-04-19T16:18:48.219Z</time></trkpt><trkpt lat="42.083025" lon="12.155695"><ele>263.0</ele><time>2026-04-19T16:18:49.221Z</time></trkpt><trkpt lat="42.083005" lon="12.1557783"><ele>263.0</ele><time>2026-04-19T16:18:50.219Z</time></trkpt><trkpt lat="42.0829833" lon="12.15586"><ele>263.0</ele><time>2026-04-19T16:18:51.227Z</time></trkpt><trkpt lat="42.08295" lon="12.15601"><ele>263.0</ele><time>2026-04-19T16:18:53.221Z</time></trkpt><trkpt lat="42.0829183" lon="12.15615"><ele>263.0</ele><time>2026-04-19T16:18:55.223Z</time></trkpt><trkpt lat="42.08289" lon="12.1563117"><ele>263.0</ele><time>2026-04-19T16:18:57.233Z</time></trkpt><trkpt lat="42.0828717" lon="12.1563933"><ele>263.0</ele><time>2026-04-19T16:18:58.224Z</time></trkpt><trkpt lat="42.0828517" lon="12.1564767"><ele>263.0</ele><time>2026-04-19T16:18:59.22Z</time></trkpt><trkpt lat="42.08283" lon="12.1565617"><ele>263.0</ele><time>2026-04-19T16:19:00.219Z</time></trkpt><trkpt lat="42.0828067" lon="12.15665"><ele>263.0</ele><time>2026-04-19T16:19:01.219Z</time></trkpt><trkpt lat="42.0827817" lon="12.1567367"><ele>263.0</ele><time>2026-04-19T16:19:02.226Z</time></trkpt><trkpt lat="42.0827567" lon="12.15683"><ele>263.0</ele><time>2026-04-19T16:19:03.224Z</time></trkpt><trkpt lat="42.0827333" lon="12.156925"><ele>263.0</ele><time>2026-04-19T16:19:04.218Z</time></trkpt><trkpt lat="42.0827067" lon="12.15702"><ele>263.0</ele><time>2026-04-19T16:19:05.222Z</time></trkpt><trkpt lat="42.0826817" lon="12.1571167"><ele>263.0</ele><time>2026-04-19T16:19:06.221Z</time></trkpt><trkpt lat="42.0826583" lon="12.1572167"><ele>263.0</ele><time>2026-04-19T16:19:07.222Z</time></trkpt><trkpt lat="42.0826333" lon="12.157315"><ele>263.0</ele><time>2026-04-19T16:19:08.222Z</time></trkpt><trkpt lat="42.0826083" lon="12.1574117"><ele>263.0</ele><time>2026-04-19T16:19:09.226Z</time></trkpt><trkpt lat="42.0825817" lon="12.1575083"><ele>263.0</ele><time>2026-04-19T16:19:10.22Z</time></trkpt><trkpt lat="42.0825567" lon="12.157605"><ele>263.0</ele><time>2026-04-19T16:19:11.234Z</time></trkpt><trkpt lat="42.0825367" lon="12.1576933"><ele>263.0</ele><time>2026-04-19T16:19:12.22Z</time></trkpt><trkpt lat="42.0825167" lon="12.1577867"><ele>263.0</ele><time>2026-04-19T16:19:13.221Z</time></trkpt><trkpt lat="42.0824967" lon="12.15788"><ele>263.0</ele><time>2026-04-19T16:19:14.219Z</time></trkpt><trkpt lat="42.0824767" lon="12.15797"><ele>263.0</ele><time>2026-04-19T16:19:15.223Z</time></trkpt><trkpt lat="42.0824533" lon="12.1580533"><ele>263.0</ele><time>2026-04-19T16:19:16.223Z</time></trkpt><trkpt lat="42.0824333" lon="12.1581367"><ele>262.8</ele><time>2026-04-19T16:19:17.223Z</time></trkpt><trkpt lat="42.0824167" lon="12.1582217"><ele>262.6</ele><time>2026-04-19T16:19:18.221Z</time></trkpt><trkpt lat="42.0823783" lon="12.15838"><ele>262.4</ele><time>2026-04-19T16:19:20.221Z</time></trkpt><trkpt lat="42.0823567" lon="12.1584617"><ele>262.2</ele><time>2026-04-19T16:19:21.22Z</time></trkpt><trkpt lat="42.0823167" lon="12.1586167"><ele>262.0</ele><time>2026-04-19T16:19:23.221Z</time></trkpt><trkpt lat="42.0822783" lon="12.158765"><ele>262.0</ele><time>2026-04-19T16:19:25.22Z</time></trkpt><trkpt lat="42.082245" lon="12.1588983"><ele>262.0</ele><time>2026-04-19T16:19:27.22Z</time></trkpt><trkpt lat="42.0822067" lon="12.1590233"><ele>262.0</ele><time>2026-04-19T16:19:29.222Z</time></trkpt><trkpt lat="42.0821717" lon="12.159145"><ele>262.0</ele><time>2026-04-19T16:19:31.226Z</time></trkpt><trkpt lat="42.0821417" lon="12.1592683"><ele>262.0</ele><time>2026-04-19T16:19:33.222Z</time></trkpt><trkpt lat="42.082115" lon="12.15939"><ele>262.6</ele><time>2026-04-19T16:19:35.221Z</time></trkpt><trkpt lat="42.08209" lon="12.159515"><ele>263.2</ele><time>2026-04-19T16:19:37.22Z</time></trkpt><trkpt lat="42.0820683" lon="12.1596433"><ele>263.8</ele><time>2026-04-19T16:19:39.22Z</time></trkpt><trkpt lat="42.0820367" lon="12.159755"><ele>264.4</ele><time>2026-04-19T16:19:41.222Z</time></trkpt><trkpt lat="42.0820017" lon="12.1598667"><ele>265.0</ele><time>2026-04-19T16:19:43.22Z</time></trkpt><trkpt lat="42.0819683" lon="12.1599667"><ele>266.0</ele><time>2026-04-19T16:19:45.223Z</time></trkpt><trkpt lat="42.081945" lon="12.1600667"><ele>267.0</ele><time>2026-04-19T16:19:47.224Z</time></trkpt><trkpt lat="42.0819267" lon="12.1601717"><ele>268.0</ele><time>2026-04-19T16:19:49.223Z</time></trkpt><trkpt lat="42.0819" lon="12.1602683"><ele>269.0</ele><time>2026-04-19T16:19:51.221Z</time></trkpt><trkpt lat="42.081875" lon="12.16037"><ele>270.0</ele><time>2026-04-19T16:19:53.229Z</time></trkpt><trkpt lat="42.0818483" lon="12.1604783"><ele>271.0</ele><time>2026-04-19T16:19:55.22Z</time></trkpt><trkpt lat="42.0818217" lon="12.1605683"><ele>271.0</ele><time>2026-04-19T16:19:57.222Z</time></trkpt><trkpt lat="42.0817983" lon="12.16066"><ele>271.0</ele><time>2026-04-19T16:19:59.222Z</time></trkpt><trkpt lat="42.0817783" lon="12.1607483"><ele>271.0</ele><time>2026-04-19T16:20:01.222Z</time></trkpt><trkpt lat="42.0817467" lon="12.16086"><ele>271.0</ele><time>2026-04-19T16:20:04.22Z</time></trkpt><trkpt lat="42.0817333" lon="12.1609683"><ele>271.0</ele><time>2026-04-19T16:20:07.222Z</time></trkpt><trkpt lat="42.08171" lon="12.161065"><ele>271.0</ele><time>2026-04-19T16:20:10.223Z</time></trkpt><trkpt lat="42.0816867" lon="12.16117"><ele>271.16666666666663</ele><time>2026-04-19T16:20:13.231Z</time></trkpt><trkpt lat="42.0816683" lon="12.16127"><ele>271.3333333333333</ele><time>2026-04-19T16:20:16.223Z</time></trkpt><trkpt lat="42.0816417" lon="12.161365"><ele>271.5</ele><time>2026-04-19T16:20:19.22Z</time></trkpt><trkpt lat="42.081605" lon="12.1614633"><ele>271.6666666666667</ele><time>2026-04-19T16:20:22.221Z</time></trkpt><trkpt lat="42.0815817" lon="12.1615683"><ele>271.83333333333337</ele><time>2026-04-19T16:20:25.222Z</time></trkpt><trkpt lat="42.081555" lon="12.1616617"><ele>272.0</ele><time>2026-04-19T16:20:28.22Z</time></trkpt><trkpt lat="42.0815267" lon="12.1617483"><ele>272.1428571428571</ele><time>2026-04-19T16:20:31.221Z</time></trkpt><trkpt lat="42.0814983" lon="12.1618467"><ele>272.2857142857143</ele><time>2026-04-19T16:20:34.224Z</time></trkpt><trkpt lat="42.0814833" lon="12.1619367"><ele>272.42857142857144</ele><time>2026-04-19T16:20:37.224Z</time></trkpt><trkpt lat="42.0814767" lon="12.1620233"><ele>272.57142857142856</ele><time>2026-04-19T16:20:40.224Z</time></trkpt><trkpt lat="42.081455" lon="12.1621167"><ele>272.7142857142857</ele><time>2026-04-19T16:20:43.222Z</time></trkpt><trkpt lat="42.0814333" lon="12.1622133"><ele>272.85714285714283</ele><time>2026-04-19T16:20:45.222Z</time></trkpt><trkpt lat="42.0814117" lon="12.162325"><ele>273.0</ele><time>2026-04-19T16:20:47.231Z</time></trkpt><trkpt lat="42.0813817" lon="12.1624583"><ele>272.4</ele><time>2026-04-19T16:20:49.219Z</time></trkpt><trkpt lat="42.081345" lon="12.162595"><ele>271.8</ele><time>2026-04-19T16:20:51.22Z</time></trkpt><trkpt lat="42.0813133" lon="12.1627617"><ele>271.2</ele><time>2026-04-19T16:20:53.222Z</time></trkpt><trkpt lat="42.08129" lon="12.1628583"><ele>270.6</ele><time>2026-04-19T16:20:54.224Z</time></trkpt><trkpt lat="42.0812717" lon="12.1629633"><ele>270.0</ele><time>2026-04-19T16:20:55.22Z</time></trkpt><trkpt lat="42.0812567" lon="12.16307"><ele>270.0</ele><time>2026-04-19T16:20:56.223Z</time></trkpt><trkpt lat="42.0812383" lon="12.163175"><ele>270.0</ele><time>2026-04-19T16:20:57.22Z</time></trkpt><trkpt lat="42.0812167" lon="12.16329"><ele>270.0</ele><time>2026-04-19T16:20:58.22Z</time></trkpt><trkpt lat="42.0811917" lon="12.1634"><ele>270.0</ele><time>2026-04-19T16:20:59.22Z</time></trkpt><trkpt lat="42.08117" lon="12.1635083"><ele>270.0</ele><time>2026-04-19T16:21:00.227Z</time></trkpt><trkpt lat="42.0811517" lon="12.16361"><ele>270.0</ele><time>2026-04-19T16:21:01.22Z</time></trkpt><trkpt lat="42.08113" lon="12.16372"><ele>269.8333333333333</ele><time>2026-04-19T16:21:02.22Z</time></trkpt><trkpt lat="42.0811117" lon="12.1638283"><ele>269.6666666666667</ele><time>2026-04-19T16:21:03.22Z</time></trkpt><trkpt lat="42.0810867" lon="12.163935"><ele>269.5</ele><time>2026-04-19T16:21:04.228Z</time></trkpt><trkpt lat="42.0810617" lon="12.1640383"><ele>269.33333333333337</ele><time>2026-04-19T16:21:05.22Z</time></trkpt><trkpt lat="42.0810467" lon="12.1641433"><ele>269.1666666666667</ele><time>2026-04-19T16:21:06.22Z</time></trkpt><trkpt lat="42.0810283" lon="12.1642467"><ele>269.0</ele><time>2026-04-19T16:21:07.228Z</time></trkpt><trkpt lat="42.0810067" lon="12.1643383"><ele>269.0</ele><time>2026-04-19T16:21:08.219Z</time></trkpt><trkpt lat="42.0809883" lon="12.16443"><ele>269.0</ele><time>2026-04-19T16:21:09.223Z</time></trkpt><trkpt lat="42.080965" lon="12.1645117"><ele>269.0</ele><time>2026-04-19T16:21:10.222Z</time></trkpt><trkpt lat="42.0809483" lon="12.1646"><ele>269.0</ele><time>2026-04-19T16:21:11.22Z</time></trkpt><trkpt lat="42.0809317" lon="12.1646833"><ele>269.0</ele><time>2026-04-19T16:21:12.218Z</time></trkpt><trkpt lat="42.080895" lon="12.16484"><ele>269.0</ele><time>2026-04-19T16:21:14.229Z</time></trkpt><trkpt lat="42.0808783" lon="12.1649283"><ele>269.0</ele><time>2026-04-19T16:21:15.223Z</time></trkpt><trkpt lat="42.0808617" lon="12.1650133"><ele>269.0</ele><time>2026-04-19T16:21:16.219Z</time></trkpt><trkpt lat="42.0808417" lon="12.1650967"><ele>269.0</ele><time>2026-04-19T16:21:17.221Z</time></trkpt><trkpt lat="42.0808183" lon="12.1651833"><ele>269.0</ele><time>2026-04-19T16:21:18.219Z</time></trkpt><trkpt lat="42.0807883" lon="12.165345"><ele>269.0</ele><time>2026-04-19T16:21:20.221Z</time></trkpt><trkpt lat="42.080775" lon="12.16543"><ele>269.0</ele><time>2026-04-19T16:21:21.222Z</time></trkpt><trkpt lat="42.0807567" lon="12.1655133"><ele>269.14285714285717</ele><time>2026-04-19T16:21:22.224Z</time></trkpt><trkpt lat="42.0807367" lon="12.1655967"><ele>269.28571428571433</ele><time>2026-04-19T16:21:23.222Z</time></trkpt><trkpt lat="42.0807183" lon="12.1656783"><ele>269.42857142857144</ele><time>2026-04-19T16:21:24.228Z</time></trkpt><trkpt lat="42.0806983" lon="12.16577"><ele>269.57142857142856</ele><time>2026-04-19T16:21:25.221Z</time></trkpt><trkpt lat="42.080685" lon="12.1658533"><ele>269.71428571428567</ele><time>2026-04-19T16:21:26.22Z</time></trkpt><trkpt lat="42.0806717" lon="12.1659467"><ele>269.85714285714283</ele><time>2026-04-19T16:21:27.221Z</time></trkpt><trkpt lat="42.0806533" lon="12.1660367"><ele>270.0</ele><time>2026-04-19T16:21:28.221Z</time></trkpt><trkpt lat="42.0806283" lon="12.166125"><ele>270.0</ele><time>2026-04-19T16:21:29.226Z</time></trkpt><trkpt lat="42.08061" lon="12.166215"><ele>270.0</ele><time>2026-04-19T16:21:30.221Z</time></trkpt><trkpt lat="42.0805933" lon="12.16631"><ele>270.0</ele><time>2026-04-19T16:21:31.22Z</time></trkpt><trkpt lat="42.08058" lon="12.1663933"><ele>270.0</ele><time>2026-04-19T16:21:32.22Z</time></trkpt><trkpt lat="42.08056" lon="12.1664767"><ele>270.0</ele><time>2026-04-19T16:21:33.222Z</time></trkpt><trkpt lat="42.0805233" lon="12.1666383"><ele>270.0</ele><time>2026-04-19T16:21:35.226Z</time></trkpt><trkpt lat="42.0805033" lon="12.1667233"><ele>269.6</ele><time>2026-04-19T16:21:36.22Z</time></trkpt><trkpt lat="42.080485" lon="12.16682"><ele>269.2</ele><time>2026-04-19T16:21:37.222Z</time></trkpt><trkpt lat="42.0804667" lon="12.1669033"><ele>268.8</ele><time>2026-04-19T16:21:38.221Z</time></trkpt><trkpt lat="42.0804367" lon="12.1670517"><ele>268.4</ele><time>2026-04-19T16:21:40.22Z</time></trkpt><trkpt lat="42.0804133" lon="12.1671917"><ele>268.0</ele><time>2026-04-19T16:21:42.221Z</time></trkpt><trkpt lat="42.0803867" lon="12.1673233"><ele>267.75</ele><time>2026-04-19T16:21:44.222Z</time></trkpt><trkpt lat="42.0803567" lon="12.1674633"><ele>267.5</ele><time>2026-04-19T16:21:46.224Z</time></trkpt><trkpt lat="42.0803233" lon="12.1676083"><ele>267.25</ele><time>2026-04-19T16:21:48.221Z</time></trkpt><trkpt lat="42.08029" lon="12.16776"><ele>267.0</ele><time>2026-04-19T16:21:50.22Z</time></trkpt><trkpt lat="42.0802533" lon="12.167925"><ele>267.0</ele><time>2026-04-19T16:21:52.219Z</time></trkpt><trkpt lat="42.080235" lon="12.1680067"><ele>267.0</ele><time>2026-04-19T16:21:53.23Z</time></trkpt><trkpt lat="42.0802033" lon="12.168165"><ele>267.0</ele><time>2026-04-19T16:21:55.221Z</time></trkpt><trkpt lat="42.0801717" lon="12.1683233"><ele>267.0</ele><time>2026-04-19T16:21:57.22Z</time></trkpt><trkpt lat="42.0801383" lon="12.1684733"><ele>267.0</ele><time>2026-04-19T16:21:59.227Z</time></trkpt><trkpt lat="42.0801083" lon="12.1686217"><ele>267.0</ele><time>2026-04-19T16:22:01.221Z</time></trkpt><trkpt lat="42.08008" lon="12.168775"><ele>267.0</ele><time>2026-04-19T16:22:03.221Z</time></trkpt><trkpt lat="42.0800417" lon="12.1689183"><ele>267.0</ele><time>2026-04-19T16:22:05.22Z</time></trkpt><trkpt lat="42.08002" lon="12.16907"><ele>267.0</ele><time>2026-04-19T16:22:07.221Z</time></trkpt><trkpt lat="42.080015" lon="12.1692217"><ele>267.6</ele><time>2026-04-19T16:22:09.223Z</time></trkpt><trkpt lat="42.0800133" lon="12.1693633"><ele>268.2</ele><time>2026-04-19T16:22:11.22Z</time></trkpt><trkpt lat="42.0800133" lon="12.1695133"><ele>268.8</ele><time>2026-04-19T16:22:13.222Z</time></trkpt><trkpt lat="42.0800133" lon="12.1696567"><ele>269.4</ele><time>2026-04-19T16:22:15.222Z</time></trkpt><trkpt lat="42.0800167" lon="12.1697933"><ele>270.0</ele><time>2026-04-19T16:22:17.223Z</time></trkpt><trkpt lat="42.0800183" lon="12.1699083"><ele>270.5</ele><time>2026-04-19T16:22:19.223Z</time></trkpt><trkpt lat="42.0800117" lon="12.17"><ele>271.0</ele><time>2026-04-19T16:22:21.221Z</time></trkpt><trkpt lat="42.08006" lon="12.1700783"><ele>271.5</ele><time>2026-04-19T16:22:25.224Z</time></trkpt><trkpt lat="42.0801283" lon="12.17009"><ele>272.0</ele><time>2026-04-19T16:22:27.222Z</time></trkpt><trkpt lat="42.0802167" lon="12.1700833"><ele>272.5</ele><time>2026-04-19T16:22:29.22Z</time></trkpt><trkpt lat="42.080305" lon="12.1700767"><ele>273.0</ele><time>2026-04-19T16:22:31.221Z</time></trkpt><trkpt lat="42.080395" lon="12.1700667"><ele>273.0</ele><time>2026-04-19T16:22:33.221Z</time></trkpt><trkpt lat="42.080485" lon="12.170055"><ele>273.0</ele><time>2026-04-19T16:22:35.22Z</time></trkpt><trkpt lat="42.0805733" lon="12.1700467"><ele>273.0</ele><time>2026-04-19T16:22:37.22Z</time></trkpt><trkpt lat="42.080665" lon="12.1700333"><ele>273.0</ele><time>2026-04-19T16:22:39.221Z</time></trkpt><trkpt lat="42.0807583" lon="12.1700167"><ele>273.0</ele><time>2026-04-19T16:22:41.223Z</time></trkpt><trkpt lat="42.0808483" lon="12.1699983"><ele>273.1666666666667</ele><time>2026-04-19T16:22:43.224Z</time></trkpt><trkpt lat="42.08094" lon="12.1699833"><ele>273.3333333333333</ele><time>2026-04-19T16:22:45.223Z</time></trkpt><trkpt lat="42.0810283" lon="12.1699667"><ele>273.5</ele><time>2026-04-19T16:22:47.22Z</time></trkpt><trkpt lat="42.0811133" lon="12.1699483"><ele>273.66666666666663</ele><time>2026-04-19T16:22:49.223Z</time></trkpt><trkpt lat="42.0811933" lon="12.1699367"><ele>273.8333333333333</ele><time>2026-04-19T16:22:51.222Z</time></trkpt><trkpt lat="42.081275" lon="12.1699183"><ele>274.0</ele><time>2026-04-19T16:22:53.222Z</time></trkpt><trkpt lat="42.0813533" lon="12.1699017"><ele>274.00000000000006</ele><time>2026-04-19T16:22:55.222Z</time></trkpt><trkpt lat="42.0814267" lon="12.1698933"><ele>274.0</ele><time>2026-04-19T16:22:57.22Z</time></trkpt><trkpt lat="42.0814967" lon="12.16988"><ele>274.0</ele><time>2026-04-19T16:22:59.223Z</time></trkpt><trkpt lat="42.0815633" lon="12.169865"><ele>274.0</ele><time>2026-04-19T16:23:01.226Z</time></trkpt><trkpt lat="42.0816333" lon="12.16985"><ele>274.0</ele><time>2026-04-19T16:23:03.222Z</time></trkpt><trkpt lat="42.0816983" lon="12.1698317"><ele>274.00000000000006</ele><time>2026-04-19T16:23:05.222Z</time></trkpt><trkpt lat="42.0817617" lon="12.1698217"><ele>274.0</ele><time>2026-04-19T16:23:07.219Z</time></trkpt><trkpt lat="42.0818467" lon="12.1698067"><ele>274.5</ele><time>2026-04-19T16:23:10.229Z</time></trkpt><trkpt lat="42.0819267" lon="12.16978"><ele>275.0</ele><time>2026-04-19T16:23:13.223Z</time></trkpt><trkpt lat="42.0819917" lon="12.16977"><ele>275.5</ele><time>2026-04-19T16:23:15.222Z</time></trkpt><trkpt lat="42.08208" lon="12.16974"><ele>276.0</ele><time>2026-04-19T16:23:18.221Z</time></trkpt><trkpt lat="42.08217" lon="12.1697167"><ele>276.5</ele><time>2026-04-19T16:23:21.233Z</time></trkpt><trkpt lat="42.0822333" lon="12.169705"><ele>277.0</ele><time>2026-04-19T16:23:23.226Z</time></trkpt><trkpt lat="42.08232" lon="12.1696933"><ele>277.0</ele><time>2026-04-19T16:23:26.229Z</time></trkpt><trkpt lat="42.0823983" lon="12.169685"><ele>277.0</ele><time>2026-04-19T16:23:29.22Z</time></trkpt><trkpt lat="42.0824717" lon="12.1696633"><ele>277.0</ele><time>2026-04-19T16:23:32.221Z</time></trkpt><trkpt lat="42.08255" lon="12.16965"><ele>277.0</ele><time>2026-04-19T16:23:35.221Z</time></trkpt><trkpt lat="42.0826317" lon="12.1696283"><ele>277.0</ele><time>2026-04-19T16:23:38.22Z</time></trkpt><trkpt lat="42.0827067" lon="12.1696117"><ele>277.0</ele><time>2026-04-19T16:23:41.222Z</time></trkpt><trkpt lat="42.08278" lon="12.1695983"><ele>277.57142857142856</ele><time>2026-04-19T16:23:44.23Z</time></trkpt><trkpt lat="42.08285" lon="12.16958"><ele>278.1428571428571</ele><time>2026-04-19T16:23:47.226Z</time></trkpt><trkpt lat="42.082925" lon="12.1695567"><ele>278.7142857142857</ele><time>2026-04-19T16:23:50.225Z</time></trkpt><trkpt lat="42.0829983" lon="12.1695317"><ele>279.2857142857143</ele><time>2026-04-19T16:23:53.224Z</time></trkpt><trkpt lat="42.083065" lon="12.1695217"><ele>279.8571428571429</ele><time>2026-04-19T16:23:56.22Z</time></trkpt><trkpt lat="42.0831283" lon="12.1695133"><ele>280.42857142857144</ele><time>2026-04-19T16:23:59.222Z</time></trkpt><trkpt lat="42.0831917" lon="12.169495"><ele>281.0</ele><time>2026-04-19T16:24:02.224Z</time></trkpt><trkpt lat="42.083275" lon="12.16949"><ele>281.7142857142857</ele><time>2026-04-19T16:24:06.22Z</time></trkpt><trkpt lat="42.0833567" lon="12.1694717"><ele>282.42857142857144</ele><time>2026-04-19T16:24:10.223Z</time></trkpt><trkpt lat="42.08342" lon="12.1694567"><ele>283.1428571428571</ele><time>2026-04-19T16:24:13.219Z</time></trkpt><trkpt lat="42.0834867" lon="12.16944"><ele>283.8571428571429</ele><time>2026-04-19T16:24:16.223Z</time></trkpt><trkpt lat="42.0835567" lon="12.16942"><ele>284.57142857142856</ele><time>2026-04-19T16:24:19.222Z</time></trkpt><trkpt lat="42.0836233" lon="12.1694"><ele>285.2857142857143</ele><time>2026-04-19T16:24:22.222Z</time></trkpt><trkpt lat="42.0837017" lon="12.169385"><ele>286.0</ele><time>2026-04-19T16:24:26.223Z</time></trkpt><trkpt lat="42.083775" lon="12.1693733"><ele>285.99999999999994</ele><time>2026-04-19T16:24:30.218Z</time></trkpt><trkpt lat="42.0838483" lon="12.1693567"><ele>286.0</ele><time>2026-04-19T16:24:34.223Z</time></trkpt><trkpt lat="42.0839233" lon="12.16935"><ele>286.0</ele><time>2026-04-19T16:24:38.224Z</time></trkpt><trkpt lat="42.083985" lon="12.1694033"><ele>286.0</ele><time>2026-04-19T16:24:42.222Z</time></trkpt><trkpt lat="42.084005" lon="12.1695083"><ele>286.0</ele><time>2026-04-19T16:24:46.228Z</time></trkpt><trkpt lat="42.084015" lon="12.1695933"><ele>285.99999999999994</ele><time>2026-04-19T16:24:49.226Z</time></trkpt><trkpt lat="42.0840317" lon="12.1696783"><ele>286.0</ele><time>2026-04-19T16:24:52.223Z</time></trkpt><trkpt lat="42.0840417" lon="12.16977"><ele>286.3333333333333</ele><time>2026-04-19T16:24:55.222Z</time></trkpt><trkpt lat="42.08404" lon="12.1698633"><ele>286.66666666666663</ele><time>2026-04-19T16:24:58.223Z</time></trkpt><trkpt lat="42.0840417" lon="12.1699533"><ele>287.0</ele><time>2026-04-19T16:25:01.22Z</time></trkpt><trkpt lat="42.0840483" lon="12.170055"><ele>287.3333333333333</ele><time>2026-04-19T16:25:04.225Z</time></trkpt><trkpt lat="42.0840583" lon="12.1701767"><ele>287.6666666666667</ele><time>2026-04-19T16:25:07.221Z</time></trkpt><trkpt lat="42.0840633" lon="12.1702617"><ele>288.0</ele><time>2026-04-19T16:25:09.229Z</time></trkpt><trkpt lat="42.0840683" lon="12.170385"><ele>288.0</ele><time>2026-04-19T16:25:12.223Z</time></trkpt><trkpt lat="42.08407" lon="12.1704717"><ele>288.0</ele><time>2026-04-19T16:25:14.223Z</time></trkpt><trkpt lat="42.0840667" lon="12.17056"><ele>288.0</ele><time>2026-04-19T16:25:16.222Z</time></trkpt><trkpt lat="42.0840633" lon="12.170685"><ele>288.0</ele><time>2026-04-19T16:25:19.224Z</time></trkpt><trkpt lat="42.0840617" lon="12.17081"><ele>288.0</ele><time>2026-04-19T16:25:22.223Z</time></trkpt><trkpt lat="42.0840617" lon="12.1708967"><ele>288.0</ele><time>2026-04-19T16:25:24.223Z</time></trkpt><trkpt lat="42.0840667" lon="12.17102"><ele>288.3333333333333</ele><time>2026-04-19T16:25:27.225Z</time></trkpt><trkpt lat="42.0840633" lon="12.1711367"><ele>288.6666666666667</ele><time>2026-04-19T16:25:30.225Z</time></trkpt><trkpt lat="42.0840667" lon="12.1712567"><ele>289.0</ele><time>2026-04-19T16:25:33.224Z</time></trkpt><trkpt lat="42.08407" lon="12.1713583"><ele>289.33333333333337</ele><time>2026-04-19T16:25:36.23Z</time></trkpt><trkpt lat="42.0840683" lon="12.1714517"><ele>289.6666666666667</ele><time>2026-04-19T16:25:39.222Z</time></trkpt><trkpt lat="42.0840717" lon="12.1715417"><ele>290.0</ele><time>2026-04-19T16:25:42.219Z</time></trkpt><trkpt lat="42.084075" lon="12.1716267"><ele>290.0</ele><time>2026-04-19T16:25:45.223Z</time></trkpt><trkpt lat="42.0840717" lon="12.1717267"><ele>290.0</ele><time>2026-04-19T16:25:48.227Z</time></trkpt><trkpt lat="42.08408" lon="12.1718367"><ele>290.0</ele><time>2026-04-19T16:25:51.224Z</time></trkpt><trkpt lat="42.084085" lon="12.1720317"><ele>290.0</ele><time>2026-04-19T16:26:18.226Z</time></trkpt><trkpt lat="42.08409" lon="12.17213"><ele>290.0</ele><time>2026-04-19T16:26:20.225Z</time></trkpt><trkpt lat="42.0840933" lon="12.172225"><ele>290.0</ele><time>2026-04-19T16:26:22.223Z</time></trkpt><trkpt lat="42.0840883" lon="12.1723267"><ele>290.0</ele><time>2026-04-19T16:26:24.23Z</time></trkpt><trkpt lat="42.0840933" lon="12.1724533"><ele>290.0</ele><time>2026-04-19T16:26:26.223Z</time></trkpt><trkpt lat="42.0840917" lon="12.1725383"><ele>290.0</ele><time>2026-04-19T16:26:27.222Z</time></trkpt><trkpt lat="42.0840933" lon="12.1726383"><ele>290.0</ele><time>2026-04-19T16:26:28.225Z</time></trkpt><trkpt lat="42.0841" lon="12.1727483"><ele>290.0</ele><time>2026-04-19T16:26:29.221Z</time></trkpt><trkpt lat="42.0841067" lon="12.1728717"><ele>290.0</ele><time>2026-04-19T16:26:30.222Z</time></trkpt><trkpt lat="42.0841133" lon="12.1729967"><ele>290.0</ele><time>2026-04-19T16:26:31.222Z</time></trkpt><trkpt lat="42.08412" lon="12.1731233"><ele>290.0</ele><time>2026-04-19T16:26:32.222Z</time></trkpt><trkpt lat="42.0841267" lon="12.1732517"><ele>290.0</ele><time>2026-04-19T16:26:33.225Z</time></trkpt><trkpt lat="42.084135" lon="12.1733817"><ele>290.0</ele><time>2026-04-19T16:26:34.227Z</time></trkpt><trkpt lat="42.0841383" lon="12.173505"><ele>290.0</ele><time>2026-04-19T16:26:35.221Z</time></trkpt><trkpt lat="42.0841383" lon="12.1736333"><ele>290.0</ele><time>2026-04-19T16:26:36.222Z</time></trkpt><trkpt lat="42.08414" lon="12.17376"><ele>290.0</ele><time>2026-04-19T16:26:37.225Z</time></trkpt><trkpt lat="42.0841417" lon="12.173885"><ele>290.0</ele><time>2026-04-19T16:26:38.222Z</time></trkpt><trkpt lat="42.0841433" lon="12.1740083"><ele>290.0</ele><time>2026-04-19T16:26:39.226Z</time></trkpt><trkpt lat="42.0841483" lon="12.1741283"><ele>290.0</ele><time>2026-04-19T16:26:40.22Z</time></trkpt><trkpt lat="42.0841517" lon="12.1742517"><ele>289.4</ele><time>2026-04-19T16:26:41.227Z</time></trkpt><trkpt lat="42.0841567" lon="12.174375"><ele>288.8</ele><time>2026-04-19T16:26:42.223Z</time></trkpt><trkpt lat="42.0841667" lon="12.1744983"><ele>288.2</ele><time>2026-04-19T16:26:43.22Z</time></trkpt><trkpt lat="42.0841717" lon="12.17462"><ele>287.6</ele><time>2026-04-19T16:26:44.221Z</time></trkpt><trkpt lat="42.0841783" lon="12.1747433"><ele>287.0</ele><time>2026-04-19T16:26:45.222Z</time></trkpt><trkpt lat="42.0841817" lon="12.1748667"><ele>286.5</ele><time>2026-04-19T16:26:46.22Z</time></trkpt><trkpt lat="42.0841867" lon="12.1749883"><ele>286.0</ele><time>2026-04-19T16:26:47.221Z</time></trkpt><trkpt lat="42.0841933" lon="12.1751117"><ele>285.5</ele><time>2026-04-19T16:26:48.222Z</time></trkpt><trkpt lat="42.0841967" lon="12.175225"><ele>285.0</ele><time>2026-04-19T16:26:49.22Z</time></trkpt><trkpt lat="42.0842033" lon="12.17534"><ele>284.5</ele><time>2026-04-19T16:26:50.229Z</time></trkpt><trkpt lat="42.08421" lon="12.175445"><ele>284.0</ele><time>2026-04-19T16:26:51.22Z</time></trkpt><trkpt lat="42.0842133" lon="12.175545"><ele>284.0</ele><time>2026-04-19T16:26:52.222Z</time></trkpt><trkpt lat="42.0842133" lon="12.175645"><ele>284.0</ele><time>2026-04-19T16:26:53.219Z</time></trkpt><trkpt lat="42.084215" lon="12.1757533"><ele>284.0</ele><time>2026-04-19T16:26:54.223Z</time></trkpt><trkpt lat="42.084215" lon="12.1758683"><ele>284.0</ele><time>2026-04-19T16:26:55.224Z</time></trkpt><trkpt lat="42.0842183" lon="12.1759867"><ele>284.0</ele><time>2026-04-19T16:26:56.223Z</time></trkpt><trkpt lat="42.0842183" lon="12.17611"><ele>284.0</ele><time>2026-04-19T16:26:57.23Z</time></trkpt><trkpt lat="42.0842217" lon="12.176225"><ele>283.6666666666667</ele><time>2026-04-19T16:26:58.222Z</time></trkpt><trkpt lat="42.084225" lon="12.1763467"><ele>283.33333333333337</ele><time>2026-04-19T16:26:59.222Z</time></trkpt><trkpt lat="42.084225" lon="12.1764567"><ele>283.0</ele><time>2026-04-19T16:27:00.225Z</time></trkpt><trkpt lat="42.0842233" lon="12.1765683"><ele>282.6666666666667</ele><time>2026-04-19T16:27:01.221Z</time></trkpt><trkpt lat="42.0842283" lon="12.1766883"><ele>282.3333333333333</ele><time>2026-04-19T16:27:02.228Z</time></trkpt><trkpt lat="42.0842217" lon="12.176795"><ele>282.0</ele><time>2026-04-19T16:27:03.222Z</time></trkpt><trkpt lat="42.08422" lon="12.176895"><ele>281.8333333333333</ele><time>2026-04-19T16:27:04.226Z</time></trkpt><trkpt lat="42.0842183" lon="12.1769917"><ele>281.6666666666667</ele><time>2026-04-19T16:27:05.223Z</time></trkpt><trkpt lat="42.0842117" lon="12.1770833"><ele>281.5</ele><time>2026-04-19T16:27:06.221Z</time></trkpt><trkpt lat="42.0842183" lon="12.17717"><ele>281.33333333333337</ele><time>2026-04-19T16:27:07.224Z</time></trkpt><trkpt lat="42.0842217" lon="12.1773267"><ele>281.1666666666667</ele><time>2026-04-19T16:27:09.224Z</time></trkpt><trkpt lat="42.0842233" lon="12.1774967"><ele>281.0</ele><time>2026-04-19T16:27:11.229Z</time></trkpt><trkpt lat="42.0842133" lon="12.1776183"><ele>280.5</ele><time>2026-04-19T16:27:13.223Z</time></trkpt><trkpt lat="42.0842333" lon="12.1777033"><ele>280.0</ele><time>2026-04-19T16:27:15.224Z</time></trkpt><trkpt lat="42.0843183" lon="12.1777633"><ele>279.5</ele><time>2026-04-19T16:27:17.224Z</time></trkpt><trkpt lat="42.0844117" lon="12.177855"><ele>279.0</ele><time>2026-04-19T16:27:19.223Z</time></trkpt><trkpt lat="42.0844567" lon="12.17792"><ele>278.5</ele><time>2026-04-19T16:27:20.223Z</time></trkpt><trkpt lat="42.0845033" lon="12.177985"><ele>278.0</ele><time>2026-04-19T16:27:21.221Z</time></trkpt><trkpt lat="42.0845967" lon="12.178115"><ele>277.6666666666667</ele><time>2026-04-19T16:27:23.224Z</time></trkpt><trkpt lat="42.08465" lon="12.178185"><ele>277.33333333333337</ele><time>2026-04-19T16:27:24.222Z</time></trkpt><trkpt lat="42.0847067" lon="12.1782533"><ele>277.0</ele><time>2026-04-19T16:27:25.23Z</time></trkpt><trkpt lat="42.08477" lon="12.1783267"><ele>276.6666666666667</ele><time>2026-04-19T16:27:26.221Z</time></trkpt><trkpt lat="42.084825" lon="12.17841"><ele>276.3333333333333</ele><time>2026-04-19T16:27:27.223Z</time></trkpt><trkpt lat="42.0848817" lon="12.1785"><ele>276.0</ele><time>2026-04-19T16:27:28.224Z</time></trkpt><trkpt lat="42.084935" lon="12.1785783"><ele>275.1666666666667</ele><time>2026-04-19T16:27:29.222Z</time></trkpt><trkpt lat="42.0850067" lon="12.1786433"><ele>274.3333333333333</ele><time>2026-04-19T16:27:30.221Z</time></trkpt><trkpt lat="42.085085" lon="12.1786733"><ele>273.5</ele><time>2026-04-19T16:27:31.223Z</time></trkpt><trkpt lat="42.085165" lon="12.1786783"><ele>272.66666666666663</ele><time>2026-04-19T16:27:32.222Z</time></trkpt><trkpt lat="42.085235" lon="12.1786983"><ele>271.8333333333333</ele><time>2026-04-19T16:27:33.222Z</time></trkpt><trkpt lat="42.0852933" lon="12.17874"><ele>271.0</ele><time>2026-04-19T16:27:34.22Z</time></trkpt><trkpt lat="42.085335" lon="12.17881"><ele>271.0</ele><time>2026-04-19T16:27:35.22Z</time></trkpt><trkpt lat="42.085345" lon="12.1789"><ele>271.0</ele><time>2026-04-19T16:27:36.229Z</time></trkpt><trkpt lat="42.08532" lon="12.1789983"><ele>271.0</ele><time>2026-04-19T16:27:37.224Z</time></trkpt><trkpt lat="42.0852833" lon="12.1790833"><ele>271.0</ele><time>2026-04-19T16:27:38.221Z</time></trkpt><trkpt lat="42.085225" lon="12.17916"><ele>271.0</ele><time>2026-04-19T16:27:39.222Z</time></trkpt><trkpt lat="42.0851683" lon="12.17925"><ele>271.0</ele><time>2026-04-19T16:27:40.221Z</time></trkpt><trkpt lat="42.08511" lon="12.1793417"><ele>270.66666666666663</ele><time>2026-04-19T16:27:41.226Z</time></trkpt><trkpt lat="42.0850483" lon="12.1794317"><ele>270.3333333333333</ele><time>2026-04-19T16:27:42.223Z</time></trkpt><trkpt lat="42.0849867" lon="12.1795167"><ele>270.0</ele><time>2026-04-19T16:27:43.222Z</time></trkpt><trkpt lat="42.0849167" lon="12.1795833"><ele>269.6666666666667</ele><time>2026-04-19T16:27:44.221Z</time></trkpt><trkpt lat="42.0848433" lon="12.179625"><ele>269.33333333333337</ele><time>2026-04-19T16:27:45.223Z</time></trkpt><trkpt lat="42.0847667" lon="12.1796417"><ele>269.0</ele><time>2026-04-19T16:27:46.23Z</time></trkpt><trkpt lat="42.0846983" lon="12.1796417"><ele>269.0</ele><time>2026-04-19T16:27:47.222Z</time></trkpt><trkpt lat="42.084595" lon="12.1796317"><ele>269.0</ele><time>2026-04-19T16:27:49.225Z</time></trkpt><trkpt lat="42.084515" lon="12.179635"><ele>269.0</ele><time>2026-04-19T16:27:51.228Z</time></trkpt><trkpt lat="42.0844283" lon="12.1796533"><ele>269.0</ele><time>2026-04-19T16:27:54.222Z</time></trkpt></trkseg></trk></gpx>